<?xml version="1.0" encoding="UTF-8" standalone="no" ?><gpx xmlns="http://www.topografix.com/GPX/1/1" xmlns:gpxx="http://www.garmin.com/xmlschemas/GpxExtensions/v3" xmlns:gpxtrkx="http://www.garmin.com/xmlschemas/TrackStatsExtension/v1" xmlns:wptx1="http://www.garmin.com/xmlschemas/WaypointExtension/v1" xmlns:gpxtpx="http://www.garmin.com/xmlschemas/TrackPointExtension/v1" creator="GPSMAP 64st" version="1.1" xmlns:xsi="http://www.w3.org/2001/XMLSchema-instance" xsi:schemaLocation="http://www.topografix.com/GPX/1/1 http://www.topografix.com/GPX/1/1/gpx.xsd http://www.garmin.com/xmlschemas/GpxExtensions/v3 http://www8.garmin.com/xmlschemas/GpxExtensionsv3.xsd http://www.garmin.com/xmlschemas/TrackStatsExtension/v1 http://www8.garmin.com/xmlschemas/TrackStatsExtension.xsd http://www.garmin.com/xmlschemas/WaypointExtension/v1 http://www8.garmin.com/xmlschemas/WaypointExtensionv1.xsd http://www.garmin.com/xmlschemas/TrackPointExtension/v1 http://www.garmin.com/xmlschemas/TrackPointExtensionv1.xsd"><metadata><link href="http://www.garmin.com"><text>Garmin International</text></link><time>2026-04-25T14:00:59Z</time></metadata><trk><name>2026-04-25 17:00:54</name><extensions><gpxtrkx:TrackStatsExtension><gpxtrkx:Distance>12247.000</gpxtrkx:Distance><gpxtrkx:TotalElapsedTime>21944</gpxtrkx:TotalElapsedTime><gpxtrkx:MovingTime>18059</gpxtrkx:MovingTime><gpxtrkx:StoppedTime>3876</gpxtrkx:StoppedTime><gpxtrkx:MovingSpeed>0.678</gpxtrkx:MovingSpeed><gpxtrkx:MaxSpeed>2.844</gpxtrkx:MaxSpeed><gpxtrkx:MaxElevation>135.216</gpxtrkx:MaxElevation><gpxtrkx:MinElevation>3.303</gpxtrkx:MinElevation><gpxtrkx:Ascent>537.000</gpxtrkx:Ascent><gpxtrkx:Descent>558.107</gpxtrkx:Descent><gpxtrkx:AvgAscentRate>0.045</gpxtrkx:AvgAscentRate><gpxtrkx:MaxAscentRate>1.305</gpxtrkx:MaxAscentRate><gpxtrkx:AvgDescentRate>0.044</gpxtrkx:AvgDescentRate><gpxtrkx:MaxDescentRate>-2.000</gpxtrkx:MaxDescentRate></gpxtrkx:TrackStatsExtension></extensions><trkseg><trkpt lat="59.0632275492" lon="30.0310777221"><ele>70.41</ele><time>2026-04-25T07:55:15Z</time></trkpt><trkpt lat="59.0632270463" lon="30.0310817454"><ele>70.41</ele><time>2026-04-25T07:55:16Z</time></trkpt><trkpt lat="59.0632249508" lon="30.0310795661"><ele>78.22</ele><time>2026-04-25T07:55:19Z</time></trkpt><trkpt lat="59.0632222686" lon="30.0310631376"><ele>78.22</ele><time>2026-04-25T07:55:20Z</time></trkpt><trkpt lat="59.0632163174" lon="30.0310282689"><ele>75.12</ele><time>2026-04-25T07:55:22Z</time></trkpt><trkpt lat="59.0632126294" lon="30.0310101639"><ele>74.88</ele><time>2026-04-25T07:55:23Z</time></trkpt><trkpt lat="59.0632052533" lon="30.0309623871"><ele>73.41</ele><time>2026-04-25T07:55:33Z</time></trkpt><trkpt lat="59.0631998051" lon="30.0309136882"><ele>70.31</ele><time>2026-04-25T07:55:48Z</time></trkpt><trkpt lat="59.0632008947" lon="30.0309142750"><ele>67.02</ele><time>2026-04-25T07:56:11Z</time></trkpt><trkpt lat="59.0632116236" lon="30.0309276860"><ele>63.98</ele><time>2026-04-25T07:56:38Z</time></trkpt><trkpt lat="59.0632256214" lon="30.0309307035"><ele>60.95</ele><time>2026-04-25T07:57:13Z</time></trkpt><trkpt lat="59.0632087737" lon="30.0309434440"><ele>63.40</ele><time>2026-04-25T07:57:39Z</time></trkpt><trkpt lat="59.0632463247" lon="30.0310136005"><ele>62.03</ele><time>2026-04-25T07:58:05Z</time></trkpt><trkpt lat="59.0632498451" lon="30.0310135167"><ele>62.79</ele><time>2026-04-25T07:58:34Z</time></trkpt><trkpt lat="59.0632320754" lon="30.0309909694"><ele>61.88</ele><time>2026-04-25T07:59:24Z</time></trkpt><trkpt lat="59.0632267110" lon="30.0309524965"><ele>60.37</ele><time>2026-04-25T07:59:47Z</time></trkpt><trkpt lat="59.0632355958" lon="30.0309486408"><ele>60.70</ele><time>2026-04-25T08:00:48Z</time></trkpt><trkpt lat="59.0632305667" lon="30.0309436955"><ele>59.23</ele><time>2026-04-25T08:01:06Z</time></trkpt><trkpt lat="59.0632301476" lon="30.0309604593"><ele>60.85</ele><time>2026-04-25T08:01:51Z</time></trkpt><trkpt lat="59.0632297285" lon="30.0309571065"><ele>62.97</ele><time>2026-04-25T08:02:53Z</time></trkpt><trkpt lat="59.0632349253" lon="30.0309656560"><ele>64.16</ele><time>2026-04-25T08:03:11Z</time></trkpt><trkpt lat="59.0632319916" lon="30.0309461262"><ele>63.85</ele><time>2026-04-25T08:03:49Z</time></trkpt><trkpt lat="59.0632167365" lon="30.0309579447"><ele>63.98</ele><time>2026-04-25T08:05:06Z</time></trkpt><trkpt lat="59.0632220171" lon="30.0309801567"><ele>63.80</ele><time>2026-04-25T08:06:28Z</time></trkpt><trkpt lat="59.0632262081" lon="30.0309948251"><ele>63.67</ele><time>2026-04-25T08:07:13Z</time></trkpt><trkpt lat="59.0632258728" lon="30.0309879519"><ele>62.03</ele><time>2026-04-25T08:07:27Z</time></trkpt><trkpt lat="59.0632284712" lon="30.0309536699"><ele>61.70</ele><time>2026-04-25T08:07:52Z</time></trkpt><trkpt lat="59.0632224362" lon="30.0309496466"><ele>58.17</ele><time>2026-04-25T08:08:08Z</time></trkpt><trkpt lat="59.0632222686" lon="30.0309494790"><ele>57.94</ele><time>2026-04-25T08:08:09Z</time></trkpt><trkpt lat="59.0632306505" lon="30.0309665781"><ele>56.46</ele><time>2026-04-25T08:08:19Z</time></trkpt><trkpt lat="59.0632357635" lon="30.0309699308"><ele>55.06</ele><time>2026-04-25T08:08:40Z</time></trkpt><trkpt lat="59.0632335842" lon="30.0309688412"><ele>53.02</ele><time>2026-04-25T08:08:50Z</time></trkpt><trkpt lat="59.0632403735" lon="30.0309695117"><ele>50.46</ele><time>2026-04-25T08:09:15Z</time></trkpt><trkpt lat="59.0632521082" lon="30.0309784804"><ele>48.76</ele><time>2026-04-25T08:09:33Z</time></trkpt><trkpt lat="59.0632531140" lon="30.0309727807"><ele>51.14</ele><time>2026-04-25T08:09:36Z</time></trkpt><trkpt lat="59.0632607415" lon="30.0309776422"><ele>50.57</ele><time>2026-04-25T08:10:01Z</time></trkpt><trkpt lat="59.0632640943" lon="30.0309595373"><ele>50.08</ele><time>2026-04-25T08:10:30Z</time></trkpt><trkpt lat="59.0632653516" lon="30.0309540890"><ele>47.95</ele><time>2026-04-25T08:10:46Z</time></trkpt><trkpt lat="59.0632600710" lon="30.0309635606"><ele>45.04</ele><time>2026-04-25T08:11:13Z</time></trkpt><trkpt lat="59.0632386971" lon="30.0309366547"><ele>44.99</ele><time>2026-04-25T08:11:41Z</time></trkpt><trkpt lat="59.0632291418" lon="30.0309851859"><ele>45.06</ele><time>2026-04-25T08:12:22Z</time></trkpt><trkpt lat="59.0632198378" lon="30.0310117565"><ele>46.59</ele><time>2026-04-25T08:13:45Z</time></trkpt><trkpt lat="59.0632210113" lon="30.0310400873"><ele>47.82</ele><time>2026-04-25T08:14:55Z</time></trkpt><trkpt lat="59.0632257890" lon="30.0310576055"><ele>48.78</ele><time>2026-04-25T08:15:58Z</time></trkpt><trkpt lat="59.0632030740" lon="30.0310062245"><ele>48.81</ele><time>2026-04-25T08:17:10Z</time></trkpt><trkpt lat="59.0632355958" lon="30.0310187973"><ele>48.88</ele><time>2026-04-25T08:17:37Z</time></trkpt><trkpt lat="59.0632789303" lon="30.0310151931"><ele>47.35</ele><time>2026-04-25T08:18:03Z</time></trkpt><trkpt lat="59.0632989630" lon="30.0310162827"><ele>48.15</ele><time>2026-04-25T08:18:46Z</time></trkpt><trkpt lat="59.0632987954" lon="30.0310220663"><ele>44.70</ele><time>2026-04-25T08:18:51Z</time></trkpt><trkpt lat="59.0632990468" lon="30.0310226530"><ele>44.69</ele><time>2026-04-25T08:18:52Z</time></trkpt><trkpt lat="59.0632988792" lon="30.0310632214"><ele>44.69</ele><time>2026-04-25T08:19:20Z</time></trkpt><trkpt lat="59.0632749069" lon="30.0311788078"><ele>43.77</ele><time>2026-04-25T08:19:49Z</time></trkpt><trkpt lat="59.0632661059" lon="30.0309919752"><ele>41.97</ele><time>2026-04-25T08:20:16Z</time></trkpt><trkpt lat="59.0632811934" lon="30.0310243294"><ele>42.65</ele><time>2026-04-25T08:20:39Z</time></trkpt><trkpt lat="59.0632792655" lon="30.0310281850"><ele>38.51</ele><time>2026-04-25T08:20:42Z</time></trkpt><trkpt lat="59.0632766671" lon="30.0310263410"><ele>42.38</ele><time>2026-04-25T08:20:43Z</time></trkpt><trkpt lat="59.0632752422" lon="30.0310256705"><ele>42.31</ele><time>2026-04-25T08:20:44Z</time></trkpt><trkpt lat="59.0632598195" lon="30.0309738703"><ele>40.43</ele><time>2026-04-25T08:21:06Z</time></trkpt><trkpt lat="59.0632674471" lon="30.0309671648"><ele>43.56</ele><time>2026-04-25T08:21:15Z</time></trkpt><trkpt lat="59.0633154754" lon="30.0310055539"><ele>43.52</ele><time>2026-04-25T08:21:45Z</time></trkpt><trkpt lat="59.0633652639" lon="30.0310260896"><ele>41.61</ele><time>2026-04-25T08:22:12Z</time></trkpt><trkpt lat="59.0633667726" lon="30.0310896244"><ele>39.13</ele><time>2026-04-25T08:22:43Z</time></trkpt><trkpt lat="59.0633446444" lon="30.0311892014"><ele>37.49</ele><time>2026-04-25T08:23:16Z</time></trkpt><trkpt lat="59.0633401182" lon="30.0312209688"><ele>34.19</ele><time>2026-04-25T08:23:35Z</time></trkpt><trkpt lat="59.0633230191" lon="30.0312290154"><ele>36.20</ele><time>2026-04-25T08:23:38Z</time></trkpt><trkpt lat="59.0633066744" lon="30.0312230643"><ele>33.02</ele><time>2026-04-25T08:23:44Z</time></trkpt><trkpt lat="59.0632941015" lon="30.0312316976"><ele>35.68</ele><time>2026-04-25T08:23:48Z</time></trkpt><trkpt lat="59.0632718056" lon="30.0312974118"><ele>33.87</ele><time>2026-04-25T08:24:17Z</time></trkpt><trkpt lat="59.0633803513" lon="30.0311778020"><ele>31.71</ele><time>2026-04-25T08:24:40Z</time></trkpt><trkpt lat="59.0634956863" lon="30.0311102439"><ele>30.64</ele><time>2026-04-25T08:24:51Z</time></trkpt><trkpt lat="59.0635798406" lon="30.0310016144"><ele>30.40</ele><time>2026-04-25T08:25:08Z</time></trkpt><trkpt lat="59.0636126976" lon="30.0309961662"><ele>19.59</ele><time>2026-04-25T08:25:27Z</time></trkpt><trkpt lat="59.0636125300" lon="30.0310032070"><ele>16.58</ele><time>2026-04-25T08:25:29Z</time></trkpt><trkpt lat="59.0636137035" lon="30.0310067274"><ele>21.18</ele><time>2026-04-25T08:25:30Z</time></trkpt><trkpt lat="59.0636162180" lon="30.0310080685"><ele>28.28</ele><time>2026-04-25T08:25:31Z</time></trkpt><trkpt lat="59.0636182297" lon="30.0310120080"><ele>28.28</ele><time>2026-04-25T08:25:32Z</time></trkpt><trkpt lat="59.0637078322" lon="30.0309626386"><ele>25.23</ele><time>2026-04-25T08:25:53Z</time></trkpt><trkpt lat="59.0637240093" lon="30.0308820046"><ele>25.21</ele><time>2026-04-25T08:26:14Z</time></trkpt><trkpt lat="59.0636151284" lon="30.0306843594"><ele>23.46</ele><time>2026-04-25T08:26:46Z</time></trkpt><trkpt lat="59.0635995381" lon="30.0307047274"><ele>23.00</ele><time>2026-04-25T08:26:58Z</time></trkpt><trkpt lat="59.0635581315" lon="30.0308317132"><ele>22.35</ele><time>2026-04-25T08:27:21Z</time></trkpt><trkpt lat="59.0635632444" lon="30.0308426097"><ele>21.35</ele><time>2026-04-25T08:27:23Z</time></trkpt><trkpt lat="59.0635013860" lon="30.0306938309"><ele>20.40</ele><time>2026-04-25T08:27:43Z</time></trkpt><trkpt lat="59.0634771623" lon="30.0303908251"><ele>19.21</ele><time>2026-04-25T08:28:01Z</time></trkpt><trkpt lat="59.0634917468" lon="30.0300967880"><ele>18.96</ele><time>2026-04-25T08:28:20Z</time></trkpt><trkpt lat="59.0634351689" lon="30.0297278166"><ele>17.85</ele><time>2026-04-25T08:28:40Z</time></trkpt><trkpt lat="59.0633777529" lon="30.0292249862"><ele>17.28</ele><time>2026-04-25T08:29:02Z</time></trkpt><trkpt lat="59.0633325744" lon="30.0287518278"><ele>16.99</ele><time>2026-04-25T08:29:26Z</time></trkpt><trkpt lat="59.0632936824" lon="30.0283161364"><ele>16.56</ele><time>2026-04-25T08:29:47Z</time></trkpt><trkpt lat="59.0632247832" lon="30.0277475920"><ele>16.02</ele><time>2026-04-25T08:30:10Z</time></trkpt><trkpt lat="59.0631985478" lon="30.0274823047"><ele>15.97</ele><time>2026-04-25T08:30:23Z</time></trkpt><trkpt lat="59.0632113721" lon="30.0271393172"><ele>15.17</ele><time>2026-04-25T08:30:45Z</time></trkpt><trkpt lat="59.0631526150" lon="30.0266895443"><ele>14.82</ele><time>2026-04-25T08:31:03Z</time></trkpt><trkpt lat="59.0630842187" lon="30.0260095205"><ele>14.28</ele><time>2026-04-25T08:31:27Z</time></trkpt><trkpt lat="59.0629870724" lon="30.0255455822"><ele>14.26</ele><time>2026-04-25T08:31:48Z</time></trkpt><trkpt lat="59.0629701409" lon="30.0249584299"><ele>13.42</ele><time>2026-04-25T08:32:10Z</time></trkpt><trkpt lat="59.0629473422" lon="30.0244578626"><ele>13.33</ele><time>2026-04-25T08:32:33Z</time></trkpt><trkpt lat="59.0628692228" lon="30.0239568762"><ele>13.10</ele><time>2026-04-25T08:32:54Z</time></trkpt><trkpt lat="59.0628287382" lon="30.0234666187"><ele>12.75</ele><time>2026-04-25T08:33:18Z</time></trkpt><trkpt lat="59.0627622698" lon="30.0228611939"><ele>12.19</ele><time>2026-04-25T08:33:43Z</time></trkpt><trkpt lat="59.0627026744" lon="30.0222316291"><ele>12.00</ele><time>2026-04-25T08:34:07Z</time></trkpt><trkpt lat="59.0627013333" lon="30.0222120155"><ele>12.04</ele><time>2026-04-25T08:34:08Z</time></trkpt><trkpt lat="59.0627097152" lon="30.0219714548"><ele>11.68</ele><time>2026-04-25T08:34:18Z</time></trkpt><trkpt lat="59.0626853239" lon="30.0213949475"><ele>11.75</ele><time>2026-04-25T08:34:41Z</time></trkpt><trkpt lat="59.0626537241" lon="30.0207888521"><ele>11.25</ele><time>2026-04-25T08:35:06Z</time></trkpt><trkpt lat="59.0625973139" lon="30.0204056315"><ele>11.49</ele><time>2026-04-25T08:35:23Z</time></trkpt><trkpt lat="59.0625695698" lon="30.0200769771"><ele>11.55</ele><time>2026-04-25T08:35:35Z</time></trkpt><trkpt lat="59.0624930430" lon="30.0195183232"><ele>11.60</ele><time>2026-04-25T08:36:00Z</time></trkpt><trkpt lat="59.0624740999" lon="30.0191705581"><ele>12.00</ele><time>2026-04-25T08:36:22Z</time></trkpt><trkpt lat="59.0625467710" lon="30.0191763416"><ele>11.89</ele><time>2026-04-25T08:36:39Z</time></trkpt><trkpt lat="59.0625489503" lon="30.0191206019"><ele>11.57</ele><time>2026-04-25T08:37:06Z</time></trkpt><trkpt lat="59.0625476930" lon="30.0191190094"><ele>12.40</ele><time>2026-04-25T08:37:08Z</time></trkpt><trkpt lat="59.0626060311" lon="30.0191641040"><ele>9.30</ele><time>2026-04-25T08:37:31Z</time></trkpt><trkpt lat="59.0626196936" lon="30.0190646946"><ele>11.78</ele><time>2026-04-25T08:37:45Z</time></trkpt><trkpt lat="59.0626807138" lon="30.0188981462"><ele>10.96</ele><time>2026-04-25T08:37:59Z</time></trkpt><trkpt lat="59.0627562348" lon="30.0187362917"><ele>11.23</ele><time>2026-04-25T08:38:16Z</time></trkpt><trkpt lat="59.0628164168" lon="30.0186563283"><ele>11.36</ele><time>2026-04-25T08:38:28Z</time></trkpt><trkpt lat="59.0628829692" lon="30.0185664743"><ele>10.21</ele><time>2026-04-25T08:38:41Z</time></trkpt><trkpt lat="59.0629653633" lon="30.0183914602"><ele>11.09</ele><time>2026-04-25T08:38:54Z</time></trkpt><trkpt lat="59.0630159900" lon="30.0182710961"><ele>10.99</ele><time>2026-04-25T08:39:17Z</time></trkpt><trkpt lat="59.0630200133" lon="30.0182627141"><ele>10.67</ele><time>2026-04-25T08:39:18Z</time></trkpt><trkpt lat="59.0630959533" lon="30.0180944055"><ele>10.94</ele><time>2026-04-25T08:39:36Z</time></trkpt><trkpt lat="59.0631749947" lon="30.0180048868"><ele>9.78</ele><time>2026-04-25T08:39:56Z</time></trkpt><trkpt lat="59.0632417984" lon="30.0178997777"><ele>10.70</ele><time>2026-04-25T08:40:09Z</time></trkpt><trkpt lat="59.0633031540" lon="30.0177474786"><ele>9.39</ele><time>2026-04-25T08:40:29Z</time></trkpt><trkpt lat="59.0633661021" lon="30.0175936706"><ele>8.58</ele><time>2026-04-25T08:40:47Z</time></trkpt><trkpt lat="59.0634287149" lon="30.0174963567"><ele>7.95</ele><time>2026-04-25T08:40:52Z</time></trkpt><trkpt lat="59.0635153838" lon="30.0173226837"><ele>8.15</ele><time>2026-04-25T08:41:08Z</time></trkpt><trkpt lat="59.0635541920" lon="30.0171589851"><ele>8.55</ele><time>2026-04-25T08:41:21Z</time></trkpt><trkpt lat="59.0635923296" lon="30.0171221048"><ele>4.11</ele><time>2026-04-25T08:41:30Z</time></trkpt><trkpt lat="59.0635987837" lon="30.0171204284"><ele>4.08</ele><time>2026-04-25T08:41:31Z</time></trkpt><trkpt lat="59.0636590496" lon="30.0170971267"><ele>5.01</ele><time>2026-04-25T08:41:42Z</time></trkpt><trkpt lat="59.0637649968" lon="30.0169364456"><ele>7.16</ele><time>2026-04-25T08:42:04Z</time></trkpt><trkpt lat="59.0637764800" lon="30.0169292372"><ele>6.16</ele><time>2026-04-25T08:42:06Z</time></trkpt><trkpt lat="59.0638079122" lon="30.0168693904"><ele>9.80</ele><time>2026-04-25T08:42:12Z</time></trkpt><trkpt lat="59.0638115164" lon="30.0168588292"><ele>9.83</ele><time>2026-04-25T08:42:13Z</time></trkpt><trkpt lat="59.0638981014" lon="30.0167299993"><ele>10.79</ele><time>2026-04-25T08:42:27Z</time></trkpt><trkpt lat="59.0639844351" lon="30.0166563224"><ele>11.97</ele><time>2026-04-25T08:42:39Z</time></trkpt><trkpt lat="59.0640080720" lon="30.0166463479"><ele>9.45</ele><time>2026-04-25T08:42:43Z</time></trkpt><trkpt lat="59.0640183818" lon="30.0166372117"><ele>10.48</ele><time>2026-04-25T08:42:45Z</time></trkpt><trkpt lat="59.0640318766" lon="30.0166142453"><ele>11.92</ele><time>2026-04-25T08:42:50Z</time></trkpt><trkpt lat="59.0641104151" lon="30.0165661331"><ele>12.35</ele><time>2026-04-25T08:43:03Z</time></trkpt><trkpt lat="59.0641288552" lon="30.0165378861"><ele>11.11</ele><time>2026-04-25T08:43:06Z</time></trkpt><trkpt lat="59.0641770512" lon="30.0163970701"><ele>11.59</ele><time>2026-04-25T08:43:21Z</time></trkpt><trkpt lat="59.0642451961" lon="30.0163764507"><ele>11.43</ele><time>2026-04-25T08:43:39Z</time></trkpt><trkpt lat="59.0642912965" lon="30.0162026100"><ele>12.53</ele><time>2026-04-25T08:43:56Z</time></trkpt><trkpt lat="59.0642936435" lon="30.0159862731"><ele>12.13</ele><time>2026-04-25T08:44:12Z</time></trkpt><trkpt lat="59.0642831661" lon="30.0158997718"><ele>12.23</ele><time>2026-04-25T08:44:21Z</time></trkpt><trkpt lat="59.0642162785" lon="30.0157875381"><ele>12.66</ele><time>2026-04-25T08:44:41Z</time></trkpt><trkpt lat="59.0641236585" lon="30.0158017874"><ele>12.74</ele><time>2026-04-25T08:44:52Z</time></trkpt><trkpt lat="59.0640689246" lon="30.0157516636"><ele>13.23</ele><time>2026-04-25T08:44:59Z</time></trkpt><trkpt lat="59.0640371572" lon="30.0157277752"><ele>13.44</ele><time>2026-04-25T08:45:03Z</time></trkpt><trkpt lat="59.0639849380" lon="30.0157307088"><ele>10.83</ele><time>2026-04-25T08:45:14Z</time></trkpt><trkpt lat="59.0639496502" lon="30.0157382526"><ele>12.79</ele><time>2026-04-25T08:45:18Z</time></trkpt><trkpt lat="59.0639255941" lon="30.0156725384"><ele>13.35</ele><time>2026-04-25T08:45:28Z</time></trkpt><trkpt lat="59.0639045555" lon="30.0156565290"><ele>13.34</ele><time>2026-04-25T08:45:32Z</time></trkpt><trkpt lat="59.0638669208" lon="30.0156381726"><ele>8.79</ele><time>2026-04-25T08:45:38Z</time></trkpt><trkpt lat="59.0638528392" lon="30.0156209897"><ele>12.78</ele><time>2026-04-25T08:45:39Z</time></trkpt><trkpt lat="59.0638420265" lon="30.0155861210"><ele>11.24</ele><time>2026-04-25T08:45:42Z</time></trkpt><trkpt lat="59.0637945849" lon="30.0154924951"><ele>11.71</ele><time>2026-04-25T08:45:53Z</time></trkpt><trkpt lat="59.0637209918" lon="30.0154517591"><ele>11.95</ele><time>2026-04-25T08:46:10Z</time></trkpt><trkpt lat="59.0636492427" lon="30.0154339056"><ele>9.78</ele><time>2026-04-25T08:46:25Z</time></trkpt><trkpt lat="59.0635891445" lon="30.0154772401"><ele>10.30</ele><time>2026-04-25T08:46:37Z</time></trkpt><trkpt lat="59.0635173954" lon="30.0153933372"><ele>11.38</ele><time>2026-04-25T08:46:53Z</time></trkpt><trkpt lat="59.0633995458" lon="30.0153315626"><ele>12.85</ele><time>2026-04-25T08:47:06Z</time></trkpt><trkpt lat="59.0633250307" lon="30.0152567960"><ele>14.24</ele><time>2026-04-25T08:47:24Z</time></trkpt><trkpt lat="59.0632904135" lon="30.0152520183"><ele>14.65</ele><time>2026-04-25T08:47:45Z</time></trkpt><trkpt lat="59.0632259566" lon="30.0152047444"><ele>16.53</ele><time>2026-04-25T08:48:06Z</time></trkpt><trkpt lat="59.0632082708" lon="30.0150678679"><ele>17.62</ele><time>2026-04-25T08:48:20Z</time></trkpt><trkpt lat="59.0631814487" lon="30.0149748288"><ele>18.84</ele><time>2026-04-25T08:48:38Z</time></trkpt><trkpt lat="59.0631702170" lon="30.0149853900"><ele>21.66</ele><time>2026-04-25T08:49:03Z</time></trkpt><trkpt lat="59.0631552972" lon="30.0150428899"><ele>20.29</ele><time>2026-04-25T08:49:10Z</time></trkpt><trkpt lat="59.0631307382" lon="30.0150457397"><ele>21.72</ele><time>2026-04-25T08:49:15Z</time></trkpt><trkpt lat="59.0630668681" lon="30.0151342526"><ele>20.19</ele><time>2026-04-25T08:49:41Z</time></trkpt><trkpt lat="59.0630962048" lon="30.0150870625"><ele>21.16</ele><time>2026-04-25T08:50:10Z</time></trkpt><trkpt lat="59.0630646050" lon="30.0151278824"><ele>24.37</ele><time>2026-04-25T08:50:55Z</time></trkpt><trkpt lat="59.0631358512" lon="30.0150951929"><ele>27.30</ele><time>2026-04-25T08:51:20Z</time></trkpt><trkpt lat="59.0631578118" lon="30.0150001422"><ele>31.07</ele><time>2026-04-25T08:51:41Z</time></trkpt><trkpt lat="59.0631683730" lon="30.0149345957"><ele>30.03</ele><time>2026-04-25T08:51:47Z</time></trkpt><trkpt lat="59.0632048342" lon="30.0149033312"><ele>28.44</ele><time>2026-04-25T08:51:59Z</time></trkpt><trkpt lat="59.0632101987" lon="30.0149016548"><ele>31.50</ele><time>2026-04-25T08:52:01Z</time></trkpt><trkpt lat="59.0632102825" lon="30.0148988049"><ele>26.66</ele><time>2026-04-25T08:52:03Z</time></trkpt><trkpt lat="59.0632137191" lon="30.0149024092"><ele>28.87</ele><time>2026-04-25T08:52:04Z</time></trkpt><trkpt lat="59.0632175747" lon="30.0149061810"><ele>31.62</ele><time>2026-04-25T08:52:05Z</time></trkpt><trkpt lat="59.0632480849" lon="30.0149013195"><ele>30.49</ele><time>2026-04-25T08:52:09Z</time></trkpt><trkpt lat="59.0632795170" lon="30.0148843881"><ele>27.95</ele><time>2026-04-25T08:52:14Z</time></trkpt><trkpt lat="59.0633062553" lon="30.0148732401"><ele>30.15</ele><time>2026-04-25T08:52:19Z</time></trkpt><trkpt lat="59.0633732267" lon="30.0148363598"><ele>29.72</ele><time>2026-04-25T08:52:30Z</time></trkpt><trkpt lat="59.0634594765" lon="30.0147581566"><ele>29.08</ele><time>2026-04-25T08:52:57Z</time></trkpt><trkpt lat="59.0634508431" lon="30.0146440789"><ele>30.99</ele><time>2026-04-25T08:53:07Z</time></trkpt><trkpt lat="59.0634427965" lon="30.0144927017"><ele>30.57</ele><time>2026-04-25T08:53:25Z</time></trkpt><trkpt lat="59.0634796768" lon="30.0142013468"><ele>31.75</ele><time>2026-04-25T08:53:42Z</time></trkpt><trkpt lat="59.0634459816" lon="30.0140808988"><ele>31.33</ele><time>2026-04-25T08:53:54Z</time></trkpt><trkpt lat="59.0634395275" lon="30.0139808189"><ele>31.55</ele><time>2026-04-25T08:54:03Z</time></trkpt><trkpt lat="59.0635457262" lon="30.0138267595"><ele>31.29</ele><time>2026-04-25T08:54:15Z</time></trkpt><trkpt lat="59.0636520088" lon="30.0137741212"><ele>32.14</ele><time>2026-04-25T08:54:28Z</time></trkpt><trkpt lat="59.0637181420" lon="30.0137317926"><ele>32.05</ele><time>2026-04-25T08:54:40Z</time></trkpt><trkpt lat="59.0637232549" lon="30.0136852730"><ele>32.70</ele><time>2026-04-25T08:54:46Z</time></trkpt><trkpt lat="59.0637527592" lon="30.0136563554"><ele>32.28</ele><time>2026-04-25T08:54:53Z</time></trkpt><trkpt lat="59.0637895558" lon="30.0136277732"><ele>32.18</ele><time>2026-04-25T08:54:59Z</time></trkpt><trkpt lat="59.0638105944" lon="30.0136237498"><ele>30.79</ele><time>2026-04-25T08:55:01Z</time></trkpt><trkpt lat="59.0639126021" lon="30.0135267712"><ele>32.90</ele><time>2026-04-25T08:55:17Z</time></trkpt><trkpt lat="59.0639345627" lon="30.0135233346"><ele>33.01</ele><time>2026-04-25T08:55:20Z</time></trkpt><trkpt lat="59.0639514104" lon="30.0135131087"><ele>31.03</ele><time>2026-04-25T08:55:22Z</time></trkpt><trkpt lat="59.0640049707" lon="30.0135134440"><ele>32.83</ele><time>2026-04-25T08:55:29Z</time></trkpt><trkpt lat="59.0640620515" lon="30.0135271903"><ele>32.86</ele><time>2026-04-25T08:55:35Z</time></trkpt><trkpt lat="59.0641421825" lon="30.0135901384"><ele>32.80</ele><time>2026-04-25T08:55:48Z</time></trkpt><trkpt lat="59.0641975868" lon="30.0137879513"><ele>33.46</ele><time>2026-04-25T08:56:01Z</time></trkpt><trkpt lat="59.0642250795" lon="30.0138745364"><ele>33.17</ele><time>2026-04-25T08:56:09Z</time></trkpt><trkpt lat="59.0643232316" lon="30.0140547473"><ele>32.86</ele><time>2026-04-25T08:56:37Z</time></trkpt><trkpt lat="59.0643858444" lon="30.0141548272"><ele>33.81</ele><time>2026-04-25T08:56:52Z</time></trkpt><trkpt lat="59.0644822363" lon="30.0141174439"><ele>33.69</ele><time>2026-04-25T08:57:08Z</time></trkpt><trkpt lat="59.0644927137" lon="30.0141208805"><ele>33.35</ele><time>2026-04-25T08:57:10Z</time></trkpt><trkpt lat="59.0645431727" lon="30.0142914522"><ele>34.82</ele><time>2026-04-25T08:57:20Z</time></trkpt><trkpt lat="59.0646099765" lon="30.0145565718"><ele>33.61</ele><time>2026-04-25T08:57:38Z</time></trkpt><trkpt lat="59.0646011755" lon="30.0146843120"><ele>34.33</ele><time>2026-04-25T08:57:54Z</time></trkpt><trkpt lat="59.0646338649" lon="30.0147859845"><ele>32.62</ele><time>2026-04-25T08:58:08Z</time></trkpt><trkpt lat="59.0647160914" lon="30.0148046762"><ele>34.19</ele><time>2026-04-25T08:58:26Z</time></trkpt><trkpt lat="59.0648267325" lon="30.0148294028"><ele>36.03</ele><time>2026-04-25T08:58:40Z</time></trkpt><trkpt lat="59.0649132337" lon="30.0149603281"><ele>35.61</ele><time>2026-04-25T08:58:52Z</time></trkpt><trkpt lat="59.0649707336" lon="30.0150469132"><ele>35.26</ele><time>2026-04-25T08:59:03Z</time></trkpt><trkpt lat="59.0649919398" lon="30.0150904153"><ele>36.31</ele><time>2026-04-25T08:59:07Z</time></trkpt><trkpt lat="59.0650217794" lon="30.0151415449"><ele>35.55</ele><time>2026-04-25T08:59:12Z</time></trkpt><trkpt lat="59.0651187580" lon="30.0151790120"><ele>34.03</ele><time>2026-04-25T08:59:29Z</time></trkpt><trkpt lat="59.0651469212" lon="30.0151475798"><ele>34.73</ele><time>2026-04-25T08:59:35Z</time></trkpt><trkpt lat="59.0651723184" lon="30.0151307322"><ele>35.05</ele><time>2026-04-25T08:59:39Z</time></trkpt><trkpt lat="59.0652587358" lon="30.0150830392"><ele>34.48</ele><time>2026-04-25T08:59:53Z</time></trkpt><trkpt lat="59.0653261263" lon="30.0150632579"><ele>34.02</ele><time>2026-04-25T09:00:03Z</time></trkpt><trkpt lat="59.0653628390" lon="30.0150597375"><ele>33.50</ele><time>2026-04-25T09:00:07Z</time></trkpt><trkpt lat="59.0654887352" lon="30.0150467455"><ele>34.29</ele><time>2026-04-25T09:00:19Z</time></trkpt><trkpt lat="59.0655199159" lon="30.0150372740"><ele>33.95</ele><time>2026-04-25T09:00:20Z</time></trkpt><trkpt lat="59.0655711293" lon="30.0150382798"><ele>33.78</ele><time>2026-04-25T09:00:26Z</time></trkpt><trkpt lat="59.0656283777" lon="30.0150136370"><ele>33.93</ele><time>2026-04-25T09:00:36Z</time></trkpt><trkpt lat="59.0656572115" lon="30.0150105357"><ele>32.95</ele><time>2026-04-25T09:00:40Z</time></trkpt><trkpt lat="59.0657334030" lon="30.0149800256"><ele>33.60</ele><time>2026-04-25T09:00:48Z</time></trkpt><trkpt lat="59.0658250172" lon="30.0149251241"><ele>34.02</ele><time>2026-04-25T09:01:01Z</time></trkpt><trkpt lat="59.0658638254" lon="30.0148850586"><ele>34.36</ele><time>2026-04-25T09:01:06Z</time></trkpt><trkpt lat="59.0659846924" lon="30.0148443226"><ele>33.84</ele><time>2026-04-25T09:01:17Z</time></trkpt><trkpt lat="59.0660847723" lon="30.0148214400"><ele>34.08</ele><time>2026-04-25T09:01:30Z</time></trkpt><trkpt lat="59.0661974251" lon="30.0147551391"><ele>33.91</ele><time>2026-04-25T09:01:45Z</time></trkpt><trkpt lat="59.0662136022" lon="30.0147512835"><ele>33.55</ele><time>2026-04-25T09:01:47Z</time></trkpt><trkpt lat="59.0662993491" lon="30.0147754233"><ele>34.15</ele><time>2026-04-25T09:01:59Z</time></trkpt><trkpt lat="59.0663291886" lon="30.0147971325"><ele>33.16</ele><time>2026-04-25T09:02:03Z</time></trkpt><trkpt lat="59.0664504748" lon="30.0148730725"><ele>34.67</ele><time>2026-04-25T09:02:19Z</time></trkpt><trkpt lat="59.0665821545" lon="30.0148283131"><ele>34.75</ele><time>2026-04-25T09:02:46Z</time></trkpt><trkpt lat="59.0666098148" lon="30.0150023215"><ele>34.11</ele><time>2026-04-25T09:03:04Z</time></trkpt><trkpt lat="59.0667042788" lon="30.0150925107"><ele>33.72</ele><time>2026-04-25T09:03:17Z</time></trkpt><trkpt lat="59.0667614434" lon="30.0150832906"><ele>33.47</ele><time>2026-04-25T09:03:25Z</time></trkpt><trkpt lat="59.0668533091" lon="30.0150490087"><ele>34.18</ele><time>2026-04-25T09:03:33Z</time></trkpt><trkpt lat="59.0669703204" lon="30.0150621682"><ele>33.99</ele><time>2026-04-25T09:03:48Z</time></trkpt><trkpt lat="59.0671073645" lon="30.0150478352"><ele>34.12</ele><time>2026-04-25T09:04:05Z</time></trkpt><trkpt lat="59.0671106335" lon="30.0150471646"><ele>34.66</ele><time>2026-04-25T09:04:06Z</time></trkpt><trkpt lat="59.0672151558" lon="30.0149218552"><ele>33.80</ele><time>2026-04-25T09:04:19Z</time></trkpt><trkpt lat="59.0672296565" lon="30.0149224419"><ele>34.12</ele><time>2026-04-25T09:04:21Z</time></trkpt><trkpt lat="59.0672667045" lon="30.0149113778"><ele>34.31</ele><time>2026-04-25T09:04:25Z</time></trkpt><trkpt lat="59.0672768466" lon="30.0148996431"><ele>34.45</ele><time>2026-04-25T09:04:27Z</time></trkpt><trkpt lat="59.0673338436" lon="30.0148907583"><ele>34.49</ele><time>2026-04-25T09:04:32Z</time></trkpt><trkpt lat="59.0674071014" lon="30.0148698874"><ele>34.36</ele><time>2026-04-25T09:04:41Z</time></trkpt><trkpt lat="59.0674899984" lon="30.0148089509"><ele>34.42</ele><time>2026-04-25T09:04:48Z</time></trkpt><trkpt lat="59.0675478335" lon="30.0147195160"><ele>34.93</ele><time>2026-04-25T09:04:54Z</time></trkpt><trkpt lat="59.0675973706" lon="30.0146947894"><ele>35.05</ele><time>2026-04-25T09:04:58Z</time></trkpt><trkpt lat="59.0676226839" lon="30.0146756787"><ele>35.05</ele><time>2026-04-25T09:05:02Z</time></trkpt><trkpt lat="59.0676617436" lon="30.0145906024"><ele>34.98</ele><time>2026-04-25T09:05:09Z</time></trkpt><trkpt lat="59.0677205846" lon="30.0144851580"><ele>35.03</ele><time>2026-04-25T09:05:14Z</time></trkpt><trkpt lat="59.0677816886" lon="30.0142371375"><ele>34.35</ele><time>2026-04-25T09:05:31Z</time></trkpt><trkpt lat="59.0678952634" lon="30.0140646379"><ele>34.48</ele><time>2026-04-25T09:05:52Z</time></trkpt><trkpt lat="59.0680333972" lon="30.0139312819"><ele>37.08</ele><time>2026-04-25T09:06:12Z</time></trkpt><trkpt lat="59.0681174677" lon="30.0137985963"><ele>38.35</ele><time>2026-04-25T09:06:30Z</time></trkpt><trkpt lat="59.0681254305" lon="30.0137947407"><ele>39.57</ele><time>2026-04-25T09:06:32Z</time></trkpt><trkpt lat="59.0681289509" lon="30.0138001051"><ele>42.71</ele><time>2026-04-25T09:06:42Z</time></trkpt><trkpt lat="59.0681289509" lon="30.0138001051"><ele>42.96</ele><time>2026-04-25T09:06:43Z</time></trkpt><trkpt lat="59.0680921543" lon="30.0136447046"><ele>42.57</ele><time>2026-04-25T09:07:28Z</time></trkpt><trkpt lat="59.0680904780" lon="30.0135903899"><ele>36.98</ele><time>2026-04-25T09:07:38Z</time></trkpt><trkpt lat="59.0680958424" lon="30.0135861151"><ele>37.11</ele><time>2026-04-25T09:07:39Z</time></trkpt><trkpt lat="59.0681008715" lon="30.0135825947"><ele>40.24</ele><time>2026-04-25T09:07:40Z</time></trkpt><trkpt lat="59.0681033861" lon="30.0135791581"><ele>41.29</ele><time>2026-04-25T09:07:42Z</time></trkpt><trkpt lat="59.0681599639" lon="30.0135690160"><ele>42.30</ele><time>2026-04-25T09:07:56Z</time></trkpt><trkpt lat="59.0681337286" lon="30.0135598797"><ele>44.21</ele><time>2026-04-25T09:08:00Z</time></trkpt><trkpt lat="59.0682190564" lon="30.0134085026"><ele>44.62</ele><time>2026-04-25T09:09:13Z</time></trkpt><trkpt lat="59.0683122631" lon="30.0132368412"><ele>45.38</ele><time>2026-04-25T09:09:31Z</time></trkpt><trkpt lat="59.0683760494" lon="30.0131543633"><ele>44.93</ele><time>2026-04-25T09:09:41Z</time></trkpt><trkpt lat="59.0684178751" lon="30.0131054129"><ele>45.21</ele><time>2026-04-25T09:09:47Z</time></trkpt><trkpt lat="59.0684446134" lon="30.0130773336"><ele>45.57</ele><time>2026-04-25T09:09:50Z</time></trkpt><trkpt lat="59.0684837569" lon="30.0129886530"><ele>45.96</ele><time>2026-04-25T09:10:01Z</time></trkpt><trkpt lat="59.0684973355" lon="30.0129470788"><ele>46.41</ele><time>2026-04-25T09:10:04Z</time></trkpt><trkpt lat="59.0685337968" lon="30.0129320752"><ele>46.35</ele><time>2026-04-25T09:10:07Z</time></trkpt><trkpt lat="59.0686448570" lon="30.0128899980"><ele>45.75</ele><time>2026-04-25T09:10:19Z</time></trkpt><trkpt lat="59.0686651412" lon="30.0129053369"><ele>43.58</ele><time>2026-04-25T09:10:23Z</time></trkpt><trkpt lat="59.0686779656" lon="30.0129261240"><ele>46.03</ele><time>2026-04-25T09:10:27Z</time></trkpt><trkpt lat="59.0688036941" lon="30.0129995495"><ele>46.25</ele><time>2026-04-25T09:10:48Z</time></trkpt><trkpt lat="59.0688292589" lon="30.0130243599"><ele>46.15</ele><time>2026-04-25T09:10:51Z</time></trkpt><trkpt lat="59.0689062048" lon="30.0131299719"><ele>46.92</ele><time>2026-04-25T09:11:03Z</time></trkpt><trkpt lat="59.0691169258" lon="30.0133217499"><ele>47.17</ele><time>2026-04-25T09:11:30Z</time></trkpt><trkpt lat="59.0691587515" lon="30.0133795850"><ele>47.78</ele><time>2026-04-25T09:11:36Z</time></trkpt><trkpt lat="59.0691755991" lon="30.0134020485"><ele>47.17</ele><time>2026-04-25T09:11:38Z</time></trkpt><trkpt lat="59.0692983102" lon="30.0135475583"><ele>47.60</ele><time>2026-04-25T09:11:58Z</time></trkpt><trkpt lat="59.0693145711" lon="30.0136326347"><ele>47.21</ele><time>2026-04-25T09:12:03Z</time></trkpt><trkpt lat="59.0693670418" lon="30.0136771426"><ele>47.78</ele><time>2026-04-25T09:12:10Z</time></trkpt><trkpt lat="59.0694641043" lon="30.0137571897"><ele>48.43</ele><time>2026-04-25T09:12:19Z</time></trkpt><trkpt lat="59.0694700554" lon="30.0137842633"><ele>48.75</ele><time>2026-04-25T09:12:21Z</time></trkpt><trkpt lat="59.0694941115" lon="30.0138122588"><ele>48.60</ele><time>2026-04-25T09:12:25Z</time></trkpt><trkpt lat="59.0695133060" lon="30.0138425175"><ele>47.73</ele><time>2026-04-25T09:12:28Z</time></trkpt><trkpt lat="59.0695586521" lon="30.0139330421"><ele>48.13</ele><time>2026-04-25T09:12:34Z</time></trkpt><trkpt lat="59.0695645195" lon="30.0139678270"><ele>48.92</ele><time>2026-04-25T09:12:36Z</time></trkpt><trkpt lat="59.0695723984" lon="30.0139848422"><ele>48.72</ele><time>2026-04-25T09:12:38Z</time></trkpt><trkpt lat="59.0696104523" lon="30.0140710082"><ele>48.43</ele><time>2026-04-25T09:12:43Z</time></trkpt><trkpt lat="59.0696883202" lon="30.0141780451"><ele>48.79</ele><time>2026-04-25T09:13:04Z</time></trkpt><trkpt lat="59.0696972888" lon="30.0142626185"><ele>49.82</ele><time>2026-04-25T09:13:12Z</time></trkpt><trkpt lat="59.0697961114" lon="30.0143031869"><ele>50.11</ele><time>2026-04-25T09:13:21Z</time></trkpt><trkpt lat="59.0698987897" lon="30.0142577570"><ele>49.54</ele><time>2026-04-25T09:13:30Z</time></trkpt><trkpt lat="59.0700063296" lon="30.0142549910"><ele>50.37</ele><time>2026-04-25T09:13:44Z</time></trkpt><trkpt lat="59.0700502507" lon="30.0142387301"><ele>50.25</ele><time>2026-04-25T09:13:49Z</time></trkpt><trkpt lat="59.0701157972" lon="30.0140999258"><ele>50.50</ele><time>2026-04-25T09:14:02Z</time></trkpt><trkpt lat="59.0701357462" lon="30.0140681583"><ele>50.21</ele><time>2026-04-25T09:14:06Z</time></trkpt><trkpt lat="59.0701593831" lon="30.0140127540"><ele>51.55</ele><time>2026-04-25T09:14:09Z</time></trkpt><trkpt lat="59.0702375025" lon="30.0138591137"><ele>51.85</ele><time>2026-04-25T09:14:23Z</time></trkpt><trkpt lat="59.0702745505" lon="30.0137943216"><ele>48.01</ele><time>2026-04-25T09:14:27Z</time></trkpt><trkpt lat="59.0702745505" lon="30.0137943216"><ele>51.10</ele><time>2026-04-25T09:14:28Z</time></trkpt><trkpt lat="59.0702862013" lon="30.0136980135"><ele>51.31</ele><time>2026-04-25T09:14:32Z</time></trkpt><trkpt lat="59.0703160409" lon="30.0133862067"><ele>52.47</ele><time>2026-04-25T09:14:56Z</time></trkpt><trkpt lat="59.0703478083" lon="30.0132481568"><ele>52.67</ele><time>2026-04-25T09:15:07Z</time></trkpt><trkpt lat="59.0703699365" lon="30.0131008867"><ele>52.17</ele><time>2026-04-25T09:15:15Z</time></trkpt><trkpt lat="59.0703811683" lon="30.0129642617"><ele>52.87</ele><time>2026-04-25T09:15:25Z</time></trkpt><trkpt lat="59.0704716090" lon="30.0128549617"><ele>53.55</ele><time>2026-04-25T09:15:43Z</time></trkpt><trkpt lat="59.0705213137" lon="30.0126430672"><ele>54.06</ele><time>2026-04-25T09:15:57Z</time></trkpt><trkpt lat="59.0705808252" lon="30.0124890916"><ele>53.89</ele><time>2026-04-25T09:16:09Z</time></trkpt><trkpt lat="59.0705814958" lon="30.0124756806"><ele>53.72</ele><time>2026-04-25T09:16:10Z</time></trkpt><trkpt lat="59.0705779754" lon="30.0124020036"><ele>54.99</ele><time>2026-04-25T09:16:17Z</time></trkpt><trkpt lat="59.0705612116" lon="30.0122603495"><ele>52.99</ele><time>2026-04-25T09:16:29Z</time></trkpt><trkpt lat="59.0705641452" lon="30.0122131594"><ele>55.09</ele><time>2026-04-25T09:16:32Z</time></trkpt><trkpt lat="59.0705955774" lon="30.0120923761"><ele>53.65</ele><time>2026-04-25T09:16:38Z</time></trkpt><trkpt lat="59.0706394985" lon="30.0119259115"><ele>55.16</ele><time>2026-04-25T09:16:50Z</time></trkpt><trkpt lat="59.0707028657" lon="30.0117827486"><ele>53.49</ele><time>2026-04-25T09:17:06Z</time></trkpt><trkpt lat="59.0707226470" lon="30.0117695890"><ele>54.22</ele><time>2026-04-25T09:17:08Z</time></trkpt><trkpt lat="59.0708363056" lon="30.0116906315"><ele>55.19</ele><time>2026-04-25T09:17:28Z</time></trkpt><trkpt lat="59.0708475374" lon="30.0116907991"><ele>50.19</ele><time>2026-04-25T09:17:31Z</time></trkpt><trkpt lat="59.0708419215" lon="30.0116939843"><ele>55.26</ele><time>2026-04-25T09:17:32Z</time></trkpt><trkpt lat="59.0708425920" lon="30.0116987620"><ele>55.52</ele><time>2026-04-25T09:17:33Z</time></trkpt><trkpt lat="59.0708537400" lon="30.0117229857"><ele>54.92</ele><time>2026-04-25T09:17:35Z</time></trkpt><trkpt lat="59.0709013492" lon="30.0117617939"><ele>54.88</ele><time>2026-04-25T09:17:40Z</time></trkpt><trkpt lat="59.0709559992" lon="30.0117882807"><ele>55.16</ele><time>2026-04-25T09:17:47Z</time></trkpt><trkpt lat="59.0709854197" lon="30.0117986742"><ele>54.78</ele><time>2026-04-25T09:17:49Z</time></trkpt><trkpt lat="59.0710114036" lon="30.0117987581"><ele>54.82</ele><time>2026-04-25T09:17:52Z</time></trkpt><trkpt lat="59.0710390639" lon="30.0118191261"><ele>55.79</ele><time>2026-04-25T09:17:56Z</time></trkpt><trkpt lat="59.0711181052" lon="30.0119935535"><ele>57.07</ele><time>2026-04-25T09:18:19Z</time></trkpt><trkpt lat="59.0711296722" lon="30.0120570883"><ele>57.20</ele><time>2026-04-25T09:18:27Z</time></trkpt><trkpt lat="59.0711714979" lon="30.0121564139"><ele>57.16</ele><time>2026-04-25T09:18:36Z</time></trkpt><trkpt lat="59.0712328535" lon="30.0120518915"><ele>57.97</ele><time>2026-04-25T09:19:07Z</time></trkpt><trkpt lat="59.0712104738" lon="30.0120679010"><ele>58.69</ele><time>2026-04-25T09:19:46Z</time></trkpt><trkpt lat="59.0712352842" lon="30.0120709185"><ele>54.53</ele><time>2026-04-25T09:20:10Z</time></trkpt><trkpt lat="59.0712349489" lon="30.0120750256"><ele>56.35</ele><time>2026-04-25T09:20:11Z</time></trkpt><trkpt lat="59.0712348651" lon="30.0120839942"><ele>57.44</ele><time>2026-04-25T09:20:13Z</time></trkpt><trkpt lat="59.0712357871" lon="30.0120865088"><ele>55.62</ele><time>2026-04-25T09:20:15Z</time></trkpt><trkpt lat="59.0712395590" lon="30.0120846648"><ele>52.34</ele><time>2026-04-25T09:20:19Z</time></trkpt><trkpt lat="59.0712395590" lon="30.0120846648"><ele>52.23</ele><time>2026-04-25T09:20:20Z</time></trkpt><trkpt lat="59.0712313447" lon="30.0121012609"><ele>58.70</ele><time>2026-04-25T09:20:21Z</time></trkpt><trkpt lat="59.0712269023" lon="30.0121124089"><ele>58.84</ele><time>2026-04-25T09:20:22Z</time></trkpt><trkpt lat="59.0711461008" lon="30.0120221358"><ele>59.17</ele><time>2026-04-25T09:20:57Z</time></trkpt><trkpt lat="59.0711909439" lon="30.0119912904"><ele>58.07</ele><time>2026-04-25T09:21:13Z</time></trkpt><trkpt lat="59.0712710749" lon="30.0119432621"><ele>59.32</ele><time>2026-04-25T09:21:38Z</time></trkpt><trkpt lat="59.0712641180" lon="30.0120353792"><ele>54.96</ele><time>2026-04-25T09:22:10Z</time></trkpt><trkpt lat="59.0712631121" lon="30.0120284222"><ele>57.54</ele><time>2026-04-25T09:22:13Z</time></trkpt><trkpt lat="59.0712736733" lon="30.0120248180"><ele>54.16</ele><time>2026-04-25T09:22:20Z</time></trkpt><trkpt lat="59.0712862462" lon="30.0120297633"><ele>57.47</ele><time>2026-04-25T09:22:24Z</time></trkpt><trkpt lat="59.0713004954" lon="30.0119741913"><ele>58.46</ele><time>2026-04-25T09:22:37Z</time></trkpt><trkpt lat="59.0713369567" lon="30.0119570922"><ele>54.07</ele><time>2026-04-25T09:22:42Z</time></trkpt><trkpt lat="59.0713510383" lon="30.0119518116"><ele>57.70</ele><time>2026-04-25T09:22:44Z</time></trkpt><trkpt lat="59.0713641979" lon="30.0119481236"><ele>58.50</ele><time>2026-04-25T09:22:46Z</time></trkpt><trkpt lat="59.0713693108" lon="30.0119461957"><ele>55.16</ele><time>2026-04-25T09:22:47Z</time></trkpt><trkpt lat="59.0713751782" lon="30.0119369756"><ele>58.31</ele><time>2026-04-25T09:22:48Z</time></trkpt><trkpt lat="59.0714454185" lon="30.0119020231"><ele>57.58</ele><time>2026-04-25T09:22:59Z</time></trkpt><trkpt lat="59.0715001523" lon="30.0118627120"><ele>57.75</ele><time>2026-04-25T09:23:07Z</time></trkpt><trkpt lat="59.0715478454" lon="30.0118252449"><ele>57.26</ele><time>2026-04-25T09:23:13Z</time></trkpt><trkpt lat="59.0716185886" lon="30.0117681641"><ele>56.72</ele><time>2026-04-25T09:23:22Z</time></trkpt><trkpt lat="59.0716519486" lon="30.0117447786"><ele>57.46</ele><time>2026-04-25T09:23:26Z</time></trkpt><trkpt lat="59.0717308223" lon="30.0117063057"><ele>58.33</ele><time>2026-04-25T09:23:42Z</time></trkpt><trkpt lat="59.0717425570" lon="30.0116596185"><ele>59.46</ele><time>2026-04-25T09:23:51Z</time></trkpt><trkpt lat="59.0716760047" lon="30.0117742829"><ele>58.98</ele><time>2026-04-25T09:24:32Z</time></trkpt><trkpt lat="59.0716907568" lon="30.0118199643"><ele>58.23</ele><time>2026-04-25T09:24:40Z</time></trkpt><trkpt lat="59.0718200058" lon="30.0117864367"><ele>56.91</ele><time>2026-04-25T09:25:02Z</time></trkpt><trkpt lat="59.0718477499" lon="30.0117422640"><ele>55.31</ele><time>2026-04-25T09:25:08Z</time></trkpt><trkpt lat="59.0718778409" lon="30.0117198005"><ele>57.57</ele><time>2026-04-25T09:25:11Z</time></trkpt><trkpt lat="59.0718946047" lon="30.0116988458"><ele>58.38</ele><time>2026-04-25T09:25:14Z</time></trkpt><trkpt lat="59.0719958581" lon="30.0116488058"><ele>54.39</ele><time>2026-04-25T09:25:24Z</time></trkpt><trkpt lat="59.0720166452" lon="30.0116250012"><ele>57.66</ele><time>2026-04-25T09:25:26Z</time></trkpt><trkpt lat="59.0721082594" lon="30.0115215685"><ele>58.46</ele><time>2026-04-25T09:25:39Z</time></trkpt><trkpt lat="59.0721909050" lon="30.0114660803"><ele>57.98</ele><time>2026-04-25T09:25:50Z</time></trkpt><trkpt lat="59.0723353252" lon="30.0113686826"><ele>58.06</ele><time>2026-04-25T09:26:08Z</time></trkpt><trkpt lat="59.0724691842" lon="30.0113019627"><ele>57.65</ele><time>2026-04-25T09:26:26Z</time></trkpt><trkpt lat="59.0725095849" lon="30.0112815946"><ele>57.14</ele><time>2026-04-25T09:26:30Z</time></trkpt><trkpt lat="59.0727161989" lon="30.0111311395"><ele>57.42</ele><time>2026-04-25T09:26:54Z</time></trkpt><trkpt lat="59.0728485491" lon="30.0110982824"><ele>57.77</ele><time>2026-04-25T09:27:12Z</time></trkpt><trkpt lat="59.0729353856" lon="30.0110378489"><ele>57.47</ele><time>2026-04-25T09:27:24Z</time></trkpt><trkpt lat="59.0730802249" lon="30.0109764095"><ele>57.73</ele><time>2026-04-25T09:27:43Z</time></trkpt><trkpt lat="59.0731511358" lon="30.0109599810"><ele>58.45</ele><time>2026-04-25T09:28:07Z</time></trkpt><trkpt lat="59.0731445979" lon="30.0109533593"><ele>57.26</ele><time>2026-04-25T09:28:15Z</time></trkpt><trkpt lat="59.0731368028" lon="30.0109383557"><ele>57.74</ele><time>2026-04-25T09:28:45Z</time></trkpt><trkpt lat="59.0731008444" lon="30.0109103601"><ele>57.57</ele><time>2026-04-25T09:29:17Z</time></trkpt><trkpt lat="59.0731160156" lon="30.0109404512"><ele>56.64</ele><time>2026-04-25T09:29:29Z</time></trkpt><trkpt lat="59.0732401516" lon="30.0109427981"><ele>57.13</ele><time>2026-04-25T09:29:46Z</time></trkpt><trkpt lat="59.0733134095" lon="30.0109731406"><ele>55.18</ele><time>2026-04-25T09:29:56Z</time></trkpt><trkpt lat="59.0734486096" lon="30.0109155569"><ele>55.80</ele><time>2026-04-25T09:30:12Z</time></trkpt><trkpt lat="59.0735584125" lon="30.0107573904"><ele>55.50</ele><time>2026-04-25T09:30:32Z</time></trkpt><trkpt lat="59.0737185907" lon="30.0105841365"><ele>54.49</ele><time>2026-04-25T09:30:54Z</time></trkpt><trkpt lat="59.0738898329" lon="30.0104705617"><ele>53.10</ele><time>2026-04-25T09:31:18Z</time></trkpt><trkpt lat="59.0740455687" lon="30.0104061048"><ele>55.81</ele><time>2026-04-25T09:31:42Z</time></trkpt><trkpt lat="59.0740539506" lon="30.0103824679"><ele>53.87</ele><time>2026-04-25T09:31:45Z</time></trkpt><trkpt lat="59.0741702914" lon="30.0102970563"><ele>55.40</ele><time>2026-04-25T09:32:03Z</time></trkpt><trkpt lat="59.0741921682" lon="30.0102649536"><ele>53.60</ele><time>2026-04-25T09:32:12Z</time></trkpt><trkpt lat="59.0742169786" lon="30.0102529675"><ele>55.69</ele><time>2026-04-25T09:32:18Z</time></trkpt><trkpt lat="59.0742190741" lon="30.0102455076"><ele>53.87</ele><time>2026-04-25T09:32:22Z</time></trkpt><trkpt lat="59.0742110275" lon="30.0102458429"><ele>55.49</ele><time>2026-04-25T09:32:29Z</time></trkpt><trkpt lat="59.0741751529" lon="30.0102729164"><ele>56.39</ele><time>2026-04-25T09:33:02Z</time></trkpt><trkpt lat="59.0741922520" lon="30.0103771035"><ele>56.39</ele><time>2026-04-25T09:33:38Z</time></trkpt><trkpt lat="59.0742126200" lon="30.0103522092"><ele>57.26</ele><time>2026-04-25T09:34:10Z</time></trkpt><trkpt lat="59.0742455609" lon="30.0103255548"><ele>56.54</ele><time>2026-04-25T09:34:48Z</time></trkpt><trkpt lat="59.0742693655" lon="30.0103053544"><ele>53.95</ele><time>2026-04-25T09:35:13Z</time></trkpt><trkpt lat="59.0743458085" lon="30.0102267321"><ele>54.10</ele><time>2026-04-25T09:35:28Z</time></trkpt><trkpt lat="59.0744054038" lon="30.0101815537"><ele>52.36</ele><time>2026-04-25T09:35:39Z</time></trkpt><trkpt lat="59.0744960960" lon="30.0101351179"><ele>54.50</ele><time>2026-04-25T09:35:53Z</time></trkpt><trkpt lat="59.0745290369" lon="30.0101032667"><ele>49.69</ele><time>2026-04-25T09:36:04Z</time></trkpt><trkpt lat="59.0745357424" lon="30.0100990757"><ele>54.21</ele><time>2026-04-25T09:36:05Z</time></trkpt><trkpt lat="59.0746100899" lon="30.0099567510"><ele>54.37</ele><time>2026-04-25T09:36:18Z</time></trkpt><trkpt lat="59.0746539272" lon="30.0097912084"><ele>55.21</ele><time>2026-04-25T09:36:30Z</time></trkpt><trkpt lat="59.0747426916" lon="30.0097049586"><ele>54.01</ele><time>2026-04-25T09:36:43Z</time></trkpt><trkpt lat="59.0747964196" lon="30.0096145179"><ele>54.60</ele><time>2026-04-25T09:36:55Z</time></trkpt><trkpt lat="59.0748069808" lon="30.0095659867"><ele>55.26</ele><time>2026-04-25T09:36:59Z</time></trkpt><trkpt lat="59.0748353116" lon="30.0094625540"><ele>52.64</ele><time>2026-04-25T09:37:10Z</time></trkpt><trkpt lat="59.0748753771" lon="30.0093411002"><ele>56.10</ele><time>2026-04-25T09:37:24Z</time></trkpt><trkpt lat="59.0748990979" lon="30.0093065668"><ele>52.15</ele><time>2026-04-25T09:37:30Z</time></trkpt><trkpt lat="59.0749417618" lon="30.0092991069"><ele>55.36</ele><time>2026-04-25T09:37:37Z</time></trkpt><trkpt lat="59.0749728587" lon="30.0093103386"><ele>55.81</ele><time>2026-04-25T09:37:43Z</time></trkpt><trkpt lat="59.0749762114" lon="30.0093163736"><ele>52.54</ele><time>2026-04-25T09:37:44Z</time></trkpt><trkpt lat="59.0749794804" lon="30.0093219057"><ele>53.15</ele><time>2026-04-25T09:37:45Z</time></trkpt><trkpt lat="59.0750000160" lon="30.0093773101"><ele>56.48</ele><time>2026-04-25T09:37:54Z</time></trkpt><trkpt lat="59.0749961603" lon="30.0094711035"><ele>52.22</ele><time>2026-04-25T09:38:05Z</time></trkpt><trkpt lat="59.0750068054" lon="30.0094940700"><ele>55.37</ele><time>2026-04-25T09:38:08Z</time></trkpt><trkpt lat="59.0750582702" lon="30.0095614605"><ele>56.32</ele><time>2026-04-25T09:38:19Z</time></trkpt><trkpt lat="59.0750561748" lon="30.0095797330"><ele>54.25</ele><time>2026-04-25T09:38:22Z</time></trkpt><trkpt lat="59.0750747826" lon="30.0095928088"><ele>55.02</ele><time>2026-04-25T09:38:26Z</time></trkpt><trkpt lat="59.0751455259" lon="30.0097004324"><ele>54.62</ele><time>2026-04-25T09:38:40Z</time></trkpt><trkpt lat="59.0751984157" lon="30.0097674038"><ele>54.94</ele><time>2026-04-25T09:38:53Z</time></trkpt><trkpt lat="59.0752106532" lon="30.0097783841"><ele>55.17</ele><time>2026-04-25T09:38:54Z</time></trkpt><trkpt lat="59.0752356313" lon="30.0097992551"><ele>56.07</ele><time>2026-04-25T09:38:58Z</time></trkpt><trkpt lat="59.0752596036" lon="30.0098208804"><ele>53.49</ele><time>2026-04-25T09:39:05Z</time></trkpt><trkpt lat="59.0752805583" lon="30.0098422542"><ele>55.95</ele><time>2026-04-25T09:39:10Z</time></trkpt><trkpt lat="59.0753359627" lon="30.0098621193"><ele>56.37</ele><time>2026-04-25T09:39:20Z</time></trkpt><trkpt lat="59.0753482841" lon="30.0098727643"><ele>50.28</ele><time>2026-04-25T09:39:22Z</time></trkpt><trkpt lat="59.0753547382" lon="30.0098698307"><ele>55.77</ele><time>2026-04-25T09:39:23Z</time></trkpt><trkpt lat="59.0754346177" lon="30.0098063797"><ele>55.60</ele><time>2026-04-25T09:39:41Z</time></trkpt><trkpt lat="59.0754440892" lon="30.0098161865"><ele>55.67</ele><time>2026-04-25T09:39:45Z</time></trkpt><trkpt lat="59.0755284950" lon="30.0098242331"><ele>56.46</ele><time>2026-04-25T09:39:57Z</time></trkpt><trkpt lat="59.0756030101" lon="30.0097876042"><ele>56.17</ele><time>2026-04-25T09:40:09Z</time></trkpt><trkpt lat="59.0756099671" lon="30.0097898673"><ele>57.92</ele><time>2026-04-25T09:40:12Z</time></trkpt><trkpt lat="59.0756135713" lon="30.0097860117"><ele>55.83</ele><time>2026-04-25T09:40:26Z</time></trkpt><trkpt lat="59.0756185167" lon="30.0097472873"><ele>57.02</ele><time>2026-04-25T09:41:02Z</time></trkpt><trkpt lat="59.0756178461" lon="30.0097501371"><ele>58.25</ele><time>2026-04-25T09:41:04Z</time></trkpt><trkpt lat="59.0756035130" lon="30.0097634643"><ele>57.60</ele><time>2026-04-25T09:41:22Z</time></trkpt><trkpt lat="59.0756227076" lon="30.0097719301"><ele>56.57</ele><time>2026-04-25T09:41:32Z</time></trkpt><trkpt lat="59.0756373759" lon="30.0097546633"><ele>58.31</ele><time>2026-04-25T09:41:34Z</time></trkpt><trkpt lat="59.0757407248" lon="30.0097451080"><ele>59.04</ele><time>2026-04-25T09:41:50Z</time></trkpt><trkpt lat="59.0757460892" lon="30.0097465329"><ele>58.60</ele><time>2026-04-25T09:41:51Z</time></trkpt><trkpt lat="59.0758223645" lon="30.0097765401"><ele>57.40</ele><time>2026-04-25T09:42:09Z</time></trkpt><trkpt lat="59.0758847259" lon="30.0098225567"><ele>58.11</ele><time>2026-04-25T09:42:17Z</time></trkpt><trkpt lat="59.0759401303" lon="30.0098052062"><ele>57.54</ele><time>2026-04-25T09:42:28Z</time></trkpt><trkpt lat="59.0760218538" lon="30.0097382348"><ele>58.87</ele><time>2026-04-25T09:42:41Z</time></trkpt><trkpt lat="59.0761056729" lon="30.0097045396"><ele>58.01</ele><time>2026-04-25T09:42:52Z</time></trkpt><trkpt lat="59.0761874802" lon="30.0096712634"><ele>58.65</ele><time>2026-04-25T09:43:04Z</time></trkpt><trkpt lat="59.0763001330" lon="30.0096379034"><ele>58.18</ele><time>2026-04-25T09:43:18Z</time></trkpt><trkpt lat="59.0763601474" lon="30.0096543320"><ele>58.11</ele><time>2026-04-25T09:43:28Z</time></trkpt><trkpt lat="59.0764387697" lon="30.0096404180"><ele>58.50</ele><time>2026-04-25T09:43:38Z</time></trkpt><trkpt lat="59.0765753109" lon="30.0096132606"><ele>58.89</ele><time>2026-04-25T09:43:52Z</time></trkpt><trkpt lat="59.0766752232" lon="30.0096029509"><ele>60.54</ele><time>2026-04-25T09:44:09Z</time></trkpt><trkpt lat="59.0768357366" lon="30.0095931441"><ele>61.76</ele><time>2026-04-25T09:44:46Z</time></trkpt><trkpt lat="59.0767937433" lon="30.0095381588"><ele>63.15</ele><time>2026-04-25T09:45:37Z</time></trkpt><trkpt lat="59.0768231638" lon="30.0095106661"><ele>62.21</ele><time>2026-04-25T09:46:22Z</time></trkpt><trkpt lat="59.0769048035" lon="30.0094715226"><ele>62.47</ele><time>2026-04-25T09:46:43Z</time></trkpt><trkpt lat="59.0769405942" lon="30.0095221493"><ele>63.62</ele><time>2026-04-25T09:47:16Z</time></trkpt><trkpt lat="59.0769851021" lon="30.0095920544"><ele>62.36</ele><time>2026-04-25T09:47:41Z</time></trkpt><trkpt lat="59.0769754630" lon="30.0095800683"><ele>64.07</ele><time>2026-04-25T09:47:44Z</time></trkpt><trkpt lat="59.0769768041" lon="30.0095424335"><ele>62.10</ele><time>2026-04-25T09:47:52Z</time></trkpt><trkpt lat="59.0769741219" lon="30.0095689204"><ele>64.52</ele><time>2026-04-25T09:48:00Z</time></trkpt><trkpt lat="59.0770136006" lon="30.0094928965"><ele>62.38</ele><time>2026-04-25T09:49:04Z</time></trkpt><trkpt lat="59.0771188773" lon="30.0094607938"><ele>63.72</ele><time>2026-04-25T09:49:18Z</time></trkpt><trkpt lat="59.0771705937" lon="30.0094434433"><ele>64.81</ele><time>2026-04-25T09:49:26Z</time></trkpt><trkpt lat="59.0771794785" lon="30.0094350614"><ele>62.89</ele><time>2026-04-25T09:49:28Z</time></trkpt><trkpt lat="59.0773131698" lon="30.0093903020"><ele>63.10</ele><time>2026-04-25T09:49:51Z</time></trkpt><trkpt lat="59.0775061212" lon="30.0093125179"><ele>63.78</ele><time>2026-04-25T09:50:20Z</time></trkpt><trkpt lat="59.0775761101" lon="30.0092922337"><ele>63.79</ele><time>2026-04-25T09:50:36Z</time></trkpt><trkpt lat="59.0776721667" lon="30.0092762243"><ele>64.56</ele><time>2026-04-25T09:50:43Z</time></trkpt><trkpt lat="59.0777981468" lon="30.0092606340"><ele>65.12</ele><time>2026-04-25T09:50:59Z</time></trkpt><trkpt lat="59.0778674651" lon="30.0092287827"><ele>66.25</ele><time>2026-04-25T09:51:05Z</time></trkpt><trkpt lat="59.0778734162" lon="30.0092295371"><ele>66.34</ele><time>2026-04-25T09:51:07Z</time></trkpt><trkpt lat="59.0779181756" lon="30.0092204846"><ele>66.83</ele><time>2026-04-25T09:51:14Z</time></trkpt><trkpt lat="59.0780072752" lon="30.0090721250"><ele>67.42</ele><time>2026-04-25T09:51:57Z</time></trkpt><trkpt lat="59.0780100413" lon="30.0090869609"><ele>62.75</ele><time>2026-04-25T09:52:01Z</time></trkpt><trkpt lat="59.0780113824" lon="30.0090886373"><ele>66.07</ele><time>2026-04-25T09:52:02Z</time></trkpt><trkpt lat="59.0780061856" lon="30.0090943370"><ele>66.75</ele><time>2026-04-25T09:52:04Z</time></trkpt><trkpt lat="59.0780203510" lon="30.0091376714"><ele>68.25</ele><time>2026-04-25T09:52:28Z</time></trkpt><trkpt lat="59.0780463349" lon="30.0092416070"><ele>67.33</ele><time>2026-04-25T09:52:50Z</time></trkpt><trkpt lat="59.0781393740" lon="30.0093008671"><ele>67.93</ele><time>2026-04-25T09:53:23Z</time></trkpt><trkpt lat="59.0782789327" lon="30.0093216542"><ele>66.96</ele><time>2026-04-25T09:53:50Z</time></trkpt><trkpt lat="59.0783274639" lon="30.0093276054"><ele>62.97</ele><time>2026-04-25T09:53:57Z</time></trkpt><trkpt lat="59.0783504304" lon="30.0093063153"><ele>68.12</ele><time>2026-04-25T09:53:59Z</time></trkpt><trkpt lat="59.0783647634" lon="30.0092902221"><ele>66.91</ele><time>2026-04-25T09:54:00Z</time></trkpt><trkpt lat="59.0783768333" lon="30.0092625618"><ele>66.20</ele><time>2026-04-25T09:54:02Z</time></trkpt><trkpt lat="59.0783964470" lon="30.0092464685"><ele>64.34</ele><time>2026-04-25T09:54:04Z</time></trkpt><trkpt lat="59.0784931742" lon="30.0092281122"><ele>65.86</ele><time>2026-04-25T09:54:19Z</time></trkpt><trkpt lat="59.0786163043" lon="30.0091024674"><ele>68.65</ele><time>2026-04-25T09:54:42Z</time></trkpt><trkpt lat="59.0786995366" lon="30.0090614799"><ele>69.56</ele><time>2026-04-25T09:54:57Z</time></trkpt><trkpt lat="59.0788255166" lon="30.0089710392"><ele>71.42</ele><time>2026-04-25T09:55:17Z</time></trkpt><trkpt lat="59.0788904764" lon="30.0089414511"><ele>70.70</ele><time>2026-04-25T09:55:27Z</time></trkpt><trkpt lat="59.0789769776" lon="30.0088708755"><ele>71.54</ele><time>2026-04-25T09:55:40Z</time></trkpt><trkpt lat="59.0790876187" lon="30.0088206679"><ele>71.98</ele><time>2026-04-25T09:56:00Z</time></trkpt><trkpt lat="59.0792244952" lon="30.0086946040"><ele>72.14</ele><time>2026-04-25T09:56:27Z</time></trkpt><trkpt lat="59.0792407561" lon="30.0086817797"><ele>73.67</ele><time>2026-04-25T09:56:30Z</time></trkpt><trkpt lat="59.0792842582" lon="30.0086272135"><ele>70.67</ele><time>2026-04-25T09:56:42Z</time></trkpt><trkpt lat="59.0792928077" lon="30.0086501800"><ele>74.38</ele><time>2026-04-25T09:56:47Z</time></trkpt><trkpt lat="59.0792928915" lon="30.0086563826"><ele>74.07</ele><time>2026-04-25T09:56:48Z</time></trkpt><trkpt lat="59.0792942327" lon="30.0086748227"><ele>75.40</ele><time>2026-04-25T09:56:54Z</time></trkpt><trkpt lat="59.0793302748" lon="30.0087593123"><ele>75.17</ele><time>2026-04-25T09:57:29Z</time></trkpt><trkpt lat="59.0793553367" lon="30.0087387767"><ele>76.07</ele><time>2026-04-25T09:58:01Z</time></trkpt><trkpt lat="59.0793343820" lon="30.0088156387"><ele>77.51</ele><time>2026-04-25T09:58:31Z</time></trkpt><trkpt lat="59.0793435182" lon="30.0088013057"><ele>77.92</ele><time>2026-04-25T09:58:43Z</time></trkpt><trkpt lat="59.0792679973" lon="30.0089251064"><ele>76.71</ele><time>2026-04-25T09:59:16Z</time></trkpt><trkpt lat="59.0792659856" lon="30.0089101028"><ele>71.32</ele><time>2026-04-25T09:59:37Z</time></trkpt><trkpt lat="59.0792650636" lon="30.0089085940"><ele>71.25</ele><time>2026-04-25T09:59:38Z</time></trkpt><trkpt lat="59.0793479607" lon="30.0089582149"><ele>71.75</ele><time>2026-04-25T09:59:55Z</time></trkpt><trkpt lat="59.0794123337" lon="30.0091186445"><ele>73.19</ele><time>2026-04-25T10:00:12Z</time></trkpt><trkpt lat="59.0794414189" lon="30.0091700256"><ele>73.96</ele><time>2026-04-25T10:00:20Z</time></trkpt><trkpt lat="59.0795037802" lon="30.0091766473"><ele>73.58</ele><time>2026-04-25T10:00:33Z</time></trkpt><trkpt lat="59.0795078035" lon="30.0091688521"><ele>70.17</ele><time>2026-04-25T10:00:37Z</time></trkpt><trkpt lat="59.0795036964" lon="30.0091808382"><ele>73.33</ele><time>2026-04-25T10:00:57Z</time></trkpt><trkpt lat="59.0795248188" lon="30.0091620628"><ele>70.24</ele><time>2026-04-25T10:01:01Z</time></trkpt><trkpt lat="59.0795306023" lon="30.0091525912"><ele>70.50</ele><time>2026-04-25T10:01:02Z</time></trkpt><trkpt lat="59.0795449354" lon="30.0091020484"><ele>73.07</ele><time>2026-04-25T10:01:06Z</time></trkpt><trkpt lat="59.0795584302" lon="30.0090736337"><ele>72.48</ele><time>2026-04-25T10:01:09Z</time></trkpt><trkpt lat="59.0795326978" lon="30.0089205801"><ele>72.64</ele><time>2026-04-25T10:01:35Z</time></trkpt><trkpt lat="59.0795450192" lon="30.0087980367"><ele>73.04</ele><time>2026-04-25T10:01:48Z</time></trkpt><trkpt lat="59.0795514733" lon="30.0087716337"><ele>73.13</ele><time>2026-04-25T10:01:50Z</time></trkpt><trkpt lat="59.0796026867" lon="30.0086408760"><ele>73.03</ele><time>2026-04-25T10:02:10Z</time></trkpt><trkpt lat="59.0796111524" lon="30.0085087772"><ele>73.19</ele><time>2026-04-25T10:02:26Z</time></trkpt><trkpt lat="59.0796402376" lon="30.0084544625"><ele>73.23</ele><time>2026-04-25T10:02:34Z</time></trkpt><trkpt lat="59.0797644574" lon="30.0084516127"><ele>72.40</ele><time>2026-04-25T10:02:47Z</time></trkpt><trkpt lat="59.0798566584" lon="30.0084612519"><ele>74.52</ele><time>2026-04-25T10:03:01Z</time></trkpt><trkpt lat="59.0799574088" lon="30.0083976332"><ele>73.05</ele><time>2026-04-25T10:03:17Z</time></trkpt><trkpt lat="59.0800315887" lon="30.0083615910"><ele>74.55</ele><time>2026-04-25T10:03:32Z</time></trkpt><trkpt lat="59.0800440777" lon="30.0083847251"><ele>75.97</ele><time>2026-04-25T10:03:39Z</time></trkpt><trkpt lat="59.0800667927" lon="30.0084394589"><ele>76.83</ele><time>2026-04-25T10:04:03Z</time></trkpt><trkpt lat="59.0800750908" lon="30.0084617548"><ele>75.01</ele><time>2026-04-25T10:04:06Z</time></trkpt><trkpt lat="59.0800838079" lon="30.0084213540"><ele>74.89</ele><time>2026-04-25T10:04:32Z</time></trkpt><trkpt lat="59.0800805390" lon="30.0084138103"><ele>73.12</ele><time>2026-04-25T10:04:47Z</time></trkpt><trkpt lat="59.0801148210" lon="30.0084122177"><ele>74.90</ele><time>2026-04-25T10:05:11Z</time></trkpt><trkpt lat="59.0801126417" lon="30.0083740801"><ele>71.63</ele><time>2026-04-25T10:05:20Z</time></trkpt><trkpt lat="59.0801127255" lon="30.0083739124"><ele>72.57</ele><time>2026-04-25T10:05:21Z</time></trkpt><trkpt lat="59.0801127255" lon="30.0083750859"><ele>74.82</ele><time>2026-04-25T10:05:23Z</time></trkpt><trkpt lat="59.0801100433" lon="30.0083630998"><ele>71.39</ele><time>2026-04-25T10:05:32Z</time></trkpt><trkpt lat="59.0801173355" lon="30.0083581544"><ele>74.80</ele><time>2026-04-25T10:05:38Z</time></trkpt><trkpt lat="59.0801627655" lon="30.0083094556"><ele>74.48</ele><time>2026-04-25T10:06:07Z</time></trkpt><trkpt lat="59.0801690519" lon="30.0083011575"><ele>70.88</ele><time>2026-04-25T10:06:09Z</time></trkpt><trkpt lat="59.0801746678" lon="30.0082973018"><ele>74.07</ele><time>2026-04-25T10:06:11Z</time></trkpt><trkpt lat="59.0802636836" lon="30.0083175022"><ele>74.20</ele><time>2026-04-25T10:06:26Z</time></trkpt><trkpt lat="59.0802913439" lon="30.0083418097"><ele>75.75</ele><time>2026-04-25T10:06:30Z</time></trkpt><trkpt lat="59.0803169925" lon="30.0083884969"><ele>76.33</ele><time>2026-04-25T10:06:37Z</time></trkpt><trkpt lat="59.0803298168" lon="30.0083926041"><ele>74.19</ele><time>2026-04-25T10:06:40Z</time></trkpt><trkpt lat="59.0803495981" lon="30.0083905086"><ele>74.72</ele><time>2026-04-25T10:06:44Z</time></trkpt><trkpt lat="59.0803814493" lon="30.0083315838"><ele>75.92</ele><time>2026-04-25T10:06:58Z</time></trkpt><trkpt lat="59.0803823713" lon="30.0083240401"><ele>70.67</ele><time>2026-04-25T10:06:59Z</time></trkpt><trkpt lat="59.0803823713" lon="30.0083158258"><ele>76.08</ele><time>2026-04-25T10:07:00Z</time></trkpt><trkpt lat="59.0804086067" lon="30.0083033368"><ele>71.72</ele><time>2026-04-25T10:07:34Z</time></trkpt><trkpt lat="59.0804085229" lon="30.0083078630"><ele>77.03</ele><time>2026-04-25T10:07:35Z</time></trkpt><trkpt lat="59.0804065950" lon="30.0083129760"><ele>78.17</ele><time>2026-04-25T10:07:37Z</time></trkpt><trkpt lat="59.0804056730" lon="30.0083392113"><ele>79.22</ele><time>2026-04-25T10:07:42Z</time></trkpt><trkpt lat="59.0804130491" lon="30.0083408877"><ele>78.23</ele><time>2026-04-25T10:07:46Z</time></trkpt><trkpt lat="59.0804335847" lon="30.0083274767"><ele>79.60</ele><time>2026-04-25T10:07:53Z</time></trkpt><trkpt lat="59.0804407932" lon="30.0083295722"><ele>80.87</ele><time>2026-04-25T10:08:27Z</time></trkpt><trkpt lat="59.0804608259" lon="30.0083112996"><ele>81.46</ele><time>2026-04-25T10:09:00Z</time></trkpt><trkpt lat="59.0804893244" lon="30.0082791131"><ele>76.25</ele><time>2026-04-25T10:09:12Z</time></trkpt><trkpt lat="59.0804908331" lon="30.0082764309"><ele>79.27</ele><time>2026-04-25T10:09:13Z</time></trkpt><trkpt lat="59.0805462375" lon="30.0083152391"><ele>81.30</ele><time>2026-04-25T10:09:32Z</time></trkpt><trkpt lat="59.0805490874" lon="30.0083175022"><ele>77.27</ele><time>2026-04-25T10:09:33Z</time></trkpt><trkpt lat="59.0805510152" lon="30.0083216932"><ele>80.85</ele><time>2026-04-25T10:09:34Z</time></trkpt><trkpt lat="59.0805935953" lon="30.0084093679"><ele>81.46</ele><time>2026-04-25T10:09:48Z</time></trkpt><trkpt lat="59.0806174837" lon="30.0086039957"><ele>82.15</ele><time>2026-04-25T10:10:08Z</time></trkpt><trkpt lat="59.0806245245" lon="30.0087551214"><ele>78.31</ele><time>2026-04-25T10:10:27Z</time></trkpt><trkpt lat="59.0806127898" lon="30.0087870564"><ele>78.54</ele><time>2026-04-25T10:11:11Z</time></trkpt><trkpt lat="59.0806158073" lon="30.0087935943"><ele>81.21</ele><time>2026-04-25T10:11:14Z</time></trkpt><trkpt lat="59.0806152206" lon="30.0088031497"><ele>78.40</ele><time>2026-04-25T10:11:30Z</time></trkpt><trkpt lat="59.0805946011" lon="30.0088189915"><ele>79.14</ele><time>2026-04-25T10:11:58Z</time></trkpt><trkpt lat="59.0805706289" lon="30.0088633318"><ele>82.66</ele><time>2026-04-25T10:12:12Z</time></trkpt><trkpt lat="59.0805713832" lon="30.0088568777"><ele>83.69</ele><time>2026-04-25T10:12:21Z</time></trkpt><trkpt lat="59.0805923380" lon="30.0088627450"><ele>87.00</ele><time>2026-04-25T10:12:41Z</time></trkpt><trkpt lat="59.0805962775" lon="30.0088613201"><ele>88.97</ele><time>2026-04-25T10:13:12Z</time></trkpt><trkpt lat="59.0805926733" lon="30.0088544469"><ele>90.80</ele><time>2026-04-25T10:13:48Z</time></trkpt><trkpt lat="59.0805914998" lon="30.0088456459"><ele>91.55</ele><time>2026-04-25T10:14:19Z</time></trkpt><trkpt lat="59.0805791784" lon="30.0088069215"><ele>90.82</ele><time>2026-04-25T10:14:42Z</time></trkpt><trkpt lat="59.0806231834" lon="30.0086319074"><ele>87.61</ele><time>2026-04-25T10:15:01Z</time></trkpt><trkpt lat="59.0806230158" lon="30.0086177420"><ele>90.89</ele><time>2026-04-25T10:15:03Z</time></trkpt><trkpt lat="59.0805827826" lon="30.0084780157"><ele>90.47</ele><time>2026-04-25T10:15:26Z</time></trkpt><trkpt lat="59.0805775020" lon="30.0084352680"><ele>91.58</ele><time>2026-04-25T10:15:30Z</time></trkpt><trkpt lat="59.0806025639" lon="30.0082501955"><ele>89.93</ele><time>2026-04-25T10:15:49Z</time></trkpt><trkpt lat="59.0806637518" lon="30.0080646202"><ele>92.17</ele><time>2026-04-25T10:16:10Z</time></trkpt><trkpt lat="59.0806715470" lon="30.0080238003"><ele>92.17</ele><time>2026-04-25T10:16:15Z</time></trkpt><trkpt lat="59.0806954354" lon="30.0079486985"><ele>83.53</ele><time>2026-04-25T10:16:27Z</time></trkpt><trkpt lat="59.0806957707" lon="30.0079463515"><ele>86.29</ele><time>2026-04-25T10:16:28Z</time></trkpt><trkpt lat="59.0806941781" lon="30.0079440046"><ele>92.24</ele><time>2026-04-25T10:16:29Z</time></trkpt><trkpt lat="59.0807080083" lon="30.0078006741"><ele>92.46</ele><time>2026-04-25T10:16:49Z</time></trkpt><trkpt lat="59.0807766560" lon="30.0076047890"><ele>88.47</ele><time>2026-04-25T10:17:05Z</time></trkpt><trkpt lat="59.0807844512" lon="30.0075972453"><ele>91.49</ele><time>2026-04-25T10:17:06Z</time></trkpt><trkpt lat="59.0808703657" lon="30.0074835028"><ele>92.12</ele><time>2026-04-25T10:17:27Z</time></trkpt><trkpt lat="59.0808643308" lon="30.0074903760"><ele>93.51</ele><time>2026-04-25T10:17:59Z</time></trkpt><trkpt lat="59.0808675159" lon="30.0074966624"><ele>93.60</ele><time>2026-04-25T10:18:29Z</time></trkpt><trkpt lat="59.0808501653" lon="30.0075024460"><ele>93.58</ele><time>2026-04-25T10:19:01Z</time></trkpt><trkpt lat="59.0808666777" lon="30.0075159408"><ele>93.43</ele><time>2026-04-25T10:19:35Z</time></trkpt><trkpt lat="59.0808731318" lon="30.0074811559"><ele>91.80</ele><time>2026-04-25T10:20:06Z</time></trkpt><trkpt lat="59.0809117723" lon="30.0075425953"><ele>91.36</ele><time>2026-04-25T10:20:28Z</time></trkpt><trkpt lat="59.0809273627" lon="30.0075978320"><ele>89.02</ele><time>2026-04-25T10:20:47Z</time></trkpt><trkpt lat="59.0809272788" lon="30.0076082256"><ele>91.56</ele><time>2026-04-25T10:20:51Z</time></trkpt><trkpt lat="59.0809033904" lon="30.0075983349"><ele>90.69</ele><time>2026-04-25T10:21:28Z</time></trkpt><trkpt lat="59.0808966011" lon="30.0076011010"><ele>89.26</ele><time>2026-04-25T10:21:35Z</time></trkpt><trkpt lat="59.0809277818" lon="30.0076401606"><ele>89.95</ele><time>2026-04-25T10:22:12Z</time></trkpt><trkpt lat="59.0809588786" lon="30.0076920446"><ele>85.10</ele><time>2026-04-25T10:22:37Z</time></trkpt><trkpt lat="59.0809633210" lon="30.0077056233"><ele>81.74</ele><time>2026-04-25T10:22:40Z</time></trkpt><trkpt lat="59.0809629019" lon="30.0077207945"><ele>85.98</ele><time>2026-04-25T10:22:43Z</time></trkpt><trkpt lat="59.0809637401" lon="30.0077396538"><ele>87.28</ele><time>2026-04-25T10:22:45Z</time></trkpt><trkpt lat="59.0809846949" lon="30.0077888556"><ele>87.77</ele><time>2026-04-25T10:22:57Z</time></trkpt><trkpt lat="59.0809983574" lon="30.0078147557"><ele>87.76</ele><time>2026-04-25T10:23:09Z</time></trkpt><trkpt lat="59.0810117684" lon="30.0078980718"><ele>86.96</ele><time>2026-04-25T10:23:35Z</time></trkpt><trkpt lat="59.0810218267" lon="30.0079589244"><ele>86.84</ele><time>2026-04-25T10:23:55Z</time></trkpt><trkpt lat="59.0810000338" lon="30.0079927873"><ele>86.48</ele><time>2026-04-25T10:24:24Z</time></trkpt><trkpt lat="59.0809757262" lon="30.0079519674"><ele>85.72</ele><time>2026-04-25T10:24:50Z</time></trkpt><trkpt lat="59.0809833538" lon="30.0079463515"><ele>85.34</ele><time>2026-04-25T10:25:19Z</time></trkpt><trkpt lat="59.0810044762" lon="30.0078504626"><ele>85.21</ele><time>2026-04-25T10:25:54Z</time></trkpt><trkpt lat="59.0810184740" lon="30.0079262350"><ele>85.05</ele><time>2026-04-25T10:26:19Z</time></trkpt><trkpt lat="59.0810784884" lon="30.0078767817"><ele>82.89</ele><time>2026-04-25T10:26:47Z</time></trkpt><trkpt lat="59.0810458828" lon="30.0078727584"><ele>82.82</ele><time>2026-04-25T10:27:30Z</time></trkpt><trkpt lat="59.0810506605" lon="30.0079234689"><ele>85.70</ele><time>2026-04-25T10:28:04Z</time></trkpt><trkpt lat="59.0810758900" lon="30.0079484470"><ele>82.31</ele><time>2026-04-25T10:28:29Z</time></trkpt><trkpt lat="59.0810782369" lon="30.0079469383"><ele>85.46</ele><time>2026-04-25T10:28:30Z</time></trkpt><trkpt lat="59.0811022092" lon="30.0079766940"><ele>81.79</ele><time>2026-04-25T10:28:46Z</time></trkpt><trkpt lat="59.0811168775" lon="30.0079949666"><ele>85.23</ele><time>2026-04-25T10:28:54Z</time></trkpt><trkpt lat="59.0811806638" lon="30.0080109760"><ele>83.36</ele><time>2026-04-25T10:29:12Z</time></trkpt><trkpt lat="59.0811996907" lon="30.0079963077"><ele>83.38</ele><time>2026-04-25T10:29:16Z</time></trkpt><trkpt lat="59.0812442824" lon="30.0079619419"><ele>84.91</ele><time>2026-04-25T10:29:20Z</time></trkpt><trkpt lat="59.0812629741" lon="30.0079574995"><ele>84.93</ele><time>2026-04-25T10:29:23Z</time></trkpt><trkpt lat="59.0813524090" lon="30.0079688150"><ele>84.86</ele><time>2026-04-25T10:29:45Z</time></trkpt><trkpt lat="59.0814228170" lon="30.0079676416"><ele>83.34</ele><time>2026-04-25T10:30:04Z</time></trkpt><trkpt lat="59.0814477950" lon="30.0079402328"><ele>85.40</ele><time>2026-04-25T10:30:10Z</time></trkpt><trkpt lat="59.0814912971" lon="30.0078636222"><ele>81.46</ele><time>2026-04-25T10:30:29Z</time></trkpt><trkpt lat="59.0814918000" lon="30.0078585930"><ele>81.39</ele><time>2026-04-25T10:30:30Z</time></trkpt><trkpt lat="59.0814985055" lon="30.0078496244"><ele>84.70</ele><time>2026-04-25T10:30:32Z</time></trkpt><trkpt lat="59.0815741103" lon="30.0078816433"><ele>83.82</ele><time>2026-04-25T10:30:49Z</time></trkpt><trkpt lat="59.0816687420" lon="30.0078898575"><ele>83.57</ele><time>2026-04-25T10:31:03Z</time></trkpt><trkpt lat="59.0817580931" lon="30.0078766141"><ele>84.29</ele><time>2026-04-25T10:31:15Z</time></trkpt><trkpt lat="59.0817884356" lon="30.0078529771"><ele>81.05</ele><time>2026-04-25T10:31:20Z</time></trkpt><trkpt lat="59.0818168502" lon="30.0078357104"><ele>82.62</ele><time>2026-04-25T10:31:26Z</time></trkpt><trkpt lat="59.0819039382" lon="30.0077535678"><ele>83.77</ele><time>2026-04-25T10:31:41Z</time></trkpt><trkpt lat="59.0819572471" lon="30.0077320263"><ele>83.00</ele><time>2026-04-25T10:31:48Z</time></trkpt><trkpt lat="59.0819925349" lon="30.0077339541"><ele>84.07</ele><time>2026-04-25T10:31:53Z</time></trkpt><trkpt lat="59.0820119809" lon="30.0077359658"><ele>83.22</ele><time>2026-04-25T10:31:57Z</time></trkpt><trkpt lat="59.0821066126" lon="30.0077488739"><ele>84.33</ele><time>2026-04-25T10:32:28Z</time></trkpt><trkpt lat="59.0821173415" lon="30.0077574234"><ele>84.00</ele><time>2026-04-25T10:33:00Z</time></trkpt><trkpt lat="59.0821529645" lon="30.0077339541"><ele>83.31</ele><time>2026-04-25T10:33:28Z</time></trkpt><trkpt lat="59.0821763501" lon="30.0077243149"><ele>80.10</ele><time>2026-04-25T10:33:43Z</time></trkpt><trkpt lat="59.0822320059" lon="30.0076389872"><ele>81.93</ele><time>2026-04-25T10:34:01Z</time></trkpt><trkpt lat="59.0822722390" lon="30.0075816549"><ele>82.04</ele><time>2026-04-25T10:34:10Z</time></trkpt><trkpt lat="59.0823166631" lon="30.0075430982"><ele>79.06</ele><time>2026-04-25T10:34:18Z</time></trkpt><trkpt lat="59.0824053437" lon="30.0074688345"><ele>79.88</ele><time>2026-04-25T10:34:40Z</time></trkpt><trkpt lat="59.0824122168" lon="30.0074632186"><ele>80.26</ele><time>2026-04-25T10:34:42Z</time></trkpt><trkpt lat="59.0824957844" lon="30.0072966702"><ele>80.65</ele><time>2026-04-25T10:34:58Z</time></trkpt><trkpt lat="59.0825614147" lon="30.0072395895"><ele>78.60</ele><time>2026-04-25T10:35:13Z</time></trkpt><trkpt lat="59.0826397017" lon="30.0071658287"><ele>78.70</ele><time>2026-04-25T10:35:45Z</time></trkpt><trkpt lat="59.0827786736" lon="30.0072863605"><ele>78.33</ele><time>2026-04-25T10:36:11Z</time></trkpt><trkpt lat="59.0827991255" lon="30.0075557549"><ele>78.31</ele><time>2026-04-25T10:36:32Z</time></trkpt><trkpt lat="59.0827787574" lon="30.0077352114"><ele>77.64</ele><time>2026-04-25T10:36:49Z</time></trkpt><trkpt lat="59.0827807691" lon="30.0078252330"><ele>76.61</ele><time>2026-04-25T10:36:57Z</time></trkpt><trkpt lat="59.0827650111" lon="30.0078637898"><ele>78.27</ele><time>2026-04-25T10:37:00Z</time></trkpt><trkpt lat="59.0827385243" lon="30.0079672225"><ele>75.68</ele><time>2026-04-25T10:37:18Z</time></trkpt><trkpt lat="59.0827831998" lon="30.0080625247"><ele>77.04</ele><time>2026-04-25T10:37:40Z</time></trkpt><trkpt lat="59.0827878099" lon="30.0080650393"><ele>77.58</ele><time>2026-04-25T10:37:41Z</time></trkpt><trkpt lat="59.0828263666" lon="30.0082473457"><ele>77.34</ele><time>2026-04-25T10:37:58Z</time></trkpt><trkpt lat="59.0828375984" lon="30.0082620978"><ele>76.41</ele><time>2026-04-25T10:38:00Z</time></trkpt><trkpt lat="59.0828671027" lon="30.0082770176"><ele>77.87</ele><time>2026-04-25T10:38:03Z</time></trkpt><trkpt lat="59.0829132032" lon="30.0083299074"><ele>77.88</ele><time>2026-04-25T10:38:11Z</time></trkpt><trkpt lat="59.0829099342" lon="30.0084911752"><ele>75.86</ele><time>2026-04-25T10:38:21Z</time></trkpt><trkpt lat="59.0828461479" lon="30.0086621661"><ele>76.78</ele><time>2026-04-25T10:38:36Z</time></trkpt><trkpt lat="59.0828107763" lon="30.0088050775"><ele>78.39</ele><time>2026-04-25T10:38:53Z</time></trkpt><trkpt lat="59.0828108601" lon="30.0088199135"><ele>78.72</ele><time>2026-04-25T10:38:55Z</time></trkpt><trkpt lat="59.0828087647" lon="30.0089054927"><ele>75.04</ele><time>2026-04-25T10:39:04Z</time></trkpt><trkpt lat="59.0828130394" lon="30.0089124497"><ele>78.26</ele><time>2026-04-25T10:39:05Z</time></trkpt><trkpt lat="59.0828097705" lon="30.0089362543"><ele>74.18</ele><time>2026-04-25T10:39:06Z</time></trkpt><trkpt lat="59.0828124527" lon="30.0089443848"><ele>77.81</ele><time>2026-04-25T10:39:07Z</time></trkpt><trkpt lat="59.0828230139" lon="30.0090568699"><ele>74.30</ele><time>2026-04-25T10:39:19Z</time></trkpt><trkpt lat="59.0828242712" lon="30.0090643298"><ele>75.23</ele><time>2026-04-25T10:39:20Z</time></trkpt><trkpt lat="59.0828329045" lon="30.0090665929"><ele>78.72</ele><time>2026-04-25T10:39:22Z</time></trkpt><trkpt lat="59.0828456450" lon="30.0090799201"><ele>77.99</ele><time>2026-04-25T10:39:25Z</time></trkpt><trkpt lat="59.0829179808" lon="30.0091333129"><ele>78.39</ele><time>2026-04-25T10:39:35Z</time></trkpt><trkpt lat="59.0829964355" lon="30.0092742126"><ele>77.81</ele><time>2026-04-25T10:39:53Z</time></trkpt><trkpt lat="59.0830481518" lon="30.0094059762"><ele>76.39</ele><time>2026-04-25T10:40:11Z</time></trkpt><trkpt lat="59.0830426197" lon="30.0094293617"><ele>78.58</ele><time>2026-04-25T10:40:13Z</time></trkpt><trkpt lat="59.0830375906" lon="30.0094315410"><ele>74.49</ele><time>2026-04-25T10:40:14Z</time></trkpt><trkpt lat="59.0830346569" lon="30.0094345585"><ele>77.27</ele><time>2026-04-25T10:40:15Z</time></trkpt><trkpt lat="59.0830287058" lon="30.0094466284"><ele>77.56</ele><time>2026-04-25T10:40:17Z</time></trkpt><trkpt lat="59.0830161329" lon="30.0094835926"><ele>79.03</ele><time>2026-04-25T10:40:20Z</time></trkpt><trkpt lat="59.0829878859" lon="30.0096534938"><ele>78.40</ele><time>2026-04-25T10:40:37Z</time></trkpt><trkpt lat="59.0830030572" lon="30.0097212195"><ele>78.99</ele><time>2026-04-25T10:40:46Z</time></trkpt><trkpt lat="59.0830264427" lon="30.0098798051"><ele>79.85</ele><time>2026-04-25T10:41:11Z</time></trkpt><trkpt lat="59.0830260236" lon="30.0098822359"><ele>74.79</ele><time>2026-04-25T10:41:12Z</time></trkpt><trkpt lat="59.0830311365" lon="30.0098871812"><ele>75.03</ele><time>2026-04-25T10:41:13Z</time></trkpt><trkpt lat="59.0830339864" lon="30.0098931324"><ele>79.24</ele><time>2026-04-25T10:41:14Z</time></trkpt><trkpt lat="59.0830363333" lon="30.0098965690"><ele>79.02</ele><time>2026-04-25T10:41:15Z</time></trkpt><trkpt lat="59.0830773208" lon="30.0099160150"><ele>77.34</ele><time>2026-04-25T10:41:27Z</time></trkpt><trkpt lat="59.0830810089" lon="30.0100424141"><ele>79.02</ele><time>2026-04-25T10:41:49Z</time></trkpt><trkpt lat="59.0831281152" lon="30.0100577530"><ele>78.27</ele><time>2026-04-25T10:42:27Z</time></trkpt><trkpt lat="59.0831370000" lon="30.0101772789"><ele>78.22</ele><time>2026-04-25T10:42:57Z</time></trkpt><trkpt lat="59.0831481479" lon="30.0100963935"><ele>78.02</ele><time>2026-04-25T10:43:28Z</time></trkpt><trkpt lat="59.0831120219" lon="30.0100601837"><ele>77.36</ele><time>2026-04-25T10:44:02Z</time></trkpt><trkpt lat="59.0831085853" lon="30.0100706611"><ele>77.21</ele><time>2026-04-25T10:44:06Z</time></trkpt><trkpt lat="59.0831051487" lon="30.0101033505"><ele>75.79</ele><time>2026-04-25T10:44:21Z</time></trkpt><trkpt lat="59.0830845293" lon="30.0101321004"><ele>75.48</ele><time>2026-04-25T10:44:40Z</time></trkpt><trkpt lat="59.0830803383" lon="30.0101375487"><ele>70.43</ele><time>2026-04-25T10:44:41Z</time></trkpt><trkpt lat="59.0830739681" lon="30.0101409853"><ele>74.78</ele><time>2026-04-25T10:44:43Z</time></trkpt><trkpt lat="59.0830686875" lon="30.0101274066"><ele>75.88</ele><time>2026-04-25T10:44:45Z</time></trkpt><trkpt lat="59.0830111038" lon="30.0100857485"><ele>75.20</ele><time>2026-04-25T10:45:10Z</time></trkpt><trkpt lat="59.0829418693" lon="30.0100729242"><ele>72.14</ele><time>2026-04-25T10:45:31Z</time></trkpt><trkpt lat="59.0829018038" lon="30.0100536458"><ele>74.10</ele><time>2026-04-25T10:45:45Z</time></trkpt><trkpt lat="59.0828101058" lon="30.0100430846"><ele>74.07</ele><time>2026-04-25T10:46:01Z</time></trkpt><trkpt lat="59.0827210899" lon="30.0100363791"><ele>73.27</ele><time>2026-04-25T10:46:15Z</time></trkpt><trkpt lat="59.0826905798" lon="30.0099935476"><ele>72.74</ele><time>2026-04-25T10:46:22Z</time></trkpt><trkpt lat="59.0826581419" lon="30.0099888537"><ele>72.05</ele><time>2026-04-25T10:46:27Z</time></trkpt><trkpt lat="59.0826350078" lon="30.0099801365"><ele>73.69</ele><time>2026-04-25T10:46:33Z</time></trkpt><trkpt lat="59.0825690422" lon="30.0100104790"><ele>70.95</ele><time>2026-04-25T10:47:06Z</time></trkpt><trkpt lat="59.0825427230" lon="30.0100650452"><ele>73.30</ele><time>2026-04-25T10:47:35Z</time></trkpt><trkpt lat="59.0825973731" lon="30.0100140832"><ele>72.54</ele><time>2026-04-25T10:48:10Z</time></trkpt><trkpt lat="59.0826081857" lon="30.0100935437"><ele>73.39</ele><time>2026-04-25T10:48:40Z</time></trkpt><trkpt lat="59.0826046653" lon="30.0101453438"><ele>72.02</ele><time>2026-04-25T10:49:14Z</time></trkpt><trkpt lat="59.0825817827" lon="30.0101128221"><ele>71.74</ele><time>2026-04-25T10:49:25Z</time></trkpt><trkpt lat="59.0825230256" lon="30.0100860838"><ele>70.49</ele><time>2026-04-25T10:49:30Z</time></trkpt><trkpt lat="59.0824442357" lon="30.0099114887"><ele>69.39</ele><time>2026-04-25T10:49:50Z</time></trkpt><trkpt lat="59.0823996440" lon="30.0098269992"><ele>70.56</ele><time>2026-04-25T10:50:08Z</time></trkpt><trkpt lat="59.0823801979" lon="30.0096757896"><ele>73.25</ele><time>2026-04-25T10:50:25Z</time></trkpt><trkpt lat="59.0823682956" lon="30.0096276775"><ele>76.46</ele><time>2026-04-25T10:50:44Z</time></trkpt><trkpt lat="59.0823689662" lon="30.0096175354"><ele>72.80</ele><time>2026-04-25T10:50:47Z</time></trkpt><trkpt lat="59.0823688824" lon="30.0096172839"><ele>76.69</ele><time>2026-04-25T10:50:48Z</time></trkpt><trkpt lat="59.0823770966" lon="30.0096107461"><ele>78.82</ele><time>2026-04-25T10:50:52Z</time></trkpt><trkpt lat="59.0823770966" lon="30.0096107461"><ele>74.24</ele><time>2026-04-25T10:50:53Z</time></trkpt><trkpt lat="59.0823757555" lon="30.0096127577"><ele>61.35</ele><time>2026-04-25T10:50:54Z</time></trkpt><trkpt lat="59.0823768452" lon="30.0096087344"><ele>75.51</ele><time>2026-04-25T10:50:55Z</time></trkpt><trkpt lat="59.0823745821" lon="30.0095953234"><ele>78.89</ele><time>2026-04-25T10:50:58Z</time></trkpt><trkpt lat="59.0823715646" lon="30.0095852651"><ele>75.34</ele><time>2026-04-25T10:51:00Z</time></trkpt><trkpt lat="59.0823674574" lon="30.0095778890"><ele>78.92</ele><time>2026-04-25T10:51:01Z</time></trkpt><trkpt lat="59.0823522024" lon="30.0095573533"><ele>80.09</ele><time>2026-04-25T10:51:03Z</time></trkpt><trkpt lat="59.0823451616" lon="30.0095520727"><ele>78.56</ele><time>2026-04-25T10:51:05Z</time></trkpt><trkpt lat="59.0823054314" lon="30.0095027033"><ele>80.59</ele><time>2026-04-25T10:51:18Z</time></trkpt><trkpt lat="59.0823362768" lon="30.0093598757"><ele>81.18</ele><time>2026-04-25T10:51:39Z</time></trkpt><trkpt lat="59.0823366959" lon="30.0093483087"><ele>80.45</ele><time>2026-04-25T10:51:41Z</time></trkpt><trkpt lat="59.0823785216" lon="30.0092420261"><ele>81.49</ele><time>2026-04-25T10:52:03Z</time></trkpt><trkpt lat="59.0823687986" lon="30.0092063192"><ele>82.28</ele><time>2026-04-25T10:52:12Z</time></trkpt><trkpt lat="59.0823278110" lon="30.0091418624"><ele>83.11</ele><time>2026-04-25T10:52:21Z</time></trkpt><trkpt lat="59.0823009051" lon="30.0089463126"><ele>81.75</ele><time>2026-04-25T10:52:38Z</time></trkpt><trkpt lat="59.0822946187" lon="30.0089292973"><ele>83.13</ele><time>2026-04-25T10:52:40Z</time></trkpt><trkpt lat="59.0823061019" lon="30.0087468233"><ele>82.35</ele><time>2026-04-25T10:52:58Z</time></trkpt><trkpt lat="59.0823134780" lon="30.0086919218"><ele>82.93</ele><time>2026-04-25T10:53:03Z</time></trkpt><trkpt lat="59.0823020786" lon="30.0085543748"><ele>83.16</ele><time>2026-04-25T10:53:15Z</time></trkpt><trkpt lat="59.0823035035" lon="30.0084225275"><ele>83.07</ele><time>2026-04-25T10:53:27Z</time></trkpt><trkpt lat="59.0822748374" lon="30.0083635189"><ele>80.49</ele><time>2026-04-25T10:53:37Z</time></trkpt><trkpt lat="59.0822642762" lon="30.0083138142"><ele>83.03</ele><time>2026-04-25T10:53:40Z</time></trkpt><trkpt lat="59.0822392143" lon="30.0081531331"><ele>84.30</ele><time>2026-04-25T10:53:57Z</time></trkpt><trkpt lat="59.0822221991" lon="30.0080440007"><ele>84.14</ele><time>2026-04-25T10:54:28Z</time></trkpt><trkpt lat="59.0821916051" lon="30.0081107207"><ele>83.72</ele><time>2026-04-25T10:55:01Z</time></trkpt><trkpt lat="59.0821526293" lon="30.0081228744"><ele>84.34</ele><time>2026-04-25T10:55:28Z</time></trkpt><trkpt lat="59.0821540542" lon="30.0081302505"><ele>84.18</ele><time>2026-04-25T10:55:30Z</time></trkpt><trkpt lat="59.0821447503" lon="30.0080741756"><ele>81.94</ele><time>2026-04-25T10:55:38Z</time></trkpt><trkpt lat="59.0821462590" lon="30.0080730859"><ele>83.51</ele><time>2026-04-25T10:55:40Z</time></trkpt><trkpt lat="59.0821786132" lon="30.0080569088"><ele>83.46</ele><time>2026-04-25T10:56:09Z</time></trkpt><trkpt lat="59.0821840614" lon="30.0080506224"><ele>78.70</ele><time>2026-04-25T10:56:12Z</time></trkpt><trkpt lat="59.0821845643" lon="30.0080345292"><ele>75.54</ele><time>2026-04-25T10:56:13Z</time></trkpt><trkpt lat="59.0821791999" lon="30.0080256443"><ele>81.13</ele><time>2026-04-25T10:56:17Z</time></trkpt><trkpt lat="59.0821798705" lon="30.0080304220"><ele>80.59</ele><time>2026-04-25T10:56:18Z</time></trkpt><trkpt lat="59.0821760986" lon="30.0080434140"><ele>83.16</ele><time>2026-04-25T10:56:22Z</time></trkpt><trkpt lat="59.0821874980" lon="30.0080439169"><ele>77.61</ele><time>2026-04-25T10:56:48Z</time></trkpt><trkpt lat="59.0821856540" lon="30.0080295838"><ele>78.88</ele><time>2026-04-25T10:56:49Z</time></trkpt><trkpt lat="59.0821819659" lon="30.0080625247"><ele>78.79</ele><time>2026-04-25T10:57:24Z</time></trkpt><trkpt lat="59.0821748413" lon="30.0080793723"><ele>81.82</ele><time>2026-04-25T10:57:42Z</time></trkpt><trkpt lat="59.0821712371" lon="30.0081462599"><ele>83.16</ele><time>2026-04-25T10:58:13Z</time></trkpt><trkpt lat="59.0821799543" lon="30.0081496127"><ele>84.09</ele><time>2026-04-25T10:58:42Z</time></trkpt><trkpt lat="59.0821962990" lon="30.0081487745"><ele>84.37</ele><time>2026-04-25T10:59:05Z</time></trkpt><trkpt lat="59.0822019987" lon="30.0081384648"><ele>80.70</ele><time>2026-04-25T10:59:07Z</time></trkpt><trkpt lat="59.0822117217" lon="30.0081233773"><ele>81.17</ele><time>2026-04-25T10:59:08Z</time></trkpt><trkpt lat="59.0822082013" lon="30.0081345253"><ele>82.87</ele><time>2026-04-25T10:59:10Z</time></trkpt><trkpt lat="59.0821950417" lon="30.0081737526"><ele>82.56</ele><time>2026-04-25T10:59:36Z</time></trkpt><trkpt lat="59.0821420681" lon="30.0082562305"><ele>81.70</ele><time>2026-04-25T11:00:00Z</time></trkpt><trkpt lat="59.0820868313" lon="30.0083195139"><ele>82.15</ele><time>2026-04-25T11:00:15Z</time></trkpt><trkpt lat="59.0820094664" lon="30.0083896704"><ele>82.32</ele><time>2026-04-25T11:00:30Z</time></trkpt><trkpt lat="59.0819216240" lon="30.0084532052"><ele>83.38</ele><time>2026-04-25T11:00:46Z</time></trkpt><trkpt lat="59.0818342846" lon="30.0086105336"><ele>85.95</ele><time>2026-04-25T11:01:04Z</time></trkpt><trkpt lat="59.0817813948" lon="30.0086342543"><ele>83.82</ele><time>2026-04-25T11:01:14Z</time></trkpt><trkpt lat="59.0817657206" lon="30.0086558796"><ele>88.25</ele><time>2026-04-25T11:01:30Z</time></trkpt><trkpt lat="59.0817643795" lon="30.0086559635"><ele>88.37</ele><time>2026-04-25T11:01:31Z</time></trkpt><trkpt lat="59.0817699116" lon="30.0086293928"><ele>91.60</ele><time>2026-04-25T11:01:48Z</time></trkpt><trkpt lat="59.0818409901" lon="30.0084685441"><ele>94.39</ele><time>2026-04-25T11:02:18Z</time></trkpt><trkpt lat="59.0817766171" lon="30.0086312369"><ele>97.66</ele><time>2026-04-25T11:02:54Z</time></trkpt><trkpt lat="59.0817804728" lon="30.0085865613"><ele>98.17</ele><time>2026-04-25T11:03:22Z</time></trkpt><trkpt lat="59.0817770362" lon="30.0087346695"><ele>98.00</ele><time>2026-04-25T11:03:42Z</time></trkpt><trkpt lat="59.0817795508" lon="30.0087808538"><ele>99.63</ele><time>2026-04-25T11:03:48Z</time></trkpt><trkpt lat="59.0818010923" lon="30.0088872202"><ele>94.21</ele><time>2026-04-25T11:03:54Z</time></trkpt><trkpt lat="59.0818036906" lon="30.0088971946"><ele>94.73</ele><time>2026-04-25T11:03:55Z</time></trkpt><trkpt lat="59.0818243939" lon="30.0089201611"><ele>96.60</ele><time>2026-04-25T11:03:58Z</time></trkpt><trkpt lat="59.0818202868" lon="30.0090484880"><ele>90.32</ele><time>2026-04-25T11:04:11Z</time></trkpt><trkpt lat="59.0818250645" lon="30.0090577081"><ele>92.99</ele><time>2026-04-25T11:04:12Z</time></trkpt><trkpt lat="59.0818444267" lon="30.0090857875"><ele>97.69</ele><time>2026-04-25T11:04:16Z</time></trkpt><trkpt lat="59.0818484500" lon="30.0090853684"><ele>98.32</ele><time>2026-04-25T11:04:18Z</time></trkpt><trkpt lat="59.0818528086" lon="30.0090945046"><ele>99.68</ele><time>2026-04-25T11:04:20Z</time></trkpt><trkpt lat="59.0818612743" lon="30.0092017092"><ele>101.29</ele><time>2026-04-25T11:04:42Z</time></trkpt><trkpt lat="59.0818905272" lon="30.0092921499"><ele>102.58</ele><time>2026-04-25T11:04:53Z</time></trkpt><trkpt lat="59.0818974003" lon="30.0093989354"><ele>98.48</ele><time>2026-04-25T11:05:02Z</time></trkpt><trkpt lat="59.0818957239" lon="30.0094123464"><ele>98.63</ele><time>2026-04-25T11:05:03Z</time></trkpt><trkpt lat="59.0818959754" lon="30.0094210636"><ele>102.00</ele><time>2026-04-25T11:05:05Z</time></trkpt><trkpt lat="59.0818944667" lon="30.0094204769"><ele>102.29</ele><time>2026-04-25T11:05:06Z</time></trkpt><trkpt lat="59.0818974003" lon="30.0094483886"><ele>102.57</ele><time>2026-04-25T11:05:11Z</time></trkpt><trkpt lat="59.0819445904" lon="30.0096372329"><ele>102.49</ele><time>2026-04-25T11:05:30Z</time></trkpt><trkpt lat="59.0819665510" lon="30.0097000971"><ele>103.35</ele><time>2026-04-25T11:05:38Z</time></trkpt><trkpt lat="59.0819500387" lon="30.0097384863"><ele>101.74</ele><time>2026-04-25T11:05:47Z</time></trkpt><trkpt lat="59.0819540620" lon="30.0097408332"><ele>98.20</ele><time>2026-04-25T11:05:49Z</time></trkpt><trkpt lat="59.0819549840" lon="30.0097404979"><ele>102.51</ele><time>2026-04-25T11:05:51Z</time></trkpt><trkpt lat="59.0819556545" lon="30.0097423419"><ele>102.13</ele><time>2026-04-25T11:05:52Z</time></trkpt><trkpt lat="59.0819167625" lon="30.0098304357"><ele>100.56</ele><time>2026-04-25T11:06:04Z</time></trkpt><trkpt lat="59.0819155052" lon="30.0098473672"><ele>102.01</ele><time>2026-04-25T11:06:06Z</time></trkpt><trkpt lat="59.0819386393" lon="30.0099912845"><ele>101.41</ele><time>2026-04-25T11:06:24Z</time></trkpt><trkpt lat="59.0819767769" lon="30.0101878401"><ele>102.75</ele><time>2026-04-25T11:06:38Z</time></trkpt><trkpt lat="59.0820284095" lon="30.0103299133"><ele>102.84</ele><time>2026-04-25T11:07:02Z</time></trkpt><trkpt lat="59.0819693170" lon="30.0104035903"><ele>102.47</ele><time>2026-04-25T11:07:37Z</time></trkpt><trkpt lat="59.0820377972" lon="30.0104086194"><ele>102.64</ele><time>2026-04-25T11:08:07Z</time></trkpt><trkpt lat="59.0820489451" lon="30.0104349386"><ele>102.10</ele><time>2026-04-25T11:08:25Z</time></trkpt><trkpt lat="59.0819736756" lon="30.0105025806"><ele>101.23</ele><time>2026-04-25T11:08:53Z</time></trkpt><trkpt lat="59.0819708258" lon="30.0104834698"><ele>100.43</ele><time>2026-04-25T11:09:24Z</time></trkpt><trkpt lat="59.0819678083" lon="30.0104248803"><ele>96.53</ele><time>2026-04-25T11:09:36Z</time></trkpt><trkpt lat="59.0819652937" lon="30.0104050152"><ele>99.63</ele><time>2026-04-25T11:09:39Z</time></trkpt><trkpt lat="59.0819284134" lon="30.0103770196"><ele>98.85</ele><time>2026-04-25T11:09:50Z</time></trkpt><trkpt lat="59.0818933770" lon="30.0104611740"><ele>95.91</ele><time>2026-04-25T11:10:14Z</time></trkpt><trkpt lat="59.0819229651" lon="30.0104212761"><ele>98.16</ele><time>2026-04-25T11:10:40Z</time></trkpt><trkpt lat="59.0819177683" lon="30.0104422309"><ele>93.11</ele><time>2026-04-25T11:10:43Z</time></trkpt><trkpt lat="59.0819177683" lon="30.0104422309"><ele>97.31</ele><time>2026-04-25T11:10:44Z</time></trkpt><trkpt lat="59.0818882640" lon="30.0105500221"><ele>96.94</ele><time>2026-04-25T11:11:09Z</time></trkpt><trkpt lat="59.0818728413" lon="30.0105750840"><ele>91.79</ele><time>2026-04-25T11:11:13Z</time></trkpt><trkpt lat="59.0818709973" lon="30.0105817895"><ele>93.45</ele><time>2026-04-25T11:11:14Z</time></trkpt><trkpt lat="59.0818553232" lon="30.0106160715"><ele>88.58</ele><time>2026-04-25T11:11:19Z</time></trkpt><trkpt lat="59.0818569157" lon="30.0106136408"><ele>94.07</ele><time>2026-04-25T11:11:20Z</time></trkpt><trkpt lat="59.0818631183" lon="30.0106152333"><ele>93.61</ele><time>2026-04-25T11:11:25Z</time></trkpt><trkpt lat="59.0818639565" lon="30.0106167421"><ele>94.99</ele><time>2026-04-25T11:11:28Z</time></trkpt><trkpt lat="59.0818577539" lon="30.0106283929"><ele>89.91</ele><time>2026-04-25T11:11:34Z</time></trkpt><trkpt lat="59.0818568319" lon="30.0106280576"><ele>95.25</ele><time>2026-04-25T11:11:35Z</time></trkpt><trkpt lat="59.0818493720" lon="30.0105680432"><ele>94.74</ele><time>2026-04-25T11:11:58Z</time></trkpt><trkpt lat="59.0818714164" lon="30.0106858928"><ele>92.19</ele><time>2026-04-25T11:12:28Z</time></trkpt><trkpt lat="59.0818665549" lon="30.0106922630"><ele>92.24</ele><time>2026-04-25T11:12:35Z</time></trkpt><trkpt lat="59.0818870906" lon="30.0106775947"><ele>91.99</ele><time>2026-04-25T11:12:41Z</time></trkpt><trkpt lat="59.0818904433" lon="30.0106977113"><ele>91.34</ele><time>2026-04-25T11:13:04Z</time></trkpt><trkpt lat="59.0818911977" lon="30.0107076019"><ele>92.01</ele><time>2026-04-25T11:13:13Z</time></trkpt><trkpt lat="59.0819023456" lon="30.0106980465"><ele>93.92</ele><time>2026-04-25T11:13:19Z</time></trkpt><trkpt lat="59.0819170978" lon="30.0107086077"><ele>92.43</ele><time>2026-04-25T11:13:26Z</time></trkpt><trkpt lat="59.0819190256" lon="30.0107050035"><ele>92.70</ele><time>2026-04-25T11:13:32Z</time></trkpt><trkpt lat="59.0818878449" lon="30.0106874853"><ele>92.24</ele><time>2026-04-25T11:13:53Z</time></trkpt><trkpt lat="59.0818350390" lon="30.0106720626"><ele>92.49</ele><time>2026-04-25T11:14:10Z</time></trkpt><trkpt lat="59.0817660559" lon="30.0106555503"><ele>93.79</ele><time>2026-04-25T11:14:27Z</time></trkpt><trkpt lat="59.0816421714" lon="30.0106728170"><ele>95.89</ele><time>2026-04-25T11:14:46Z</time></trkpt><trkpt lat="59.0815453604" lon="30.0106894970"><ele>97.28</ele><time>2026-04-25T11:15:06Z</time></trkpt><trkpt lat="59.0814814903" lon="30.0106332544"><ele>97.53</ele><time>2026-04-25T11:15:38Z</time></trkpt><trkpt lat="59.0814762097" lon="30.0106140599"><ele>95.12</ele><time>2026-04-25T11:15:40Z</time></trkpt><trkpt lat="59.0814695880" lon="30.0106049236"><ele>98.79</ele><time>2026-04-25T11:15:50Z</time></trkpt><trkpt lat="59.0814660676" lon="30.0106023252"><ele>98.96</ele><time>2026-04-25T11:15:51Z</time></trkpt><trkpt lat="59.0814529918" lon="30.0106697995"><ele>101.98</ele><time>2026-04-25T11:16:15Z</time></trkpt><trkpt lat="59.0814636368" lon="30.0106433127"><ele>102.17</ele><time>2026-04-25T11:16:19Z</time></trkpt><trkpt lat="59.0815555863" lon="30.0106492639"><ele>103.16</ele><time>2026-04-25T11:16:47Z</time></trkpt><trkpt lat="59.0815575141" lon="30.0106312428"><ele>104.59</ele><time>2026-04-25T11:17:08Z</time></trkpt><trkpt lat="59.0815555863" lon="30.0106190890"><ele>106.41</ele><time>2026-04-25T11:17:17Z</time></trkpt><trkpt lat="59.0815482102" lon="30.0106651895"><ele>106.06</ele><time>2026-04-25T11:17:30Z</time></trkpt><trkpt lat="59.0815463662" lon="30.0106690452"><ele>105.94</ele><time>2026-04-25T11:17:40Z</time></trkpt><trkpt lat="59.0815364756" lon="30.0107030757"><ele>107.73</ele><time>2026-04-25T11:17:43Z</time></trkpt><trkpt lat="59.0815007687" lon="30.0107084401"><ele>107.96</ele><time>2026-04-25T11:18:15Z</time></trkpt><trkpt lat="59.0815135092" lon="30.0107323285"><ele>107.21</ele><time>2026-04-25T11:18:19Z</time></trkpt><trkpt lat="59.0815114975" lon="30.0108635053"><ele>106.12</ele><time>2026-04-25T11:18:48Z</time></trkpt><trkpt lat="59.0815211367" lon="30.0108199194"><ele>107.31</ele><time>2026-04-25T11:19:18Z</time></trkpt><trkpt lat="59.0815506410" lon="30.0107956119"><ele>110.24</ele><time>2026-04-25T11:19:48Z</time></trkpt><trkpt lat="59.0815198794" lon="30.0108086877"><ele>110.72</ele><time>2026-04-25T11:20:17Z</time></trkpt><trkpt lat="59.0815140959" lon="30.0108013116"><ele>113.12</ele><time>2026-04-25T11:20:21Z</time></trkpt><trkpt lat="59.0815171972" lon="30.0107418001"><ele>114.78</ele><time>2026-04-25T11:20:29Z</time></trkpt><trkpt lat="59.0814483818" lon="30.0106931012"><ele>116.32</ele><time>2026-04-25T11:20:47Z</time></trkpt><trkpt lat="59.0814320371" lon="30.0106402114"><ele>117.08</ele><time>2026-04-25T11:20:53Z</time></trkpt><trkpt lat="59.0814099088" lon="30.0105993915"><ele>116.83</ele><time>2026-04-25T11:20:59Z</time></trkpt><trkpt lat="59.0814105794" lon="30.0103830546"><ele>115.26</ele><time>2026-04-25T11:21:17Z</time></trkpt><trkpt lat="59.0814251639" lon="30.0102466810"><ele>116.51</ele><time>2026-04-25T11:21:36Z</time></trkpt><trkpt lat="59.0814280137" lon="30.0101805478"><ele>117.64</ele><time>2026-04-25T11:21:49Z</time></trkpt><trkpt lat="59.0814332105" lon="30.0101174321"><ele>117.94</ele><time>2026-04-25T11:22:06Z</time></trkpt><trkpt lat="59.0814404190" lon="30.0100897718"><ele>118.53</ele><time>2026-04-25T11:22:14Z</time></trkpt><trkpt lat="59.0814296901" lon="30.0100101437"><ele>117.52</ele><time>2026-04-25T11:22:19Z</time></trkpt><trkpt lat="59.0814400837" lon="30.0098055415"><ele>117.87</ele><time>2026-04-25T11:22:38Z</time></trkpt><trkpt lat="59.0814385749" lon="30.0096508954"><ele>120.17</ele><time>2026-04-25T11:22:57Z</time></trkpt><trkpt lat="59.0814634692" lon="30.0095094088"><ele>120.20</ele><time>2026-04-25T11:23:11Z</time></trkpt><trkpt lat="59.0814575180" lon="30.0093008671"><ele>120.41</ele><time>2026-04-25T11:23:27Z</time></trkpt><trkpt lat="59.0814677440" lon="30.0092421100"><ele>117.17</ele><time>2026-04-25T11:23:39Z</time></trkpt><trkpt lat="59.0814628825" lon="30.0092123542"><ele>120.44</ele><time>2026-04-25T11:23:42Z</time></trkpt><trkpt lat="59.0814249963" lon="30.0089942571"><ele>118.05</ele><time>2026-04-25T11:23:58Z</time></trkpt><trkpt lat="59.0814232361" lon="30.0087516010"><ele>118.62</ele><time>2026-04-25T11:24:17Z</time></trkpt><trkpt lat="59.0813972522" lon="30.0085915066"><ele>118.42</ele><time>2026-04-25T11:24:28Z</time></trkpt><trkpt lat="59.0813786443" lon="30.0085154828"><ele>121.54</ele><time>2026-04-25T11:24:48Z</time></trkpt><trkpt lat="59.0813809074" lon="30.0084475055"><ele>122.26</ele><time>2026-04-25T11:25:17Z</time></trkpt><trkpt lat="59.0813672449" lon="30.0084423926"><ele>123.59</ele><time>2026-04-25T11:25:26Z</time></trkpt><trkpt lat="59.0813069791" lon="30.0085322466"><ele>124.77</ele><time>2026-04-25T11:25:43Z</time></trkpt><trkpt lat="59.0812581126" lon="30.0085689593"><ele>125.78</ele><time>2026-04-25T11:25:49Z</time></trkpt><trkpt lat="59.0811939910" lon="30.0087260362"><ele>125.61</ele><time>2026-04-25T11:26:03Z</time></trkpt><trkpt lat="59.0811814182" lon="30.0087892357"><ele>127.83</ele><time>2026-04-25T11:26:08Z</time></trkpt><trkpt lat="59.0811016224" lon="30.0087891519"><ele>129.30</ele><time>2026-04-25T11:26:24Z</time></trkpt><trkpt lat="59.0809743013" lon="30.0088627450"><ele>131.00</ele><time>2026-04-25T11:26:40Z</time></trkpt><trkpt lat="59.0809433721" lon="30.0088776648"><ele>134.24</ele><time>2026-04-25T11:27:02Z</time></trkpt><trkpt lat="59.0809624828" lon="30.0088588893"><ele>135.21</ele><time>2026-04-25T11:27:49Z</time></trkpt><trkpt lat="59.0809323080" lon="30.0089251902"><ele>131.51</ele><time>2026-04-25T11:28:19Z</time></trkpt><trkpt lat="59.0809297934" lon="30.0089230109"><ele>131.48</ele><time>2026-04-25T11:28:20Z</time></trkpt><trkpt lat="59.0809276979" lon="30.0089305546"><ele>128.20</ele><time>2026-04-25T11:28:25Z</time></trkpt><trkpt lat="59.0809292067" lon="30.0089318957"><ele>128.48</ele><time>2026-04-25T11:28:26Z</time></trkpt><trkpt lat="59.0809264407" lon="30.0089051574"><ele>130.99</ele><time>2026-04-25T11:28:34Z</time></trkpt><trkpt lat="59.0809092578" lon="30.0088894833"><ele>130.16</ele><time>2026-04-25T11:28:49Z</time></trkpt><trkpt lat="59.0809074137" lon="30.0089328177"><ele>130.29</ele><time>2026-04-25T11:29:11Z</time></trkpt><trkpt lat="59.0809209924" lon="30.0090857036"><ele>129.82</ele><time>2026-04-25T11:29:26Z</time></trkpt><trkpt lat="59.0809200704" lon="30.0092074927"><ele>131.73</ele><time>2026-04-25T11:29:44Z</time></trkpt><trkpt lat="59.0809096768" lon="30.0092354883"><ele>132.25</ele><time>2026-04-25T11:29:49Z</time></trkpt><trkpt lat="59.0808678512" lon="30.0092978496"><ele>131.45</ele><time>2026-04-25T11:29:56Z</time></trkpt><trkpt lat="59.0808101837" lon="30.0093994383"><ele>127.99</ele><time>2026-04-25T11:30:10Z</time></trkpt><trkpt lat="59.0808006283" lon="30.0094278529"><ele>129.82</ele><time>2026-04-25T11:30:22Z</time></trkpt><trkpt lat="59.0807625744" lon="30.0095672440"><ele>129.26</ele><time>2026-04-25T11:30:39Z</time></trkpt><trkpt lat="59.0807178989" lon="30.0096942298"><ele>128.31</ele><time>2026-04-25T11:30:54Z</time></trkpt><trkpt lat="59.0807188209" lon="30.0097700860"><ele>123.31</ele><time>2026-04-25T11:31:05Z</time></trkpt><trkpt lat="59.0807220060" lon="30.0097728521"><ele>127.04</ele><time>2026-04-25T11:31:06Z</time></trkpt><trkpt lat="59.0807479899" lon="30.0098228920"><ele>126.68</ele><time>2026-04-25T11:31:13Z</time></trkpt><trkpt lat="59.0807929169" lon="30.0099523924"><ele>123.61</ele><time>2026-04-25T11:31:34Z</time></trkpt><trkpt lat="59.0808127820" lon="30.0099735148"><ele>123.67</ele><time>2026-04-25T11:31:39Z</time></trkpt><trkpt lat="59.0808094293" lon="30.0100208726"><ele>122.44</ele><time>2026-04-25T11:31:44Z</time></trkpt><trkpt lat="59.0808157995" lon="30.0101281609"><ele>121.81</ele><time>2026-04-25T11:31:58Z</time></trkpt><trkpt lat="59.0808154643" lon="30.0101395603"><ele>119.77</ele><time>2026-04-25T11:31:59Z</time></trkpt><trkpt lat="59.0808089264" lon="30.0101732556"><ele>123.58</ele><time>2026-04-25T11:32:01Z</time></trkpt><trkpt lat="59.0807442181" lon="30.0102454238"><ele>121.50</ele><time>2026-04-25T11:32:29Z</time></trkpt><trkpt lat="59.0807963535" lon="30.0104093738"><ele>120.47</ele><time>2026-04-25T11:32:49Z</time></trkpt><trkpt lat="59.0808371734" lon="30.0104941987"><ele>115.73</ele><time>2026-04-25T11:33:00Z</time></trkpt><trkpt lat="59.0808407776" lon="30.0105010718"><ele>119.06</ele><time>2026-04-25T11:33:03Z</time></trkpt><trkpt lat="59.0809308831" lon="30.0107249524"><ele>119.23</ele><time>2026-04-25T11:33:23Z</time></trkpt><trkpt lat="59.0809277818" lon="30.0108084362"><ele>121.42</ele><time>2026-04-25T11:33:30Z</time></trkpt><trkpt lat="59.0808873810" lon="30.0108013954"><ele>121.23</ele><time>2026-04-25T11:33:41Z</time></trkpt><trkpt lat="59.0808270313" lon="30.0108295586"><ele>121.35</ele><time>2026-04-25T11:33:47Z</time></trkpt><trkpt lat="59.0808295459" lon="30.0108374376"><ele>122.46</ele><time>2026-04-25T11:34:13Z</time></trkpt><trkpt lat="59.0808457229" lon="30.0107885711"><ele>121.95</ele><time>2026-04-25T11:34:41Z</time></trkpt><trkpt lat="59.0808244329" lon="30.0107505172"><ele>119.28</ele><time>2026-04-25T11:34:52Z</time></trkpt><trkpt lat="59.0808102675" lon="30.0107770041"><ele>119.16</ele><time>2026-04-25T11:35:23Z</time></trkpt><trkpt lat="59.0807955991" lon="30.0107892416"><ele>119.16</ele><time>2026-04-25T11:35:27Z</time></trkpt><trkpt lat="59.0807779972" lon="30.0108992960"><ele>118.29</ele><time>2026-04-25T11:35:43Z</time></trkpt><trkpt lat="59.0807668492" lon="30.0108914170"><ele>114.24</ele><time>2026-04-25T11:35:49Z</time></trkpt><trkpt lat="59.0807651728" lon="30.0108904950"><ele>114.21</ele><time>2026-04-25T11:35:50Z</time></trkpt><trkpt lat="59.0806790907" lon="30.0109481625"><ele>113.89</ele><time>2026-04-25T11:36:06Z</time></trkpt><trkpt lat="59.0806153044" lon="30.0109683629"><ele>115.05</ele><time>2026-04-25T11:36:16Z</time></trkpt><trkpt lat="59.0804993827" lon="30.0110110268"><ele>116.25</ele><time>2026-04-25T11:36:38Z</time></trkpt><trkpt lat="59.0804369375" lon="30.0110772438"><ele>117.07</ele><time>2026-04-25T11:36:55Z</time></trkpt><trkpt lat="59.0804357640" lon="30.0110803451"><ele>117.68</ele><time>2026-04-25T11:37:14Z</time></trkpt><trkpt lat="59.0804549586" lon="30.0110588036"><ele>117.15</ele><time>2026-04-25T11:37:30Z</time></trkpt><trkpt lat="59.0804258734" lon="30.0110408664"><ele>116.22</ele><time>2026-04-25T11:38:03Z</time></trkpt><trkpt lat="59.0804402903" lon="30.0109588075"><ele>111.51</ele><time>2026-04-25T11:38:11Z</time></trkpt><trkpt lat="59.0804386977" lon="30.0109401997"><ele>113.67</ele><time>2026-04-25T11:38:12Z</time></trkpt><trkpt lat="59.0804323275" lon="30.0109147187"><ele>113.58</ele><time>2026-04-25T11:38:14Z</time></trkpt><trkpt lat="59.0804375242" lon="30.0109104440"><ele>115.47</ele><time>2026-04-25T11:38:16Z</time></trkpt><trkpt lat="59.0804039128" lon="30.0108186621"><ele>115.19</ele><time>2026-04-25T11:38:36Z</time></trkpt><trkpt lat="59.0804066788" lon="30.0106368586"><ele>115.65</ele><time>2026-04-25T11:38:53Z</time></trkpt><trkpt lat="59.0804154798" lon="30.0104085356"><ele>116.55</ele><time>2026-04-25T11:39:09Z</time></trkpt><trkpt lat="59.0803681221" lon="30.0103389658"><ele>116.97</ele><time>2026-04-25T11:39:19Z</time></trkpt><trkpt lat="59.0803333372" lon="30.0101864990"><ele>117.65</ele><time>2026-04-25T11:39:39Z</time></trkpt><trkpt lat="59.0803326666" lon="30.0098712556"><ele>117.98</ele><time>2026-04-25T11:39:56Z</time></trkpt><trkpt lat="59.0802993905" lon="30.0096859317"><ele>120.63</ele><time>2026-04-25T11:40:14Z</time></trkpt><trkpt lat="59.0802269708" lon="30.0097619556"><ele>121.26</ele><time>2026-04-25T11:40:32Z</time></trkpt><trkpt lat="59.0801914316" lon="30.0097156875"><ele>122.99</ele><time>2026-04-25T11:40:51Z</time></trkpt><trkpt lat="59.0802096203" lon="30.0095031224"><ele>124.14</ele><time>2026-04-25T11:41:07Z</time></trkpt><trkpt lat="59.0802180022" lon="30.0093193911"><ele>125.79</ele><time>2026-04-25T11:41:24Z</time></trkpt><trkpt lat="59.0802072734" lon="30.0092004519"><ele>120.90</ele><time>2026-04-25T11:41:41Z</time></trkpt><trkpt lat="59.0802052617" lon="30.0091979373"><ele>124.34</ele><time>2026-04-25T11:41:42Z</time></trkpt><trkpt lat="59.0802040044" lon="30.0091913156"><ele>127.41</ele><time>2026-04-25T11:41:43Z</time></trkpt><trkpt lat="59.0802025795" lon="30.0091883820"><ele>127.44</ele><time>2026-04-25T11:41:44Z</time></trkpt><trkpt lat="59.0802007355" lon="30.0091813412"><ele>123.69</ele><time>2026-04-25T11:41:46Z</time></trkpt><trkpt lat="59.0802021604" lon="30.0091786589"><ele>126.72</ele><time>2026-04-25T11:41:47Z</time></trkpt><trkpt lat="59.0802051779" lon="30.0091680977"><ele>127.44</ele><time>2026-04-25T11:41:49Z</time></trkpt><trkpt lat="59.0801921859" lon="30.0090947561"><ele>129.35</ele><time>2026-04-25T11:42:07Z</time></trkpt><trkpt lat="59.0801413916" lon="30.0090342388"><ele>130.38</ele><time>2026-04-25T11:42:29Z</time></trkpt><trkpt lat="59.0801325906" lon="30.0090449676"><ele>130.83</ele><time>2026-04-25T11:42:54Z</time></trkpt><trkpt lat="59.0801456664" lon="30.0090551097"><ele>130.09</ele><time>2026-04-25T11:43:27Z</time></trkpt><trkpt lat="59.0801230352" lon="30.0091189798"><ele>130.39</ele><time>2026-04-25T11:43:57Z</time></trkpt><trkpt lat="59.0801254660" lon="30.0091171358"><ele>125.56</ele><time>2026-04-25T11:43:59Z</time></trkpt><trkpt lat="59.0801267233" lon="30.0091148727"><ele>127.67</ele><time>2026-04-25T11:44:00Z</time></trkpt><trkpt lat="59.0801308304" lon="30.0091090892"><ele>128.47</ele><time>2026-04-25T11:44:02Z</time></trkpt><trkpt lat="59.0801310819" lon="30.0090754777"><ele>130.11</ele><time>2026-04-25T11:44:14Z</time></trkpt><trkpt lat="59.0801299084" lon="30.0090582110"><ele>124.99</ele><time>2026-04-25T11:44:21Z</time></trkpt><trkpt lat="59.0801294055" lon="30.0090567861"><ele>129.05</ele><time>2026-04-25T11:44:22Z</time></trkpt><trkpt lat="59.0801298246" lon="30.0090560317"><ele>124.19</ele><time>2026-04-25T11:44:24Z</time></trkpt><trkpt lat="59.0801285673" lon="30.0090530980"><ele>127.84</ele><time>2026-04-25T11:44:25Z</time></trkpt><trkpt lat="59.0801265556" lon="30.0090509187"><ele>129.87</ele><time>2026-04-25T11:44:27Z</time></trkpt><trkpt lat="59.0801196825" lon="30.0090515055"><ele>132.10</ele><time>2026-04-25T11:44:34Z</time></trkpt><trkpt lat="59.0801283158" lon="30.0090667605"><ele>131.02</ele><time>2026-04-25T11:44:51Z</time></trkpt><trkpt lat="59.0801822115" lon="30.0090260245"><ele>129.13</ele><time>2026-04-25T11:45:30Z</time></trkpt><trkpt lat="59.0801555570" lon="30.0090860389"><ele>126.08</ele><time>2026-04-25T11:45:44Z</time></trkpt><trkpt lat="59.0801686328" lon="30.0090762321"><ele>126.14</ele><time>2026-04-25T11:45:50Z</time></trkpt><trkpt lat="59.0801869892" lon="30.0090633240"><ele>124.68</ele><time>2026-04-25T11:45:54Z</time></trkpt><trkpt lat="59.0801948681" lon="30.0090833567"><ele>126.01</ele><time>2026-04-25T11:45:57Z</time></trkpt><trkpt lat="59.0801909287" lon="30.0090898108"><ele>124.53</ele><time>2026-04-25T11:45:59Z</time></trkpt><trkpt lat="59.0802047588" lon="30.0090999529"><ele>125.14</ele><time>2026-04-25T11:46:03Z</time></trkpt><trkpt lat="59.0801397990" lon="30.0092154555"><ele>122.99</ele><time>2026-04-25T11:46:24Z</time></trkpt><trkpt lat="59.0800892562" lon="30.0091457181"><ele>122.20</ele><time>2026-04-25T11:46:45Z</time></trkpt><trkpt lat="59.0799853206" lon="30.0091104303"><ele>122.10</ele><time>2026-04-25T11:47:05Z</time></trkpt><trkpt lat="59.0799030941" lon="30.0091180578"><ele>121.94</ele><time>2026-04-25T11:47:26Z</time></trkpt><trkpt lat="59.0798600111" lon="30.0092047267"><ele>121.59</ele><time>2026-04-25T11:47:46Z</time></trkpt><trkpt lat="59.0798394755" lon="30.0093620550"><ele>122.08</ele><time>2026-04-25T11:47:58Z</time></trkpt><trkpt lat="59.0797872562" lon="30.0094418507"><ele>121.84</ele><time>2026-04-25T11:48:11Z</time></trkpt><trkpt lat="59.0797597636" lon="30.0094941538"><ele>121.93</ele><time>2026-04-25T11:48:26Z</time></trkpt><trkpt lat="59.0797124058" lon="30.0094558485"><ele>121.99</ele><time>2026-04-25T11:48:46Z</time></trkpt><trkpt lat="59.0797328576" lon="30.0094321277"><ele>121.73</ele><time>2026-04-25T11:49:09Z</time></trkpt><trkpt lat="59.0797283314" lon="30.0094708521"><ele>121.24</ele><time>2026-04-25T11:49:36Z</time></trkpt><trkpt lat="59.0797292534" lon="30.0095653161"><ele>117.37</ele><time>2026-04-25T11:50:00Z</time></trkpt><trkpt lat="59.0797338635" lon="30.0095660705"><ele>118.01</ele><time>2026-04-25T11:50:01Z</time></trkpt><trkpt lat="59.0797410719" lon="30.0095698424"><ele>121.04</ele><time>2026-04-25T11:50:03Z</time></trkpt><trkpt lat="59.0797458496" lon="30.0095786434"><ele>121.25</ele><time>2026-04-25T11:50:04Z</time></trkpt><trkpt lat="59.0797778685" lon="30.0097726006"><ele>121.50</ele><time>2026-04-25T11:50:24Z</time></trkpt><trkpt lat="59.0797957219" lon="30.0099000894"><ele>121.44</ele><time>2026-04-25T11:50:42Z</time></trkpt><trkpt lat="59.0797754377" lon="30.0100750197"><ele>121.69</ele><time>2026-04-25T11:51:02Z</time></trkpt><trkpt lat="59.0797647927" lon="30.0101160910"><ele>121.28</ele><time>2026-04-25T11:51:06Z</time></trkpt><trkpt lat="59.0797190275" lon="30.0102647021"><ele>120.50</ele><time>2026-04-25T11:51:27Z</time></trkpt><trkpt lat="59.0798051935" lon="30.0104267243"><ele>120.74</ele><time>2026-04-25T11:51:47Z</time></trkpt><trkpt lat="59.0798134916" lon="30.0106034148"><ele>120.51</ele><time>2026-04-25T11:52:05Z</time></trkpt><trkpt lat="59.0798780322" lon="30.0108411256"><ele>120.90</ele><time>2026-04-25T11:52:25Z</time></trkpt><trkpt lat="59.0798833966" lon="30.0111529324"><ele>121.53</ele><time>2026-04-25T11:52:45Z</time></trkpt><trkpt lat="59.0799470153" lon="30.0112935808"><ele>121.47</ele><time>2026-04-25T11:53:04Z</time></trkpt><trkpt lat="59.0799121466" lon="30.0113374181"><ele>122.29</ele><time>2026-04-25T11:53:24Z</time></trkpt><trkpt lat="59.0799248870" lon="30.0113065727"><ele>122.00</ele><time>2026-04-25T11:53:34Z</time></trkpt><trkpt lat="59.0799408127" lon="30.0113469735"><ele>121.68</ele><time>2026-04-25T11:54:03Z</time></trkpt><trkpt lat="59.0799306706" lon="30.0113652460"><ele>119.50</ele><time>2026-04-25T11:54:21Z</time></trkpt><trkpt lat="59.0799086262" lon="30.0114000309"><ele>119.20</ele><time>2026-04-25T11:54:38Z</time></trkpt><trkpt lat="59.0798301715" lon="30.0115928147"><ele>118.25</ele><time>2026-04-25T11:54:58Z</time></trkpt><trkpt lat="59.0797870047" lon="30.0117210578"><ele>118.12</ele><time>2026-04-25T11:55:13Z</time></trkpt><trkpt lat="59.0797207877" lon="30.0116472971"><ele>117.43</ele><time>2026-04-25T11:55:30Z</time></trkpt><trkpt lat="59.0797182731" lon="30.0116291083"><ele>117.25</ele><time>2026-04-25T11:55:32Z</time></trkpt><trkpt lat="59.0796886850" lon="30.0115477201"><ele>117.18</ele><time>2026-04-25T11:55:37Z</time></trkpt><trkpt lat="59.0795715060" lon="30.0115687586"><ele>116.45</ele><time>2026-04-25T11:55:57Z</time></trkpt><trkpt lat="59.0794248227" lon="30.0116021186"><ele>115.55</ele><time>2026-04-25T11:56:17Z</time></trkpt><trkpt lat="59.0794014372" lon="30.0116173737"><ele>115.82</ele><time>2026-04-25T11:56:23Z</time></trkpt><trkpt lat="59.0793876071" lon="30.0116110872"><ele>113.93</ele><time>2026-04-25T11:56:26Z</time></trkpt><trkpt lat="59.0793586895" lon="30.0116091594"><ele>113.36</ele><time>2026-04-25T11:56:48Z</time></trkpt><trkpt lat="59.0793388244" lon="30.0115040503"><ele>112.20</ele><time>2026-04-25T11:57:15Z</time></trkpt><trkpt lat="59.0793128405" lon="30.0113461353"><ele>111.60</ele><time>2026-04-25T11:57:36Z</time></trkpt><trkpt lat="59.0792973340" lon="30.0113388430"><ele>111.88</ele><time>2026-04-25T11:57:43Z</time></trkpt><trkpt lat="59.0793098230" lon="30.0111277029"><ele>110.54</ele><time>2026-04-25T11:58:03Z</time></trkpt><trkpt lat="59.0793491341" lon="30.0108393654"><ele>111.22</ele><time>2026-04-25T11:58:25Z</time></trkpt><trkpt lat="59.0793428477" lon="30.0107727293"><ele>110.97</ele><time>2026-04-25T11:58:30Z</time></trkpt><trkpt lat="59.0793231502" lon="30.0104491878"><ele>111.49</ele><time>2026-04-25T11:58:50Z</time></trkpt><trkpt lat="59.0792333800" lon="30.0101087149"><ele>111.56</ele><time>2026-04-25T11:59:11Z</time></trkpt><trkpt lat="59.0791566018" lon="30.0098592695"><ele>111.68</ele><time>2026-04-25T11:59:30Z</time></trkpt><trkpt lat="59.0791450348" lon="30.0098426733"><ele>111.86</ele><time>2026-04-25T11:59:35Z</time></trkpt><trkpt lat="59.0791788977" lon="30.0097783003"><ele>111.25</ele><time>2026-04-25T11:59:54Z</time></trkpt><trkpt lat="59.0791802388" lon="30.0097777136"><ele>108.15</ele><time>2026-04-25T12:00:19Z</time></trkpt><trkpt lat="59.0792104974" lon="30.0097428448"><ele>106.24</ele><time>2026-04-25T12:00:28Z</time></trkpt><trkpt lat="59.0792504791" lon="30.0097787194"><ele>106.04</ele><time>2026-04-25T12:00:45Z</time></trkpt><trkpt lat="59.0792649798" lon="30.0098166056"><ele>103.02</ele><time>2026-04-25T12:01:00Z</time></trkpt><trkpt lat="59.0792508144" lon="30.0098208804"><ele>100.55</ele><time>2026-04-25T12:01:02Z</time></trkpt><trkpt lat="59.0792371519" lon="30.0097949803"><ele>103.67</ele><time>2026-04-25T12:01:06Z</time></trkpt><trkpt lat="59.0791609604" lon="30.0097551662"><ele>100.64</ele><time>2026-04-25T12:01:18Z</time></trkpt><trkpt lat="59.0791363176" lon="30.0098169409"><ele>99.44</ele><time>2026-04-25T12:01:27Z</time></trkpt><trkpt lat="59.0791015327" lon="30.0098320283"><ele>100.10</ele><time>2026-04-25T12:01:32Z</time></trkpt><trkpt lat="59.0790830925" lon="30.0098235626"><ele>99.10</ele><time>2026-04-25T12:01:35Z</time></trkpt><trkpt lat="59.0790343937" lon="30.0098602753"><ele>97.13</ele><time>2026-04-25T12:01:39Z</time></trkpt><trkpt lat="59.0789753851" lon="30.0100528914"><ele>97.78</ele><time>2026-04-25T12:01:55Z</time></trkpt><trkpt lat="59.0789691824" lon="30.0100618601"><ele>96.63</ele><time>2026-04-25T12:01:57Z</time></trkpt><trkpt lat="59.0789516643" lon="30.0100755226"><ele>92.81</ele><time>2026-04-25T12:02:00Z</time></trkpt><trkpt lat="59.0789468866" lon="30.0100827310"><ele>93.10</ele><time>2026-04-25T12:02:01Z</time></trkpt><trkpt lat="59.0789270215" lon="30.0101164263"><ele>91.91</ele><time>2026-04-25T12:02:29Z</time></trkpt><trkpt lat="59.0789198969" lon="30.0100603513"><ele>89.86</ele><time>2026-04-25T12:02:53Z</time></trkpt><trkpt lat="59.0788786579" lon="30.0100263208"><ele>88.31</ele><time>2026-04-25T12:03:03Z</time></trkpt><trkpt lat="59.0787771530" lon="30.0099217985"><ele>87.78</ele><time>2026-04-25T12:03:17Z</time></trkpt><trkpt lat="59.0787440445" lon="30.0098973233"><ele>81.72</ele><time>2026-04-25T12:03:21Z</time></trkpt><trkpt lat="59.0787375066" lon="30.0098894443"><ele>82.53</ele><time>2026-04-25T12:03:22Z</time></trkpt><trkpt lat="59.0787220839" lon="30.0098853372"><ele>86.56</ele><time>2026-04-25T12:03:27Z</time></trkpt><trkpt lat="59.0787049849" lon="30.0099026039"><ele>87.78</ele><time>2026-04-25T12:03:31Z</time></trkpt><trkpt lat="59.0786307212" lon="30.0099686533"><ele>85.95</ele><time>2026-04-25T12:03:49Z</time></trkpt><trkpt lat="59.0787133668" lon="30.0102377962"><ele>84.28</ele><time>2026-04-25T12:04:12Z</time></trkpt><trkpt lat="59.0787302144" lon="30.0105377007"><ele>84.79</ele><time>2026-04-25T12:04:31Z</time></trkpt><trkpt lat="59.0787473973" lon="30.0107760821"><ele>84.81</ele><time>2026-04-25T12:04:49Z</time></trkpt><trkpt lat="59.0788404364" lon="30.0110222585"><ele>85.25</ele><time>2026-04-25T12:05:08Z</time></trkpt><trkpt lat="59.0789127722" lon="30.0112633221"><ele>85.36</ele><time>2026-04-25T12:05:28Z</time></trkpt><trkpt lat="59.0789680090" lon="30.0115145277"><ele>84.66</ele><time>2026-04-25T12:05:47Z</time></trkpt><trkpt lat="59.0790427756" lon="30.0117913820"><ele>85.55</ele><time>2026-04-25T12:06:05Z</time></trkpt><trkpt lat="59.0789749660" lon="30.0119848363"><ele>85.75</ele><time>2026-04-25T12:06:25Z</time></trkpt><trkpt lat="59.0790094156" lon="30.0121096428"><ele>86.48</ele><time>2026-04-25T12:06:55Z</time></trkpt><trkpt lat="59.0790608805" lon="30.0120031089"><ele>86.82</ele><time>2026-04-25T12:07:24Z</time></trkpt><trkpt lat="59.0790290292" lon="30.0120079704"><ele>85.72</ele><time>2026-04-25T12:07:36Z</time></trkpt><trkpt lat="59.0789790731" lon="30.0120474491"><ele>86.85</ele><time>2026-04-25T12:07:48Z</time></trkpt><trkpt lat="59.0789675899" lon="30.0119605288"><ele>87.52</ele><time>2026-04-25T12:08:11Z</time></trkpt><trkpt lat="59.0789722838" lon="30.0119388197"><ele>87.41</ele><time>2026-04-25T12:08:41Z</time></trkpt><trkpt lat="59.0789742116" lon="30.0119587686"><ele>85.71</ele><time>2026-04-25T12:08:48Z</time></trkpt><trkpt lat="59.0789442882" lon="30.0119669829"><ele>86.39</ele><time>2026-04-25T12:09:06Z</time></trkpt><trkpt lat="59.0789991058" lon="30.0119099021"><ele>87.43</ele><time>2026-04-25T12:09:37Z</time></trkpt><trkpt lat="59.0789701883" lon="30.0120275840"><ele>87.08</ele><time>2026-04-25T12:10:02Z</time></trkpt><trkpt lat="59.0789720323" lon="30.0121422485"><ele>85.00</ele><time>2026-04-25T12:10:26Z</time></trkpt><trkpt lat="59.0789701883" lon="30.0121463556"><ele>90.49</ele><time>2026-04-25T12:10:28Z</time></trkpt><trkpt lat="59.0789696854" lon="30.0121445954"><ele>90.64</ele><time>2026-04-25T12:10:29Z</time></trkpt><trkpt lat="59.0788988583" lon="30.0122515485"><ele>90.84</ele><time>2026-04-25T12:11:01Z</time></trkpt><trkpt lat="59.0789022949" lon="30.0122560747"><ele>90.76</ele><time>2026-04-25T12:11:04Z</time></trkpt><trkpt lat="59.0789127722" lon="30.0121876784"><ele>93.67</ele><time>2026-04-25T12:11:28Z</time></trkpt><trkpt lat="59.0789396781" lon="30.0121909473"><ele>92.78</ele><time>2026-04-25T12:11:53Z</time></trkpt><trkpt lat="59.0788194817" lon="30.0123083778"><ele>91.91</ele><time>2026-04-25T12:12:23Z</time></trkpt><trkpt lat="59.0787836071" lon="30.0122687314"><ele>90.89</ele><time>2026-04-25T12:12:33Z</time></trkpt><trkpt lat="59.0789224114" lon="30.0122710783"><ele>90.01</ele><time>2026-04-25T12:13:00Z</time></trkpt><trkpt lat="59.0789317992" lon="30.0122719165"><ele>89.34</ele><time>2026-04-25T12:13:02Z</time></trkpt><trkpt lat="59.0789782349" lon="30.0122868363"><ele>88.34</ele><time>2026-04-25T12:13:09Z</time></trkpt><trkpt lat="59.0789823420" lon="30.0122806337"><ele>89.28</ele><time>2026-04-25T12:13:15Z</time></trkpt><trkpt lat="59.0789960884" lon="30.0122865848"><ele>88.70</ele><time>2026-04-25T12:13:24Z</time></trkpt><trkpt lat="59.0789975133" lon="30.0120899454"><ele>87.01</ele><time>2026-04-25T12:13:55Z</time></trkpt><trkpt lat="59.0789876226" lon="30.0120778754"><ele>85.51</ele><time>2026-04-25T12:13:58Z</time></trkpt><trkpt lat="59.0789411869" lon="30.0120686553"><ele>85.26</ele><time>2026-04-25T12:14:10Z</time></trkpt><trkpt lat="59.0789306257" lon="30.0120968185"><ele>83.03</ele><time>2026-04-25T12:14:30Z</time></trkpt><trkpt lat="59.0789207350" lon="30.0121083856"><ele>81.00</ele><time>2026-04-25T12:14:33Z</time></trkpt><trkpt lat="59.0789460484" lon="30.0120900292"><ele>84.27</ele><time>2026-04-25T12:14:47Z</time></trkpt><trkpt lat="59.0789773967" lon="30.0120870955"><ele>85.01</ele><time>2026-04-25T12:14:50Z</time></trkpt><trkpt lat="59.0790431947" lon="30.0121961441"><ele>83.27</ele><time>2026-04-25T12:15:09Z</time></trkpt><trkpt lat="59.0790097509" lon="30.0122984033"><ele>68.92</ele><time>2026-04-25T12:15:38Z</time></trkpt><trkpt lat="59.0790161211" lon="30.0122535601"><ele>72.20</ele><time>2026-04-25T12:15:43Z</time></trkpt><trkpt lat="59.0790210664" lon="30.0122434180"><ele>72.20</ele><time>2026-04-25T12:15:44Z</time></trkpt><trkpt lat="59.0790364053" lon="30.0121984910"><ele>67.21</ele><time>2026-04-25T12:15:51Z</time></trkpt><trkpt lat="59.0790257603" lon="30.0121958926"><ele>67.56</ele><time>2026-04-25T12:15:52Z</time></trkpt><trkpt lat="59.0790127683" lon="30.0121988263"><ele>73.07</ele><time>2026-04-25T12:15:59Z</time></trkpt><trkpt lat="59.0790088288" lon="30.0121987425"><ele>78.83</ele><time>2026-04-25T12:16:00Z</time></trkpt><trkpt lat="59.0789990220" lon="30.0122003350"><ele>79.74</ele><time>2026-04-25T12:16:02Z</time></trkpt><trkpt lat="59.0790730342" lon="30.0122222956"><ele>76.94</ele><time>2026-04-25T12:16:46Z</time></trkpt><trkpt lat="59.0790962521" lon="30.0122056156"><ele>76.14</ele><time>2026-04-25T12:17:04Z</time></trkpt><trkpt lat="59.0791490581" lon="30.0121414941"><ele>66.01</ele><time>2026-04-25T12:17:17Z</time></trkpt><trkpt lat="59.0791490581" lon="30.0121414941"><ele>60.20</ele><time>2026-04-25T12:17:18Z</time></trkpt><trkpt lat="59.0791230742" lon="30.0121330284"><ele>61.69</ele><time>2026-04-25T12:17:19Z</time></trkpt><trkpt lat="59.0790976770" lon="30.0121316034"><ele>63.01</ele><time>2026-04-25T12:17:22Z</time></trkpt><trkpt lat="59.0790199768" lon="30.0121224672"><ele>60.56</ele><time>2026-04-25T12:17:55Z</time></trkpt><trkpt lat="59.0789898857" lon="30.0121254846"><ele>63.72</ele><time>2026-04-25T12:18:15Z</time></trkpt><trkpt lat="59.0789888799" lon="30.0121269096"><ele>67.59</ele><time>2026-04-25T12:18:16Z</time></trkpt><trkpt lat="59.0789892152" lon="30.0121270772"><ele>67.83</ele><time>2026-04-25T12:18:17Z</time></trkpt><trkpt lat="59.0789932385" lon="30.0122434180"><ele>67.15</ele><time>2026-04-25T12:18:37Z</time></trkpt><trkpt lat="59.0789488144" lon="30.0122767780"><ele>61.98</ele><time>2026-04-25T12:19:00Z</time></trkpt><trkpt lat="59.0789503232" lon="30.0122733414"><ele>58.65</ele><time>2026-04-25T12:19:01Z</time></trkpt><trkpt lat="59.0789426956" lon="30.0122767780"><ele>57.66</ele><time>2026-04-25T12:19:03Z</time></trkpt><trkpt lat="59.0790022071" lon="30.0122668035"><ele>54.62</ele><time>2026-04-25T12:19:31Z</time></trkpt><trkpt lat="59.0790053923" lon="30.0122793764"><ele>53.09</ele><time>2026-04-25T12:19:50Z</time></trkpt><trkpt lat="59.0790271014" lon="30.0122955535"><ele>56.64</ele><time>2026-04-25T12:20:07Z</time></trkpt><trkpt lat="59.0790347289" lon="30.0122944638"><ele>58.51</ele><time>2026-04-25T12:20:09Z</time></trkpt><trkpt lat="59.0790372435" lon="30.0122501235"><ele>57.00</ele><time>2026-04-25T12:20:40Z</time></trkpt><trkpt lat="59.0790469665" lon="30.0122556556"><ele>55.26</ele><time>2026-04-25T12:21:04Z</time></trkpt><trkpt lat="59.0790473856" lon="30.0122548174"><ele>54.61</ele><time>2026-04-25T12:21:07Z</time></trkpt><trkpt lat="59.0790687595" lon="30.0122814719"><ele>53.48</ele><time>2026-04-25T12:21:31Z</time></trkpt><trkpt lat="59.0789868683" lon="30.0122824777"><ele>50.12</ele><time>2026-04-25T12:21:43Z</time></trkpt><trkpt lat="59.0789898019" lon="30.0122534763"><ele>50.72</ele><time>2026-04-25T12:21:50Z</time></trkpt><trkpt lat="59.0789801627" lon="30.0122469384"><ele>51.52</ele><time>2026-04-25T12:21:52Z</time></trkpt><trkpt lat="59.0789810009" lon="30.0122449268"><ele>51.43</ele><time>2026-04-25T12:21:58Z</time></trkpt><trkpt lat="59.0791736171" lon="30.0121578388"><ele>48.93</ele><time>2026-04-25T12:22:43Z</time></trkpt><trkpt lat="59.0790799074" lon="30.0121388119"><ele>48.61</ele><time>2026-04-25T12:22:55Z</time></trkpt><trkpt lat="59.0790540911" lon="30.0121511333"><ele>46.05</ele><time>2026-04-25T12:23:00Z</time></trkpt><trkpt lat="59.0790435299" lon="30.0121498760"><ele>47.45</ele><time>2026-04-25T12:23:02Z</time></trkpt><trkpt lat="59.0789366607" lon="30.0122657139"><ele>46.25</ele><time>2026-04-25T12:23:35Z</time></trkpt><trkpt lat="59.0790307894" lon="30.0122511294"><ele>45.56</ele><time>2026-04-25T12:23:57Z</time></trkpt><trkpt lat="59.0790044703" lon="30.0123403966"><ele>43.76</ele><time>2026-04-25T12:24:16Z</time></trkpt><trkpt lat="59.0790079907" lon="30.0124079548"><ele>43.05</ele><time>2026-04-25T12:24:51Z</time></trkpt><trkpt lat="59.0789723676" lon="30.0123699848"><ele>41.48</ele><time>2026-04-25T12:25:24Z</time></trkpt><trkpt lat="59.0790040512" lon="30.0122707430"><ele>38.07</ele><time>2026-04-25T12:25:44Z</time></trkpt><trkpt lat="59.0790042188" lon="30.0122678932"><ele>41.40</ele><time>2026-04-25T12:25:46Z</time></trkpt><trkpt lat="59.0790083259" lon="30.0122583378"><ele>41.49</ele><time>2026-04-25T12:25:47Z</time></trkpt><trkpt lat="59.0790053084" lon="30.0122273248"><ele>39.51</ele><time>2026-04-25T12:26:06Z</time></trkpt><trkpt lat="59.0790108405" lon="30.0122043584"><ele>40.39</ele><time>2026-04-25T12:26:08Z</time></trkpt><trkpt lat="59.0789828449" lon="30.0121134147"><ele>38.80</ele><time>2026-04-25T12:26:23Z</time></trkpt><trkpt lat="59.0789364930" lon="30.0121452659"><ele>39.04</ele><time>2026-04-25T12:26:44Z</time></trkpt><trkpt lat="59.0788735449" lon="30.0122057833"><ele>40.21</ele><time>2026-04-25T12:27:03Z</time></trkpt><trkpt lat="59.0787561145" lon="30.0121485349"><ele>41.58</ele><time>2026-04-25T12:27:22Z</time></trkpt><trkpt lat="59.0787341539" lon="30.0120477006"><ele>42.48</ele><time>2026-04-25T12:27:32Z</time></trkpt><trkpt lat="59.0787079185" lon="30.0120057072"><ele>43.53</ele><time>2026-04-25T12:27:37Z</time></trkpt><trkpt lat="59.0786129516" lon="30.0120846648"><ele>45.47</ele><time>2026-04-25T12:28:05Z</time></trkpt><trkpt lat="59.0785428789" lon="30.0121717528"><ele>47.89</ele><time>2026-04-25T12:28:24Z</time></trkpt><trkpt lat="59.0785052441" lon="30.0122880936"><ele>49.09</ele><time>2026-04-25T12:28:31Z</time></trkpt><trkpt lat="59.0784619097" lon="30.0123346131"><ele>51.79</ele><time>2026-04-25T12:28:55Z</time></trkpt><trkpt lat="59.0784554556" lon="30.0121650472"><ele>52.41</ele><time>2026-04-25T12:29:29Z</time></trkpt><trkpt lat="59.0784790087" lon="30.0121494569"><ele>52.49</ele><time>2026-04-25T12:29:34Z</time></trkpt><trkpt lat="59.0785132907" lon="30.0121218804"><ele>55.19</ele><time>2026-04-25T12:29:40Z</time></trkpt><trkpt lat="59.0785250254" lon="30.0121156778"><ele>56.46</ele><time>2026-04-25T12:29:47Z</time></trkpt><trkpt lat="59.0785457287" lon="30.0120978244"><ele>59.21</ele><time>2026-04-25T12:30:07Z</time></trkpt><trkpt lat="59.0784681961" lon="30.0119346287"><ele>62.40</ele><time>2026-04-25T12:30:23Z</time></trkpt><trkpt lat="59.0784417093" lon="30.0116806570"><ele>65.03</ele><time>2026-04-25T12:30:40Z</time></trkpt><trkpt lat="59.0783721395" lon="30.0114370789"><ele>66.78</ele><time>2026-04-25T12:30:57Z</time></trkpt><trkpt lat="59.0783474129" lon="30.0112427864"><ele>68.99</ele><time>2026-04-25T12:31:14Z</time></trkpt><trkpt lat="59.0783293080" lon="30.0109619927"><ele>71.32</ele><time>2026-04-25T12:31:32Z</time></trkpt><trkpt lat="59.0782972053" lon="30.0105818734"><ele>73.89</ele><time>2026-04-25T12:31:54Z</time></trkpt><trkpt lat="59.0782944392" lon="30.0103620999"><ele>75.56</ele><time>2026-04-25T12:32:15Z</time></trkpt><trkpt lat="59.0782573912" lon="30.0103237946"><ele>76.83</ele><time>2026-04-25T12:32:25Z</time></trkpt><trkpt lat="59.0782175772" lon="30.0102879200"><ele>76.01</ele><time>2026-04-25T12:32:49Z</time></trkpt><trkpt lat="59.0781765059" lon="30.0103443302"><ele>77.31</ele><time>2026-04-25T12:33:06Z</time></trkpt><trkpt lat="59.0781418886" lon="30.0103528798"><ele>79.26</ele><time>2026-04-25T12:33:10Z</time></trkpt><trkpt lat="59.0780289844" lon="30.0103732478"><ele>80.18</ele><time>2026-04-25T12:33:24Z</time></trkpt><trkpt lat="59.0779606719" lon="30.0103896763"><ele>81.12</ele><time>2026-04-25T12:33:37Z</time></trkpt><trkpt lat="59.0778827202" lon="30.0104151573"><ele>81.80</ele><time>2026-04-25T12:33:50Z</time></trkpt><trkpt lat="59.0777921118" lon="30.0103221182"><ele>83.33</ele><time>2026-04-25T12:34:07Z</time></trkpt><trkpt lat="59.0777838137" lon="30.0102544762"><ele>81.63</ele><time>2026-04-25T12:34:16Z</time></trkpt><trkpt lat="59.0777961351" lon="30.0103551429"><ele>82.18</ele><time>2026-04-25T12:34:34Z</time></trkpt><trkpt lat="59.0778248012" lon="30.0103953760"><ele>85.29</ele><time>2026-04-25T12:34:51Z</time></trkpt><trkpt lat="59.0778227057" lon="30.0103937835"><ele>85.56</ele><time>2026-04-25T12:34:52Z</time></trkpt><trkpt lat="59.0778147429" lon="30.0103911851"><ele>85.96</ele><time>2026-04-25T12:35:01Z</time></trkpt><trkpt lat="59.0777936205" lon="30.0104141515"><ele>88.11</ele><time>2026-04-25T12:35:30Z</time></trkpt><trkpt lat="59.0777682234" lon="30.0105751678"><ele>88.71</ele><time>2026-04-25T12:35:46Z</time></trkpt><trkpt lat="59.0777980629" lon="30.0106621720"><ele>90.18</ele><time>2026-04-25T12:36:04Z</time></trkpt><trkpt lat="59.0778633580" lon="30.0107876491"><ele>90.42</ele><time>2026-04-25T12:36:21Z</time></trkpt><trkpt lat="59.0778828040" lon="30.0109109469"><ele>90.77</ele><time>2026-04-25T12:36:36Z</time></trkpt><trkpt lat="59.0778613463" lon="30.0110977795"><ele>91.65</ele><time>2026-04-25T12:36:51Z</time></trkpt><trkpt lat="59.0778470132" lon="30.0112611428"><ele>92.13</ele><time>2026-04-25T12:37:07Z</time></trkpt><trkpt lat="59.0778583288" lon="30.0114674214"><ele>92.90</ele><time>2026-04-25T12:37:22Z</time></trkpt><trkpt lat="59.0779061057" lon="30.0117376540"><ele>94.06</ele><time>2026-04-25T12:37:39Z</time></trkpt><trkpt lat="59.0779768489" lon="30.0118564256"><ele>94.81</ele><time>2026-04-25T12:37:54Z</time></trkpt><trkpt lat="59.0780301578" lon="30.0120974891"><ele>96.29</ele><time>2026-04-25T12:38:10Z</time></trkpt><trkpt lat="59.0780175850" lon="30.0124327652"><ele>97.75</ele><time>2026-04-25T12:38:30Z</time></trkpt><trkpt lat="59.0779851470" lon="30.0125315040"><ele>97.21</ele><time>2026-04-25T12:38:52Z</time></trkpt><trkpt lat="59.0779583249" lon="30.0125960447"><ele>96.69</ele><time>2026-04-25T12:39:16Z</time></trkpt><trkpt lat="59.0779351909" lon="30.0126080308"><ele>101.84</ele><time>2026-04-25T12:39:40Z</time></trkpt><trkpt lat="59.0779359452" lon="30.0126062706"><ele>100.42</ele><time>2026-04-25T12:39:41Z</time></trkpt><trkpt lat="59.0779398009" lon="30.0126040913"><ele>103.25</ele><time>2026-04-25T12:39:44Z</time></trkpt><trkpt lat="59.0779393818" lon="30.0125999842"><ele>106.36</ele><time>2026-04-25T12:39:47Z</time></trkpt><trkpt lat="59.0779239591" lon="30.0125193503"><ele>106.09</ele><time>2026-04-25T12:40:15Z</time></trkpt><trkpt lat="59.0778740868" lon="30.0124727469"><ele>106.72</ele><time>2026-04-25T12:40:30Z</time></trkpt><trkpt lat="59.0778527968" lon="30.0126215257"><ele>106.38</ele><time>2026-04-25T12:40:40Z</time></trkpt><trkpt lat="59.0779325925" lon="30.0126615074"><ele>106.13</ele><time>2026-04-25T12:41:03Z</time></trkpt><trkpt lat="59.0778934490" lon="30.0126871560"><ele>106.05</ele><time>2026-04-25T12:41:12Z</time></trkpt><trkpt lat="59.0777500346" lon="30.0127387047"><ele>105.53</ele><time>2026-04-25T12:41:25Z</time></trkpt><trkpt lat="59.0777198598" lon="30.0127170794"><ele>105.48</ele><time>2026-04-25T12:41:29Z</time></trkpt><trkpt lat="59.0776366275" lon="30.0127197616"><ele>104.84</ele><time>2026-04-25T12:41:38Z</time></trkpt><trkpt lat="59.0774990804" lon="30.0127404649"><ele>104.15</ele><time>2026-04-25T12:41:56Z</time></trkpt><trkpt lat="59.0774653852" lon="30.0127848890"><ele>102.81</ele><time>2026-04-25T12:42:14Z</time></trkpt><trkpt lat="59.0774770360" lon="30.0127680413"><ele>100.56</ele><time>2026-04-25T12:42:36Z</time></trkpt><trkpt lat="59.0774594340" lon="30.0127950311"><ele>101.34</ele><time>2026-04-25T12:42:45Z</time></trkpt><trkpt lat="59.0774784610" lon="30.0128386170"><ele>98.49</ele><time>2026-04-25T12:43:14Z</time></trkpt><trkpt lat="59.0774558298" lon="30.0128290616"><ele>96.65</ele><time>2026-04-25T12:43:43Z</time></trkpt><trkpt lat="59.0774699952" lon="30.0128258765"><ele>92.20</ele><time>2026-04-25T12:44:10Z</time></trkpt><trkpt lat="59.0774695762" lon="30.0128203444"><ele>92.65</ele><time>2026-04-25T12:44:11Z</time></trkpt><trkpt lat="59.0774687380" lon="30.0128180813"><ele>93.88</ele><time>2026-04-25T12:44:13Z</time></trkpt><trkpt lat="59.0774438437" lon="30.0127911754"><ele>91.72</ele><time>2026-04-25T12:44:45Z</time></trkpt><trkpt lat="59.0774380602" lon="30.0127807818"><ele>90.66</ele><time>2026-04-25T12:44:49Z</time></trkpt><trkpt lat="59.0775330272" lon="30.0128039997"><ele>87.17</ele><time>2026-04-25T12:45:13Z</time></trkpt><trkpt lat="59.0775262378" lon="30.0126666203"><ele>85.77</ele><time>2026-04-25T12:45:29Z</time></trkpt><trkpt lat="59.0774977393" lon="30.0125390477"><ele>85.33</ele><time>2026-04-25T12:45:43Z</time></trkpt><trkpt lat="59.0774417482" lon="30.0124484394"><ele>86.51</ele><time>2026-04-25T12:45:56Z</time></trkpt><trkpt lat="59.0774384793" lon="30.0124384649"><ele>86.51</ele><time>2026-04-25T12:45:57Z</time></trkpt><trkpt lat="59.0774319414" lon="30.0124123972"><ele>86.89</ele><time>2026-04-25T12:46:02Z</time></trkpt><trkpt lat="59.0774076339" lon="30.0123268180"><ele>86.97</ele><time>2026-04-25T12:46:09Z</time></trkpt><trkpt lat="59.0774444304" lon="30.0121818949"><ele>85.37</ele><time>2026-04-25T12:46:24Z</time></trkpt><trkpt lat="59.0774390660" lon="30.0120751094"><ele>81.69</ele><time>2026-04-25T12:46:34Z</time></trkpt><trkpt lat="59.0774326120" lon="30.0120606087"><ele>83.24</ele><time>2026-04-25T12:46:35Z</time></trkpt><trkpt lat="59.0774311032" lon="30.0120276678"><ele>84.03</ele><time>2026-04-25T12:46:37Z</time></trkpt><trkpt lat="59.0774296783" lon="30.0118781347"><ele>82.49</ele><time>2026-04-25T12:46:51Z</time></trkpt><trkpt lat="59.0773897804" lon="30.0117739476"><ele>81.64</ele><time>2026-04-25T12:47:02Z</time></trkpt><trkpt lat="59.0773927979" lon="30.0117710140"><ele>78.56</ele><time>2026-04-25T12:47:05Z</time></trkpt><trkpt lat="59.0773689933" lon="30.0117318705"><ele>80.84</ele><time>2026-04-25T12:47:08Z</time></trkpt><trkpt lat="59.0773688257" lon="30.0116931461"><ele>79.41</ele><time>2026-04-25T12:47:11Z</time></trkpt><trkpt lat="59.0773723461" lon="30.0115763023"><ele>78.12</ele><time>2026-04-25T12:47:25Z</time></trkpt><trkpt lat="59.0773591027" lon="30.0114395935"><ele>77.55</ele><time>2026-04-25T12:47:37Z</time></trkpt><trkpt lat="59.0773580968" lon="30.0113053154"><ele>79.36</ele><time>2026-04-25T12:47:52Z</time></trkpt><trkpt lat="59.0773564205" lon="30.0111923274"><ele>78.72</ele><time>2026-04-25T12:48:03Z</time></trkpt><trkpt lat="59.0773579292" lon="30.0110986177"><ele>77.71</ele><time>2026-04-25T12:48:12Z</time></trkpt><trkpt lat="59.0773400757" lon="30.0109350868"><ele>77.20</ele><time>2026-04-25T12:48:25Z</time></trkpt><trkpt lat="59.0773670655" lon="30.0109012239"><ele>73.55</ele><time>2026-04-25T12:48:31Z</time></trkpt><trkpt lat="59.0773601085" lon="30.0108744018"><ele>74.26</ele><time>2026-04-25T12:48:35Z</time></trkpt><trkpt lat="59.0773544088" lon="30.0106946938"><ele>74.80</ele><time>2026-04-25T12:48:49Z</time></trkpt><trkpt lat="59.0773518104" lon="30.0106425583"><ele>75.38</ele><time>2026-04-25T12:48:53Z</time></trkpt><trkpt lat="59.0773374774" lon="30.0105983019"><ele>73.89</ele><time>2026-04-25T12:48:56Z</time></trkpt><trkpt lat="59.0773025248" lon="30.0103694759"><ele>73.05</ele><time>2026-04-25T12:49:11Z</time></trkpt><trkpt lat="59.0773394890" lon="30.0101788715"><ele>72.40</ele><time>2026-04-25T12:49:25Z</time></trkpt><trkpt lat="59.0773480386" lon="30.0101429969"><ele>71.12</ele><time>2026-04-25T12:49:32Z</time></trkpt><trkpt lat="59.0773776267" lon="30.0100895204"><ele>66.00</ele><time>2026-04-25T12:49:46Z</time></trkpt><trkpt lat="59.0773820691" lon="30.0100813899"><ele>68.42</ele><time>2026-04-25T12:49:47Z</time></trkpt><trkpt lat="59.0773922950" lon="30.0100809708"><ele>70.36</ele><time>2026-04-25T12:49:49Z</time></trkpt><trkpt lat="59.0774121601" lon="30.0100685656"><ele>66.41</ele><time>2026-04-25T12:50:23Z</time></trkpt><trkpt lat="59.0774105676" lon="30.0100823957"><ele>67.05</ele><time>2026-04-25T12:50:24Z</time></trkpt><trkpt lat="59.0773970727" lon="30.0101359561"><ele>64.37</ele><time>2026-04-25T12:50:29Z</time></trkpt><trkpt lat="59.0773933847" lon="30.0101562403"><ele>64.39</ele><time>2026-04-25T12:50:57Z</time></trkpt><trkpt lat="59.0774346236" lon="30.0100949686"><ele>62.17</ele><time>2026-04-25T12:51:19Z</time></trkpt><trkpt lat="59.0774601884" lon="30.0100896042"><ele>59.30</ele><time>2026-04-25T12:51:46Z</time></trkpt><trkpt lat="59.0774777066" lon="30.0100803841"><ele>58.85</ele><time>2026-04-25T12:51:49Z</time></trkpt><trkpt lat="59.0775595978" lon="30.0100590102"><ele>59.34</ele><time>2026-04-25T12:52:03Z</time></trkpt><trkpt lat="59.0776252281" lon="30.0100530591"><ele>60.80</ele><time>2026-04-25T12:52:18Z</time></trkpt><trkpt lat="59.0776317660" lon="30.0100569986"><ele>59.31</ele><time>2026-04-25T12:52:20Z</time></trkpt><trkpt lat="59.0776311792" lon="30.0100512151"><ele>60.93</ele><time>2026-04-25T12:52:22Z</time></trkpt><trkpt lat="59.0776599292" lon="30.0100052822"><ele>60.02</ele><time>2026-04-25T12:52:29Z</time></trkpt><trkpt lat="59.0776969772" lon="30.0099806394"><ele>59.77</ele><time>2026-04-25T12:52:32Z</time></trkpt><trkpt lat="59.0778015833" lon="30.0099103153"><ele>57.86</ele><time>2026-04-25T12:52:44Z</time></trkpt><trkpt lat="59.0778560657" lon="30.0098490436"><ele>57.00</ele><time>2026-04-25T12:52:51Z</time></trkpt><trkpt lat="59.0779150743" lon="30.0098096486"><ele>56.17</ele><time>2026-04-25T12:52:58Z</time></trkpt><trkpt lat="59.0780200996" lon="30.0097005162"><ele>55.31</ele><time>2026-04-25T12:53:25Z</time></trkpt><trkpt lat="59.0779607557" lon="30.0097295176"><ele>52.56</ele><time>2026-04-25T12:53:48Z</time></trkpt><trkpt lat="59.0778166708" lon="30.0098834094"><ele>51.70</ele><time>2026-04-25T12:54:05Z</time></trkpt><trkpt lat="59.0776574984" lon="30.0100349542"><ele>50.18</ele><time>2026-04-25T12:54:23Z</time></trkpt><trkpt lat="59.0776142478" lon="30.0100376364"><ele>50.39</ele><time>2026-04-25T12:54:26Z</time></trkpt><trkpt lat="59.0775673091" lon="30.0100312661"><ele>45.83</ele><time>2026-04-25T12:54:30Z</time></trkpt><trkpt lat="59.0775591787" lon="30.0100331940"><ele>48.95</ele><time>2026-04-25T12:54:31Z</time></trkpt><trkpt lat="59.0774494596" lon="30.0100528076"><ele>49.02</ele><time>2026-04-25T12:54:46Z</time></trkpt><trkpt lat="59.0773800574" lon="30.0100558251"><ele>48.65</ele><time>2026-04-25T12:55:00Z</time></trkpt><trkpt lat="59.0773531515" lon="30.0099979900"><ele>47.81</ele><time>2026-04-25T12:55:30Z</time></trkpt><trkpt lat="59.0773583483" lon="30.0099385623"><ele>44.80</ele><time>2026-04-25T12:55:50Z</time></trkpt><trkpt lat="59.0773549117" lon="30.0099677313"><ele>47.28</ele><time>2026-04-25T12:55:53Z</time></trkpt><trkpt lat="59.0773905348" lon="30.0100114848"><ele>45.76</ele><time>2026-04-25T12:56:22Z</time></trkpt><trkpt lat="59.0773461945" lon="30.0100786239"><ele>44.36</ele><time>2026-04-25T12:56:52Z</time></trkpt><trkpt lat="59.0773889422" lon="30.0100733433"><ele>42.91</ele><time>2026-04-25T12:57:15Z</time></trkpt><trkpt lat="59.0772772953" lon="30.0101466011"><ele>41.73</ele><time>2026-04-25T12:57:28Z</time></trkpt><trkpt lat="59.0771643911" lon="30.0101967249"><ele>40.62</ele><time>2026-04-25T12:57:41Z</time></trkpt><trkpt lat="59.0770917200" lon="30.0102233794"><ele>37.06</ele><time>2026-04-25T12:57:53Z</time></trkpt><trkpt lat="59.0770710167" lon="30.0102138240"><ele>40.14</ele><time>2026-04-25T12:57:55Z</time></trkpt><trkpt lat="59.0770010278" lon="30.0102072861"><ele>39.19</ele><time>2026-04-25T12:58:06Z</time></trkpt><trkpt lat="59.0769053064" lon="30.0102717429"><ele>38.36</ele><time>2026-04-25T12:58:21Z</time></trkpt><trkpt lat="59.0769126825" lon="30.0103693083"><ele>32.01</ele><time>2026-04-25T12:58:41Z</time></trkpt><trkpt lat="59.0769089945" lon="30.0103692245"><ele>34.36</ele><time>2026-04-25T12:58:42Z</time></trkpt><trkpt lat="59.0769021213" lon="30.0103705656"><ele>37.37</ele><time>2026-04-25T12:58:51Z</time></trkpt><trkpt lat="59.0768688451" lon="30.0104299095"><ele>37.74</ele><time>2026-04-25T12:59:12Z</time></trkpt><trkpt lat="59.0768547636" lon="30.0105487648"><ele>37.82</ele><time>2026-04-25T12:59:31Z</time></trkpt><trkpt lat="59.0768610500" lon="30.0105569791"><ele>37.94</ele><time>2026-04-25T12:59:32Z</time></trkpt><trkpt lat="59.0768917277" lon="30.0108553749"><ele>37.33</ele><time>2026-04-25T12:59:51Z</time></trkpt><trkpt lat="59.0769440308" lon="30.0110473204"><ele>35.67</ele><time>2026-04-25T13:00:07Z</time></trkpt><trkpt lat="59.0769498143" lon="30.0112902280"><ele>34.61</ele><time>2026-04-25T13:00:23Z</time></trkpt><trkpt lat="59.0769746248" lon="30.0114561897"><ele>35.07</ele><time>2026-04-25T13:00:37Z</time></trkpt><trkpt lat="59.0770018660" lon="30.0116545893"><ele>35.62</ele><time>2026-04-25T13:00:55Z</time></trkpt><trkpt lat="59.0769882035" lon="30.0117892027"><ele>34.22</ele><time>2026-04-25T13:01:14Z</time></trkpt><trkpt lat="59.0769737028" lon="30.0119456090"><ele>33.18</ele><time>2026-04-25T13:01:35Z</time></trkpt><trkpt lat="59.0769656561" lon="30.0120241474"><ele>32.38</ele><time>2026-04-25T13:01:47Z</time></trkpt><trkpt lat="59.0769608784" lon="30.0120890234"><ele>27.08</ele><time>2026-04-25T13:01:54Z</time></trkpt><trkpt lat="59.0769589506" lon="30.0121031050"><ele>32.87</ele><time>2026-04-25T13:01:55Z</time></trkpt><trkpt lat="59.0769493952" lon="30.0121603534"><ele>32.78</ele><time>2026-04-25T13:02:00Z</time></trkpt><trkpt lat="59.0770017821" lon="30.0122835673"><ele>32.55</ele><time>2026-04-25T13:02:18Z</time></trkpt><trkpt lat="59.0769750439" lon="30.0124045182"><ele>32.34</ele><time>2026-04-25T13:02:43Z</time></trkpt><trkpt lat="59.0769985970" lon="30.0124209467"><ele>28.37</ele><time>2026-04-25T13:03:12Z</time></trkpt><trkpt lat="59.0770032909" lon="30.0123871677"><ele>28.99</ele><time>2026-04-25T13:03:38Z</time></trkpt><trkpt lat="59.0769707691" lon="30.0124501158"><ele>28.52</ele><time>2026-04-25T13:04:08Z</time></trkpt><trkpt lat="59.0769752953" lon="30.0124517921"><ele>23.04</ele><time>2026-04-25T13:04:10Z</time></trkpt><trkpt lat="59.0769770555" lon="30.0124474335"><ele>28.15</ele><time>2026-04-25T13:04:11Z</time></trkpt><trkpt lat="59.0769963339" lon="30.0124176778"><ele>31.16</ele><time>2026-04-25T13:04:38Z</time></trkpt><trkpt lat="59.0769878682" lon="30.0123929512"><ele>31.25</ele><time>2026-04-25T13:05:08Z</time></trkpt><trkpt lat="59.0769425221" lon="30.0124983117"><ele>29.27</ele><time>2026-04-25T13:05:20Z</time></trkpt><trkpt lat="59.0769094974" lon="30.0125906803"><ele>29.41</ele><time>2026-04-25T13:05:31Z</time></trkpt><trkpt lat="59.0769140236" lon="30.0126096234"><ele>31.00</ele><time>2026-04-25T13:05:34Z</time></trkpt><trkpt lat="59.0768847708" lon="30.0127519481"><ele>31.05</ele><time>2026-04-25T13:06:02Z</time></trkpt><trkpt lat="59.0768645704" lon="30.0127391238"><ele>28.01</ele><time>2026-04-25T13:06:13Z</time></trkpt><trkpt lat="59.0768400114" lon="30.0127607491"><ele>31.02</ele><time>2026-04-25T13:06:22Z</time></trkpt><trkpt lat="59.0768083278" lon="30.0127721485"><ele>29.03</ele><time>2026-04-25T13:06:31Z</time></trkpt><trkpt lat="59.0768073220" lon="30.0128216017"><ele>28.16</ele><time>2026-04-25T13:06:46Z</time></trkpt><trkpt lat="59.0768030472" lon="30.0128311571"><ele>26.21</ele><time>2026-04-25T13:06:49Z</time></trkpt><trkpt lat="59.0768081602" lon="30.0128350127"><ele>28.55</ele><time>2026-04-25T13:07:11Z</time></trkpt><trkpt lat="59.0768040530" lon="30.0128340907"><ele>31.09</ele><time>2026-04-25T13:07:46Z</time></trkpt><trkpt lat="59.0767940786" lon="30.0128425565"><ele>33.60</ele><time>2026-04-25T13:08:23Z</time></trkpt><trkpt lat="59.0767925698" lon="30.0128568057"><ele>34.02</ele><time>2026-04-25T13:08:57Z</time></trkpt><trkpt lat="59.0767810866" lon="30.0128536206"><ele>36.14</ele><time>2026-04-25T13:09:16Z</time></trkpt><trkpt lat="59.0767656639" lon="30.0129324943"><ele>34.92</ele><time>2026-04-25T13:09:36Z</time></trkpt><trkpt lat="59.0767427813" lon="30.0129925925"><ele>37.84</ele><time>2026-04-25T13:09:42Z</time></trkpt><trkpt lat="59.0767396800" lon="30.0130986236"><ele>38.17</ele><time>2026-04-25T13:09:49Z</time></trkpt><trkpt lat="59.0767495707" lon="30.0132025592"><ele>39.73</ele><time>2026-04-25T13:10:07Z</time></trkpt><trkpt lat="59.0767229162" lon="30.0133663416"><ele>40.83</ele><time>2026-04-25T13:10:19Z</time></trkpt><trkpt lat="59.0766731277" lon="30.0134698581"><ele>41.88</ele><time>2026-04-25T13:10:31Z</time></trkpt><trkpt lat="59.0766437910" lon="30.0136074051"><ele>43.16</ele><time>2026-04-25T13:10:44Z</time></trkpt><trkpt lat="59.0766329784" lon="30.0136567745"><ele>46.25</ele><time>2026-04-25T13:10:48Z</time></trkpt><trkpt lat="59.0766262729" lon="30.0137258414"><ele>46.97</ele><time>2026-04-25T13:10:54Z</time></trkpt><trkpt lat="59.0765974391" lon="30.0139104947"><ele>47.12</ele><time>2026-04-25T13:11:11Z</time></trkpt><trkpt lat="59.0765658394" lon="30.0141990837"><ele>46.72</ele><time>2026-04-25T13:11:37Z</time></trkpt><trkpt lat="59.0765132010" lon="30.0143165980"><ele>46.45</ele><time>2026-04-25T13:11:53Z</time></trkpt><trkpt lat="59.0764475707" lon="30.0144589227"><ele>46.48</ele><time>2026-04-25T13:12:09Z</time></trkpt><trkpt lat="59.0763679426" lon="30.0146982260"><ele>45.55</ele><time>2026-04-25T13:12:31Z</time></trkpt><trkpt lat="59.0763517655" lon="30.0149338413"><ele>46.64</ele><time>2026-04-25T13:12:49Z</time></trkpt><trkpt lat="59.0763052460" lon="30.0150292274"><ele>45.17</ele><time>2026-04-25T13:13:02Z</time></trkpt><trkpt lat="59.0762184095" lon="30.0151428021"><ele>47.11</ele><time>2026-04-25T13:13:21Z</time></trkpt><trkpt lat="59.0761748236" lon="30.0151694566"><ele>46.80</ele><time>2026-04-25T13:13:38Z</time></trkpt><trkpt lat="59.0761231910" lon="30.0153349154"><ele>45.27</ele><time>2026-04-25T13:13:53Z</time></trkpt><trkpt lat="59.0761145577" lon="30.0154845323"><ele>44.91</ele><time>2026-04-25T13:14:04Z</time></trkpt><trkpt lat="59.0761024039" lon="30.0155779067"><ele>42.84</ele><time>2026-04-25T13:14:11Z</time></trkpt><trkpt lat="59.0760977101" lon="30.0155897252"><ele>46.05</ele><time>2026-04-25T13:14:13Z</time></trkpt><trkpt lat="59.0760827065" lon="30.0156064052"><ele>38.38</ele><time>2026-04-25T13:14:16Z</time></trkpt><trkpt lat="59.0760775097" lon="30.0156053156"><ele>45.13</ele><time>2026-04-25T13:14:17Z</time></trkpt><trkpt lat="59.0760227758" lon="30.0158179644"><ele>42.01</ele><time>2026-04-25T13:14:36Z</time></trkpt><trkpt lat="59.0760250390" lon="30.0158449542"><ele>44.19</ele><time>2026-04-25T13:14:39Z</time></trkpt><trkpt lat="59.0760203451" lon="30.0160081498"><ele>42.78</ele><time>2026-04-25T13:14:54Z</time></trkpt><trkpt lat="59.0760186687" lon="30.0160265062"><ele>44.15</ele><time>2026-04-25T13:14:56Z</time></trkpt><trkpt lat="59.0760072693" lon="30.0160578545"><ele>45.49</ele><time>2026-04-25T13:15:00Z</time></trkpt><trkpt lat="59.0759818722" lon="30.0161630474"><ele>42.21</ele><time>2026-04-25T13:15:13Z</time></trkpt><trkpt lat="59.0759252105" lon="30.0162767060"><ele>39.01</ele><time>2026-04-25T13:15:29Z</time></trkpt><trkpt lat="59.0759209357" lon="30.0162747782"><ele>43.45</ele><time>2026-04-25T13:15:30Z</time></trkpt><trkpt lat="59.0758467559" lon="30.0163168553"><ele>41.66</ele><time>2026-04-25T13:15:41Z</time></trkpt><trkpt lat="59.0757543035" lon="30.0165142491"><ele>42.54</ele><time>2026-04-25T13:16:01Z</time></trkpt><trkpt lat="59.0757393837" lon="30.0165579189"><ele>42.41</ele><time>2026-04-25T13:16:04Z</time></trkpt><trkpt lat="59.0756569896" lon="30.0167357828"><ele>42.25</ele><time>2026-04-25T13:16:24Z</time></trkpt><trkpt lat="59.0755976457" lon="30.0168080349"><ele>39.29</ele><time>2026-04-25T13:16:38Z</time></trkpt><trkpt lat="59.0755706560" lon="30.0168284029"><ele>41.70</ele><time>2026-04-25T13:16:40Z</time></trkpt><trkpt lat="59.0754740965" lon="30.0168119743"><ele>39.49</ele><time>2026-04-25T13:16:53Z</time></trkpt><trkpt lat="59.0754048619" lon="30.0168451667"><ele>40.18</ele><time>2026-04-25T13:17:06Z</time></trkpt><trkpt lat="59.0753140021" lon="30.0169784389"><ele>41.05</ele><time>2026-04-25T13:17:20Z</time></trkpt><trkpt lat="59.0752553288" lon="30.0170402136"><ele>42.90</ele><time>2026-04-25T13:17:35Z</time></trkpt><trkpt lat="59.0752497129" lon="30.0170478411"><ele>42.23</ele><time>2026-04-25T13:17:37Z</time></trkpt><trkpt lat="59.0752251539" lon="30.0171963684"><ele>42.42</ele><time>2026-04-25T13:17:50Z</time></trkpt><trkpt lat="59.0751973260" lon="30.0172554608"><ele>40.55</ele><time>2026-04-25T13:18:04Z</time></trkpt><trkpt lat="59.0751763713" lon="30.0172405411"><ele>39.49</ele><time>2026-04-25T13:18:27Z</time></trkpt><trkpt lat="59.0751761198" lon="30.0172355957"><ele>40.70</ele><time>2026-04-25T13:18:36Z</time></trkpt><trkpt lat="59.0751962364" lon="30.0172573049"><ele>43.72</ele><time>2026-04-25T13:19:02Z</time></trkpt><trkpt lat="59.0751764551" lon="30.0172272976"><ele>43.96</ele><time>2026-04-25T13:19:35Z</time></trkpt><trkpt lat="59.0751613677" lon="30.0172285549"><ele>42.53</ele><time>2026-04-25T13:19:46Z</time></trkpt><trkpt lat="59.0751794726" lon="30.0172873121"><ele>43.44</ele><time>2026-04-25T13:20:19Z</time></trkpt><trkpt lat="59.0751825739" lon="30.0172853004"><ele>43.00</ele><time>2026-04-25T13:20:49Z</time></trkpt><trkpt lat="59.0751825739" lon="30.0172847975"><ele>42.85</ele><time>2026-04-25T13:20:50Z</time></trkpt><trkpt lat="59.0751956496" lon="30.0172806066"><ele>42.70</ele><time>2026-04-25T13:21:22Z</time></trkpt><trkpt lat="59.0751782153" lon="30.0172630046"><ele>42.63</ele><time>2026-04-25T13:21:52Z</time></trkpt><trkpt lat="59.0751960687" lon="30.0172441453"><ele>41.94</ele><time>2026-04-25T13:22:22Z</time></trkpt><trkpt lat="59.0751855075" lon="30.0172836240"><ele>40.69</ele><time>2026-04-25T13:22:55Z</time></trkpt><trkpt lat="59.0751916263" lon="30.0172826182"><ele>39.49</ele><time>2026-04-25T13:23:09Z</time></trkpt><trkpt lat="59.0751227271" lon="30.0172849651"><ele>38.64</ele><time>2026-04-25T13:23:25Z</time></trkpt><trkpt lat="59.0750464518" lon="30.0173200015"><ele>38.42</ele><time>2026-04-25T13:23:38Z</time></trkpt><trkpt lat="59.0749669075" lon="30.0174567942"><ele>38.90</ele><time>2026-04-25T13:23:54Z</time></trkpt><trkpt lat="59.0749266744" lon="30.0175203290"><ele>38.71</ele><time>2026-04-25T13:24:00Z</time></trkpt><trkpt lat="59.0748683363" lon="30.0175738893"><ele>38.17</ele><time>2026-04-25T13:24:07Z</time></trkpt><trkpt lat="59.0748431906" lon="30.0176075846"><ele>37.83</ele><time>2026-04-25T13:24:10Z</time></trkpt><trkpt lat="59.0747176297" lon="30.0177283678"><ele>38.03</ele><time>2026-04-25T13:24:27Z</time></trkpt><trkpt lat="59.0746713616" lon="30.0178529229"><ele>39.87</ele><time>2026-04-25T13:24:38Z</time></trkpt><trkpt lat="59.0745978523" lon="30.0180488918"><ele>39.35</ele><time>2026-04-25T13:24:51Z</time></trkpt><trkpt lat="59.0745466389" lon="30.0181760453"><ele>38.71</ele><time>2026-04-25T13:25:00Z</time></trkpt><trkpt lat="59.0745002870" lon="30.0183669012"><ele>38.69</ele><time>2026-04-25T13:25:13Z</time></trkpt><trkpt lat="59.0744841099" lon="30.0186408218"><ele>40.44</ele><time>2026-04-25T13:25:31Z</time></trkpt><trkpt lat="59.0744793322" lon="30.0188942067"><ele>39.97</ele><time>2026-04-25T13:25:49Z</time></trkpt><trkpt lat="59.0744729619" lon="30.0189458393"><ele>38.14</ele><time>2026-04-25T13:25:52Z</time></trkpt><trkpt lat="59.0744612273" lon="30.0189907663"><ele>40.09</ele><time>2026-04-25T13:25:54Z</time></trkpt><trkpt lat="59.0744442120" lon="30.0191737432"><ele>39.85</ele><time>2026-04-25T13:26:05Z</time></trkpt><trkpt lat="59.0744437929" lon="30.0191898365"><ele>40.45</ele><time>2026-04-25T13:26:06Z</time></trkpt><trkpt lat="59.0744302142" lon="30.0193379447"><ele>39.24</ele><time>2026-04-25T13:26:11Z</time></trkpt><trkpt lat="59.0744200721" lon="30.0195744820"><ele>39.28</ele><time>2026-04-25T13:26:24Z</time></trkpt><trkpt lat="59.0744079184" lon="30.0196225103"><ele>39.11</ele><time>2026-04-25T13:26:29Z</time></trkpt><trkpt lat="59.0743328165" lon="30.0196829438"><ele>40.83</ele><time>2026-04-25T13:26:40Z</time></trkpt><trkpt lat="59.0742611513" lon="30.0197844487"><ele>42.49</ele><time>2026-04-25T13:26:53Z</time></trkpt><trkpt lat="59.0741977002" lon="30.0198741350"><ele>41.35</ele><time>2026-04-25T13:27:09Z</time></trkpt><trkpt lat="59.0740657691" lon="30.0200334750"><ele>41.16</ele><time>2026-04-25T13:27:24Z</time></trkpt><trkpt lat="59.0740386117" lon="30.0200615544"><ele>40.97</ele><time>2026-04-25T13:27:27Z</time></trkpt><trkpt lat="59.0739748254" lon="30.0201546773"><ele>41.23</ele><time>2026-04-25T13:27:36Z</time></trkpt><trkpt lat="59.0739137214" lon="30.0201638974"><ele>41.46</ele><time>2026-04-25T13:27:42Z</time></trkpt><trkpt lat="59.0738435648" lon="30.0202014484"><ele>41.73</ele><time>2026-04-25T13:27:49Z</time></trkpt><trkpt lat="59.0737661161" lon="30.0203182083"><ele>41.39</ele><time>2026-04-25T13:28:00Z</time></trkpt><trkpt lat="59.0737050120" lon="30.0204265025"><ele>42.08</ele><time>2026-04-25T13:28:10Z</time></trkpt><trkpt lat="59.0736859012" lon="30.0204651430"><ele>42.37</ele><time>2026-04-25T13:28:13Z</time></trkpt><trkpt lat="59.0736532956" lon="30.0205396581"><ele>43.00</ele><time>2026-04-25T13:28:18Z</time></trkpt><trkpt lat="59.0736031719" lon="30.0206192024"><ele>44.28</ele><time>2026-04-25T13:28:25Z</time></trkpt><trkpt lat="59.0735336021" lon="30.0207112357"><ele>43.42</ele><time>2026-04-25T13:28:37Z</time></trkpt><trkpt lat="59.0735220350" lon="30.0208054483"><ele>43.98</ele><time>2026-04-25T13:28:45Z</time></trkpt><trkpt lat="59.0734747611" lon="30.0209101383"><ele>43.59</ele><time>2026-04-25T13:28:53Z</time></trkpt><trkpt lat="59.0734186862" lon="30.0210369565"><ele>43.45</ele><time>2026-04-25T13:29:07Z</time></trkpt><trkpt lat="59.0733208694" lon="30.0211773533"><ele>43.87</ele><time>2026-04-25T13:29:22Z</time></trkpt><trkpt lat="59.0732461028" lon="30.0213078596"><ele>43.45</ele><time>2026-04-25T13:29:36Z</time></trkpt><trkpt lat="59.0732089709" lon="30.0213273056"><ele>43.47</ele><time>2026-04-25T13:29:41Z</time></trkpt><trkpt lat="59.0730922110" lon="30.0213341787"><ele>45.19</ele><time>2026-04-25T13:29:58Z</time></trkpt><trkpt lat="59.0730293468" lon="30.0212919340"><ele>46.48</ele><time>2026-04-25T13:30:06Z</time></trkpt><trkpt lat="59.0729971603" lon="30.0213018246"><ele>46.72</ele><time>2026-04-25T13:30:09Z</time></trkpt><trkpt lat="59.0729031153" lon="30.0213469192"><ele>47.39</ele><time>2026-04-25T13:30:22Z</time></trkpt><trkpt lat="59.0728296060" lon="30.0214091968"><ele>50.55</ele><time>2026-04-25T13:30:35Z</time></trkpt><trkpt lat="59.0727861039" lon="30.0214028265"><ele>50.68</ele><time>2026-04-25T13:30:41Z</time></trkpt><trkpt lat="59.0727712680" lon="30.0214026589"><ele>49.69</ele><time>2026-04-25T13:30:43Z</time></trkpt><trkpt lat="59.0726571903" lon="30.0214467477"><ele>49.40</ele><time>2026-04-25T13:31:01Z</time></trkpt><trkpt lat="59.0726375766" lon="30.0216017291"><ele>49.51</ele><time>2026-04-25T13:31:09Z</time></trkpt><trkpt lat="59.0725977626" lon="30.0219523441"><ele>50.99</ele><time>2026-04-25T13:31:25Z</time></trkpt><trkpt lat="59.0725774784" lon="30.0222491473"><ele>51.21</ele><time>2026-04-25T13:31:39Z</time></trkpt><trkpt lat="59.0725835972" lon="30.0222767238"><ele>52.43</ele><time>2026-04-25T13:31:50Z</time></trkpt><trkpt lat="59.0725778136" lon="30.0222938228"><ele>54.41</ele><time>2026-04-25T13:32:03Z</time></trkpt><trkpt lat="59.0725731198" lon="30.0222776458"><ele>56.48</ele><time>2026-04-25T13:32:16Z</time></trkpt><trkpt lat="59.0725955833" lon="30.0223296136"><ele>57.05</ele><time>2026-04-25T13:32:43Z</time></trkpt><trkpt lat="59.0725985169" lon="30.0227594376"><ele>55.86</ele><time>2026-04-25T13:33:05Z</time></trkpt><trkpt lat="59.0725423582" lon="30.0229819771"><ele>57.19</ele><time>2026-04-25T13:33:24Z</time></trkpt><trkpt lat="59.0724968445" lon="30.0230191927"><ele>57.83</ele><time>2026-04-25T13:33:37Z</time></trkpt><trkpt lat="59.0725537576" lon="30.0229686499"><ele>57.49</ele><time>2026-04-25T13:34:12Z</time></trkpt><trkpt lat="59.0725530032" lon="30.0230948813"><ele>55.50</ele><time>2026-04-25T13:34:38Z</time></trkpt><trkpt lat="59.0725991037" lon="30.0234283134"><ele>55.13</ele><time>2026-04-25T13:34:54Z</time></trkpt><trkpt lat="59.0726674162" lon="30.0238982867"><ele>53.66</ele><time>2026-04-25T13:35:18Z</time></trkpt><trkpt lat="59.0726939030" lon="30.0241412781"><ele>52.91</ele><time>2026-04-25T13:35:30Z</time></trkpt><trkpt lat="59.0727692563" lon="30.0245003588"><ele>52.55</ele><time>2026-04-25T13:35:46Z</time></trkpt><trkpt lat="59.0728156082" lon="30.0247129239"><ele>51.99</ele><time>2026-04-25T13:35:56Z</time></trkpt><trkpt lat="59.0728469566" lon="30.0249852519"><ele>52.23</ele><time>2026-04-25T13:36:08Z</time></trkpt><trkpt lat="59.0728466213" lon="30.0250695739"><ele>52.74</ele><time>2026-04-25T13:36:12Z</time></trkpt><trkpt lat="59.0728613734" lon="30.0251278281"><ele>52.05</ele><time>2026-04-25T13:36:16Z</time></trkpt><trkpt lat="59.0728710126" lon="30.0252080429"><ele>52.07</ele><time>2026-04-25T13:36:20Z</time></trkpt><trkpt lat="59.0728777181" lon="30.0252497848"><ele>51.44</ele><time>2026-04-25T13:36:22Z</time></trkpt><trkpt lat="59.0729232319" lon="30.0254564825"><ele>51.24</ele><time>2026-04-25T13:36:34Z</time></trkpt><trkpt lat="59.0729638003" lon="30.0258128811"><ele>51.48</ele><time>2026-04-25T13:36:47Z</time></trkpt><trkpt lat="59.0729968250" lon="30.0260150526"><ele>51.19</ele><time>2026-04-25T13:36:54Z</time></trkpt><trkpt lat="59.0729856770" lon="30.0262547750"><ele>47.57</ele><time>2026-04-25T13:36:59Z</time></trkpt><trkpt lat="59.0729966573" lon="30.0262888893"><ele>50.53</ele><time>2026-04-25T13:37:01Z</time></trkpt><trkpt lat="59.0730016865" lon="30.0264761411"><ele>50.06</ele><time>2026-04-25T13:37:08Z</time></trkpt><trkpt lat="59.0730247367" lon="30.0267097447"><ele>50.16</ele><time>2026-04-25T13:37:19Z</time></trkpt><trkpt lat="59.0730710048" lon="30.0270407461"><ele>50.35</ele><time>2026-04-25T13:37:33Z</time></trkpt><trkpt lat="59.0731077176" lon="30.0275030080"><ele>51.92</ele><time>2026-04-25T13:37:53Z</time></trkpt><trkpt lat="59.0730717592" lon="30.0275513716"><ele>52.49</ele><time>2026-04-25T13:37:57Z</time></trkpt><trkpt lat="59.0728993434" lon="30.0276552234"><ele>53.40</ele><time>2026-04-25T13:38:14Z</time></trkpt><trkpt lat="59.0728127584" lon="30.0277257152"><ele>56.54</ele><time>2026-04-25T13:38:24Z</time></trkpt><trkpt lat="59.0728049632" lon="30.0277260505"><ele>56.55</ele><time>2026-04-25T13:38:25Z</time></trkpt><trkpt lat="59.0726750437" lon="30.0277793594"><ele>57.13</ele><time>2026-04-25T13:38:36Z</time></trkpt><trkpt lat="59.0725051425" lon="30.0278789364"><ele>58.35</ele><time>2026-04-25T13:38:54Z</time></trkpt><trkpt lat="59.0723452996" lon="30.0279888231"><ele>58.42</ele><time>2026-04-25T13:39:09Z</time></trkpt><trkpt lat="59.0722403582" lon="30.0280605722"><ele>58.00</ele><time>2026-04-25T13:39:21Z</time></trkpt><trkpt lat="59.0722079203" lon="30.0280733965"><ele>59.59</ele><time>2026-04-25T13:39:24Z</time></trkpt><trkpt lat="59.0721492469" lon="30.0281027332"><ele>57.29</ele><time>2026-04-25T13:39:30Z</time></trkpt><trkpt lat="59.0720835328" lon="30.0280732289"><ele>56.10</ele><time>2026-04-25T13:39:39Z</time></trkpt><trkpt lat="59.0719721373" lon="30.0281076785"><ele>56.21</ele><time>2026-04-25T13:39:54Z</time></trkpt><trkpt lat="59.0718194190" lon="30.0280901603"><ele>56.28</ele><time>2026-04-25T13:40:11Z</time></trkpt><trkpt lat="59.0717765875" lon="30.0281022303"><ele>56.29</ele><time>2026-04-25T13:40:16Z</time></trkpt><trkpt lat="59.0717530344" lon="30.0281075109"><ele>58.17</ele><time>2026-04-25T13:40:18Z</time></trkpt><trkpt lat="59.0716231987" lon="30.0281391107"><ele>59.63</ele><time>2026-04-25T13:40:32Z</time></trkpt><trkpt lat="59.0715053491" lon="30.0281388592"><ele>60.60</ele><time>2026-04-25T13:40:44Z</time></trkpt><trkpt lat="59.0714336839" lon="30.0281681959"><ele>62.48</ele><time>2026-04-25T13:40:54Z</time></trkpt><trkpt lat="59.0713812131" lon="30.0281725544"><ele>65.79</ele><time>2026-04-25T13:41:09Z</time></trkpt><trkpt lat="59.0713470988" lon="30.0281854626"><ele>64.56</ele><time>2026-04-25T13:41:12Z</time></trkpt><trkpt lat="59.0712441690" lon="30.0282330718"><ele>64.91</ele><time>2026-04-25T13:41:25Z</time></trkpt><trkpt lat="59.0712301712" lon="30.0282364246"><ele>64.82</ele><time>2026-04-25T13:41:27Z</time></trkpt><trkpt lat="59.0711328574" lon="30.0282834470"><ele>65.68</ele><time>2026-04-25T13:41:37Z</time></trkpt><trkpt lat="59.0711145010" lon="30.0282957684"><ele>65.59</ele><time>2026-04-25T13:41:39Z</time></trkpt><trkpt lat="59.0709681530" lon="30.0283727981"><ele>66.11</ele><time>2026-04-25T13:41:53Z</time></trkpt><trkpt lat="59.0708687436" lon="30.0284152105"><ele>66.63</ele><time>2026-04-25T13:42:05Z</time></trkpt><trkpt lat="59.0707807336" lon="30.0284757279"><ele>66.06</ele><time>2026-04-25T13:42:15Z</time></trkpt><trkpt lat="59.0706758760" lon="30.0285073277"><ele>67.55</ele><time>2026-04-25T13:42:26Z</time></trkpt><trkpt lat="59.0706071444" lon="30.0285675097"><ele>67.46</ele><time>2026-04-25T13:42:46Z</time></trkpt><trkpt lat="59.0705780592" lon="30.0285496563"><ele>66.79</ele><time>2026-04-25T13:42:59Z</time></trkpt><trkpt lat="59.0704743750" lon="30.0285553560"><ele>66.83</ele><time>2026-04-25T13:43:10Z</time></trkpt><trkpt lat="59.0703204833" lon="30.0286371633"><ele>66.35</ele><time>2026-04-25T13:43:28Z</time></trkpt><trkpt lat="59.0701423679" lon="30.0286999438"><ele>66.20</ele><time>2026-04-25T13:43:43Z</time></trkpt><trkpt lat="59.0700555313" lon="30.0286592077"><ele>67.19</ele><time>2026-04-25T13:43:51Z</time></trkpt><trkpt lat="59.0699793398" lon="30.0285861176"><ele>66.13</ele><time>2026-04-25T13:43:58Z</time></trkpt><trkpt lat="59.0698826965" lon="30.0286613032"><ele>65.80</ele><time>2026-04-25T13:44:10Z</time></trkpt><trkpt lat="59.0697960276" lon="30.0287486427"><ele>65.77</ele><time>2026-04-25T13:44:17Z</time></trkpt><trkpt lat="59.0696177445" lon="30.0287923124"><ele>65.73</ele><time>2026-04-25T13:44:30Z</time></trkpt><trkpt lat="59.0696052555" lon="30.0287908036"><ele>65.88</ele><time>2026-04-25T13:44:31Z</time></trkpt><trkpt lat="59.0694510285" lon="30.0288348924"><ele>65.32</ele><time>2026-04-25T13:44:45Z</time></trkpt><trkpt lat="59.0694126394" lon="30.0288678333"><ele>65.38</ele><time>2026-04-25T13:44:48Z</time></trkpt><trkpt lat="59.0693688020" lon="30.0289013609"><ele>65.24</ele><time>2026-04-25T13:44:53Z</time></trkpt><trkpt lat="59.0692786127" lon="30.0288011134"><ele>60.93</ele><time>2026-04-25T13:45:07Z</time></trkpt><trkpt lat="59.0692786127" lon="30.0288011134"><ele>61.19</ele><time>2026-04-25T13:45:08Z</time></trkpt><trkpt lat="59.0692843962" lon="30.0287897140"><ele>64.57</ele><time>2026-04-25T13:45:12Z</time></trkpt><trkpt lat="59.0692813788" lon="30.0287894625"><ele>64.71</ele><time>2026-04-25T13:45:13Z</time></trkpt><trkpt lat="59.0692521259" lon="30.0287857745"><ele>58.21</ele><time>2026-04-25T13:45:21Z</time></trkpt><trkpt lat="59.0692557301" lon="30.0287865289"><ele>62.84</ele><time>2026-04-25T13:45:22Z</time></trkpt><trkpt lat="59.0692626871" lon="30.0287871994"><ele>63.46</ele><time>2026-04-25T13:45:24Z</time></trkpt><trkpt lat="59.0692702308" lon="30.0287882891"><ele>63.39</ele><time>2026-04-25T13:45:25Z</time></trkpt><trkpt lat="59.0693297423" lon="30.0286800787"><ele>64.88</ele><time>2026-04-25T13:45:44Z</time></trkpt><trkpt lat="59.0693072788" lon="30.0286329724"><ele>61.16</ele><time>2026-04-25T13:46:02Z</time></trkpt><trkpt lat="59.0693080332" lon="30.0286340620"><ele>61.08</ele><time>2026-04-25T13:46:03Z</time></trkpt><trkpt lat="59.0693094581" lon="30.0286408514"><ele>64.82</ele><time>2026-04-25T13:46:05Z</time></trkpt><trkpt lat="59.0693134815" lon="30.0286415219"><ele>64.66</ele><time>2026-04-25T13:46:06Z</time></trkpt><trkpt lat="59.0693212766" lon="30.0286367442"><ele>65.07</ele><time>2026-04-25T13:46:10Z</time></trkpt><trkpt lat="59.0693101287" lon="30.0286639854"><ele>63.68</ele><time>2026-04-25T13:46:12Z</time></trkpt><trkpt lat="59.0692719910" lon="30.0287431944"><ele>64.16</ele><time>2026-04-25T13:46:18Z</time></trkpt><trkpt lat="59.0690793749" lon="30.0289825816"><ele>63.04</ele><time>2026-04-25T13:46:42Z</time></trkpt><trkpt lat="59.0689660516" lon="30.0289943162"><ele>62.80</ele><time>2026-04-25T13:46:54Z</time></trkpt><trkpt lat="59.0689427499" lon="30.0290093198"><ele>62.80</ele><time>2026-04-25T13:46:57Z</time></trkpt><trkpt lat="59.0688481182" lon="30.0290410873"><ele>61.87</ele><time>2026-04-25T13:47:08Z</time></trkpt><trkpt lat="59.0687891096" lon="30.0290738605"><ele>61.86</ele><time>2026-04-25T13:47:13Z</time></trkpt><trkpt lat="59.0686482936" lon="30.0291150995"><ele>62.50</ele><time>2026-04-25T13:47:27Z</time></trkpt><trkpt lat="59.0686456952" lon="30.0291117467"><ele>62.69</ele><time>2026-04-25T13:47:28Z</time></trkpt><trkpt lat="59.0685496386" lon="30.0291586015"><ele>62.58</ele><time>2026-04-25T13:47:41Z</time></trkpt><trkpt lat="59.0685215592" lon="30.0291626249"><ele>62.23</ele><time>2026-04-25T13:47:45Z</time></trkpt><trkpt lat="59.0684158634" lon="30.0291372277"><ele>62.11</ele><time>2026-04-25T13:47:58Z</time></trkpt><trkpt lat="59.0683782287" lon="30.0291628763"><ele>61.67</ele><time>2026-04-25T13:48:04Z</time></trkpt><trkpt lat="59.0682505723" lon="30.0291819870"><ele>61.10</ele><time>2026-04-25T13:48:18Z</time></trkpt><trkpt lat="59.0680071618" lon="30.0293111522"><ele>60.76</ele><time>2026-04-25T13:48:36Z</time></trkpt><trkpt lat="59.0679523442" lon="30.0292981602"><ele>58.85</ele><time>2026-04-25T13:48:41Z</time></trkpt><trkpt lat="59.0679376759" lon="30.0292991661"><ele>60.49</ele><time>2026-04-25T13:48:44Z</time></trkpt><trkpt lat="59.0678515937" lon="30.0293031894"><ele>60.72</ele><time>2026-04-25T13:49:02Z</time></trkpt><trkpt lat="59.0677484963" lon="30.0293220486"><ele>60.68</ele><time>2026-04-25T13:49:14Z</time></trkpt><trkpt lat="59.0676963609" lon="30.0293877628"><ele>60.18</ele><time>2026-04-25T13:49:19Z</time></trkpt><trkpt lat="59.0676404536" lon="30.0294326060"><ele>59.91</ele><time>2026-04-25T13:49:24Z</time></trkpt><trkpt lat="59.0676042438" lon="30.0294734258"><ele>59.28</ele><time>2026-04-25T13:49:28Z</time></trkpt><trkpt lat="59.0675714705" lon="30.0294930395"><ele>59.12</ele><time>2026-04-25T13:49:32Z</time></trkpt><trkpt lat="59.0674409643" lon="30.0295372959"><ele>59.78</ele><time>2026-04-25T13:49:46Z</time></trkpt><trkpt lat="59.0672215261" lon="30.0295166764"><ele>57.93</ele><time>2026-04-25T13:50:04Z</time></trkpt><trkpt lat="59.0671158303" lon="30.0296093803"><ele>59.13</ele><time>2026-04-25T13:50:18Z</time></trkpt><trkpt lat="59.0669488627" lon="30.0296184327"><ele>59.76</ele><time>2026-04-25T13:50:36Z</time></trkpt><trkpt lat="59.0668098070" lon="30.0297219492"><ele>60.57</ele><time>2026-04-25T13:50:55Z</time></trkpt><trkpt lat="59.0667118225" lon="30.0297890883"><ele>61.34</ele><time>2026-04-25T13:51:08Z</time></trkpt><trkpt lat="59.0666172747" lon="30.0297515374"><ele>60.46</ele><time>2026-04-25T13:51:20Z</time></trkpt><trkpt lat="59.0664993413" lon="30.0298209395"><ele>60.30</ele><time>2026-04-25T13:51:33Z</time></trkpt><trkpt lat="59.0663868561" lon="30.0297661219"><ele>59.45</ele><time>2026-04-25T13:51:47Z</time></trkpt><trkpt lat="59.0663229860" lon="30.0297741685"><ele>59.67</ele><time>2026-04-25T13:51:59Z</time></trkpt><trkpt lat="59.0662386641" lon="30.0297667086"><ele>60.20</ele><time>2026-04-25T13:52:19Z</time></trkpt><trkpt lat="59.0662286058" lon="30.0297913514"><ele>59.65</ele><time>2026-04-25T13:52:27Z</time></trkpt><trkpt lat="59.0661975928" lon="30.0298178382"><ele>57.95</ele><time>2026-04-25T13:52:58Z</time></trkpt><trkpt lat="59.0661074873" lon="30.0299144816"><ele>58.29</ele><time>2026-04-25T13:53:21Z</time></trkpt><trkpt lat="59.0660569444" lon="30.0300114602"><ele>59.17</ele><time>2026-04-25T13:53:37Z</time></trkpt><trkpt lat="59.0659571160" lon="30.0301579759"><ele>58.34</ele><time>2026-04-25T13:53:55Z</time></trkpt><trkpt lat="59.0659180563" lon="30.0301622506"><ele>57.59</ele><time>2026-04-25T13:54:00Z</time></trkpt><trkpt lat="59.0658143722" lon="30.0302517693"><ele>58.18</ele><time>2026-04-25T13:54:14Z</time></trkpt><trkpt lat="59.0656988695" lon="30.0301908329"><ele>56.29</ele><time>2026-04-25T13:54:32Z</time></trkpt><trkpt lat="59.0656141285" lon="30.0301531143"><ele>57.31</ele><time>2026-04-25T13:54:48Z</time></trkpt><trkpt lat="59.0655163955" lon="30.0301805232"><ele>56.96</ele><time>2026-04-25T13:55:01Z</time></trkpt><trkpt lat="59.0653764177" lon="30.0302195828"><ele>56.32</ele><time>2026-04-25T13:55:14Z</time></trkpt><trkpt lat="59.0652516112" lon="30.0302487519"><ele>55.88</ele><time>2026-04-25T13:55:27Z</time></trkpt><trkpt lat="59.0651713125" lon="30.0302721374"><ele>55.77</ele><time>2026-04-25T13:55:34Z</time></trkpt><trkpt lat="59.0650357772" lon="30.0303295534"><ele>56.59</ele><time>2026-04-25T13:55:47Z</time></trkpt><trkpt lat="59.0648981463" lon="30.0303214230"><ele>56.05</ele><time>2026-04-25T13:56:07Z</time></trkpt><trkpt lat="59.0647844877" lon="30.0303723849"><ele>55.93</ele><time>2026-04-25T13:56:21Z</time></trkpt><trkpt lat="59.0647143312" lon="30.0304065831"><ele>55.02</ele><time>2026-04-25T13:56:29Z</time></trkpt><trkpt lat="59.0646909457" lon="30.0304286275"><ele>55.35</ele><time>2026-04-25T13:56:32Z</time></trkpt><trkpt lat="59.0645375568" lon="30.0304828584"><ele>55.27</ele><time>2026-04-25T13:56:47Z</time></trkpt><trkpt lat="59.0645248163" lon="30.0304835290"><ele>55.32</ele><time>2026-04-25T13:56:48Z</time></trkpt><trkpt lat="59.0644547436" lon="30.0305204093"><ele>48.53</ele><time>2026-04-25T13:56:59Z</time></trkpt><trkpt lat="59.0644462779" lon="30.0305313896"><ele>54.65</ele><time>2026-04-25T13:57:00Z</time></trkpt><trkpt lat="59.0644292627" lon="30.0305465609"><ele>55.69</ele><time>2026-04-25T13:57:02Z</time></trkpt><trkpt lat="59.0642923862" lon="30.0305957627"><ele>54.53</ele><time>2026-04-25T13:57:14Z</time></trkpt><trkpt lat="59.0641813260" lon="30.0307018775"><ele>54.07</ele><time>2026-04-25T13:57:28Z</time></trkpt><trkpt lat="59.0640211478" lon="30.0306792464"><ele>55.38</ele><time>2026-04-25T13:57:46Z</time></trkpt><trkpt lat="59.0639298689" lon="30.0307015423"><ele>56.82</ele><time>2026-04-25T13:58:01Z</time></trkpt><trkpt lat="59.0639264323" lon="30.0307013746"><ele>56.85</ele><time>2026-04-25T13:58:02Z</time></trkpt><trkpt lat="59.0638546832" lon="30.0307188928"><ele>55.67</ele><time>2026-04-25T13:58:20Z</time></trkpt><trkpt lat="59.0637518372" lon="30.0307707768"><ele>56.80</ele><time>2026-04-25T13:58:36Z</time></trkpt><trkpt lat="59.0636312217" lon="30.0308335572"><ele>55.28</ele><time>2026-04-25T13:58:49Z</time></trkpt><trkpt lat="59.0635169763" lon="30.0308868662"><ele>55.59</ele><time>2026-04-25T13:58:58Z</time></trkpt><trkpt lat="59.0633963607" lon="30.0309253391"><ele>56.26</ele><time>2026-04-25T13:59:15Z</time></trkpt><trkpt lat="59.0633550379" lon="30.0309929810"><ele>56.80</ele><time>2026-04-25T13:59:46Z</time></trkpt><trkpt lat="59.0633407887" lon="30.0310172047"><ele>57.48</ele><time>2026-04-25T14:00:18Z</time></trkpt><trkpt lat="59.0633396152" lon="30.0310084037"><ele>56.06</ele><time>2026-04-25T14:00:48Z</time></trkpt></trkseg></trk></gpx>